<?xml version="1.0" encoding="UTF-8" standalone="no" ?>
<gpx xmlns="http://www.topografix.com/GPX/1/1" xmlns:xsi="http://www.w3.org/2001/XMLSchema-instance" xsi:schemaLocation="http://www.topografix.com/GPX/1/1 http://www.topografix.com/GPX/1/1/gpx.xsd" version="1.1" creator="VisuGPX - https://www.visugpx.com">
  <metadata>
    <name>Du triangle d\'Engins à la BArthélémie</name>
    <desc><![CDATA[Tricotage autour du pas de Bellecombe]]></desc>
  </metadata>
  <trk>
    <name><![CDATA[2013-02-10-bellecombe]]></name>
    <trkseg>
      <trkpt lat="45.1744" lon="5.61654">
        <ele>900.2</ele>
        <time>2013-02-10T07:45:57Z</time>
      </trkpt>
      <trkpt lat="45.1744" lon="5.61642">
        <ele>898.7</ele>
        <time>2013-02-10T07:47:53Z</time>
      </trkpt>
      <trkpt lat="45.17439" lon="5.61641">
        <ele>898.7</ele>
        <time>2013-02-10T07:47:54Z</time>
      </trkpt>
      <trkpt lat="45.17436" lon="5.6162">
        <ele>897.9</ele>
        <time>2013-02-10T07:48:06Z</time>
      </trkpt>
      <trkpt lat="45.17436" lon="5.61607">
        <ele>897.7</ele>
        <time>2013-02-10T07:48:13Z</time>
      </trkpt>
      <trkpt lat="45.17435" lon="5.61595">
        <ele>898.3</ele>
        <time>2013-02-10T07:48:23Z</time>
      </trkpt>
      <trkpt lat="45.1744" lon="5.61605">
        <ele>901.5</ele>
        <time>2013-02-10T07:50:09Z</time>
      </trkpt>
      <trkpt lat="45.1744" lon="5.61606">
        <ele>901.7</ele>
        <time>2013-02-10T07:50:10Z</time>
      </trkpt>
      <trkpt lat="45.17448" lon="5.61627">
        <ele>905.4</ele>
        <time>2013-02-10T07:50:39Z</time>
      </trkpt>
      <trkpt lat="45.1745" lon="5.61639">
        <ele>906.4</ele>
        <time>2013-02-10T07:50:52Z</time>
      </trkpt>
      <trkpt lat="45.17456" lon="5.61648">
        <ele>908.4</ele>
        <time>2013-02-10T07:51:04Z</time>
      </trkpt>
      <trkpt lat="45.17464" lon="5.61652">
        <ele>911</ele>
        <time>2013-02-10T07:51:15Z</time>
      </trkpt>
      <trkpt lat="45.17465" lon="5.61652">
        <ele>911.1</ele>
        <time>2013-02-10T07:51:16Z</time>
      </trkpt>
      <trkpt lat="45.17471" lon="5.6163">
        <ele>916.1</ele>
        <time>2013-02-10T07:51:43Z</time>
      </trkpt>
      <trkpt lat="45.17475" lon="5.61618">
        <ele>919</ele>
        <time>2013-02-10T07:51:59Z</time>
      </trkpt>
      <trkpt lat="45.17479" lon="5.61607">
        <ele>920.8</ele>
        <time>2013-02-10T07:52:12Z</time>
      </trkpt>
      <trkpt lat="45.17483" lon="5.61597">
        <ele>923.8</ele>
        <time>2013-02-10T07:52:24Z</time>
      </trkpt>
      <trkpt lat="45.17483" lon="5.61596">
        <ele>923.9</ele>
        <time>2013-02-10T07:52:25Z</time>
      </trkpt>
      <trkpt lat="45.17495" lon="5.61583">
        <ele>929.8</ele>
        <time>2013-02-10T07:52:53Z</time>
      </trkpt>
      <trkpt lat="45.17503" lon="5.61589">
        <ele>932.4</ele>
        <time>2013-02-10T07:53:06Z</time>
      </trkpt>
      <trkpt lat="45.1751" lon="5.61596">
        <ele>935.6</ele>
        <time>2013-02-10T07:53:19Z</time>
      </trkpt>
      <trkpt lat="45.17517" lon="5.61604">
        <ele>937.6</ele>
        <time>2013-02-10T07:53:31Z</time>
      </trkpt>
      <trkpt lat="45.17517" lon="5.61604">
        <ele>937.8</ele>
        <time>2013-02-10T07:53:32Z</time>
      </trkpt>
      <trkpt lat="45.1753" lon="5.61618">
        <ele>944</ele>
        <time>2013-02-10T07:53:55Z</time>
      </trkpt>
      <trkpt lat="45.17539" lon="5.6162">
        <ele>946.1</ele>
        <time>2013-02-10T07:54:12Z</time>
      </trkpt>
      <trkpt lat="45.17544" lon="5.6161">
        <ele>947.6</ele>
        <time>2013-02-10T07:54:26Z</time>
      </trkpt>
      <trkpt lat="45.17551" lon="5.61602">
        <ele>951</ele>
        <time>2013-02-10T07:54:38Z</time>
      </trkpt>
      <trkpt lat="45.17551" lon="5.61601">
        <ele>951</ele>
        <time>2013-02-10T07:54:39Z</time>
      </trkpt>
      <trkpt lat="45.17562" lon="5.61583">
        <ele>953.9</ele>
        <time>2013-02-10T07:55:00Z</time>
      </trkpt>
      <trkpt lat="45.17567" lon="5.61574">
        <ele>956.4</ele>
        <time>2013-02-10T07:55:10Z</time>
      </trkpt>
      <trkpt lat="45.17573" lon="5.61564">
        <ele>959</ele>
        <time>2013-02-10T07:55:22Z</time>
      </trkpt>
      <trkpt lat="45.17574" lon="5.61551">
        <ele>959.4</ele>
        <time>2013-02-10T07:55:34Z</time>
      </trkpt>
      <trkpt lat="45.17574" lon="5.61539">
        <ele>960.2</ele>
        <time>2013-02-10T07:55:45Z</time>
      </trkpt>
      <trkpt lat="45.17574" lon="5.61538">
        <ele>960.7</ele>
        <time>2013-02-10T07:55:46Z</time>
      </trkpt>
      <trkpt lat="45.17576" lon="5.61514">
        <ele>963</ele>
        <time>2013-02-10T07:56:08Z</time>
      </trkpt>
      <trkpt lat="45.17578" lon="5.61502">
        <ele>965</ele>
        <time>2013-02-10T07:56:22Z</time>
      </trkpt>
      <trkpt lat="45.1758" lon="5.6149">
        <ele>967.6</ele>
        <time>2013-02-10T07:56:36Z</time>
      </trkpt>
      <trkpt lat="45.17576" lon="5.61478">
        <ele>969.4</ele>
        <time>2013-02-10T07:56:49Z</time>
      </trkpt>
      <trkpt lat="45.17575" lon="5.61478">
        <ele>969.8</ele>
        <time>2013-02-10T07:56:50Z</time>
      </trkpt>
      <trkpt lat="45.17563" lon="5.61462">
        <ele>975.5</ele>
        <time>2013-02-10T07:57:16Z</time>
      </trkpt>
      <trkpt lat="45.17557" lon="5.61453">
        <ele>978</ele>
        <time>2013-02-10T07:57:29Z</time>
      </trkpt>
      <trkpt lat="45.17551" lon="5.61445">
        <ele>980.2</ele>
        <time>2013-02-10T07:57:42Z</time>
      </trkpt>
      <trkpt lat="45.17543" lon="5.61438">
        <ele>983.8</ele>
        <time>2013-02-10T07:57:54Z</time>
      </trkpt>
      <trkpt lat="45.17543" lon="5.61438">
        <ele>984.1</ele>
        <time>2013-02-10T07:57:55Z</time>
      </trkpt>
      <trkpt lat="45.17538" lon="5.61415">
        <ele>990.2</ele>
        <time>2013-02-10T07:58:27Z</time>
      </trkpt>
      <trkpt lat="45.17534" lon="5.61404">
        <ele>992.7</ele>
        <time>2013-02-10T07:58:41Z</time>
      </trkpt>
      <trkpt lat="45.17526" lon="5.61411">
        <ele>997.3</ele>
        <time>2013-02-10T07:59:08Z</time>
      </trkpt>
      <trkpt lat="45.17526" lon="5.61411">
        <ele>997.3</ele>
        <time>2013-02-10T07:59:09Z</time>
      </trkpt>
      <trkpt lat="45.17517" lon="5.61401">
        <ele>1004.9</ele>
        <time>2013-02-10T07:59:47Z</time>
      </trkpt>
      <trkpt lat="45.1751" lon="5.61394">
        <ele>1008.5</ele>
        <time>2013-02-10T08:00:03Z</time>
      </trkpt>
      <trkpt lat="45.17505" lon="5.61384">
        <ele>1011.6</ele>
        <time>2013-02-10T08:00:17Z</time>
      </trkpt>
      <trkpt lat="45.17504" lon="5.61383">
        <ele>1011.8</ele>
        <time>2013-02-10T08:00:18Z</time>
      </trkpt>
      <trkpt lat="45.17492" lon="5.61368">
        <ele>1016.9</ele>
        <time>2013-02-10T08:00:42Z</time>
      </trkpt>
      <trkpt lat="45.17486" lon="5.61358">
        <ele>1018.8</ele>
        <time>2013-02-10T08:00:56Z</time>
      </trkpt>
      <trkpt lat="45.17493" lon="5.61349">
        <ele>1023.2</ele>
        <time>2013-02-10T08:01:11Z</time>
      </trkpt>
      <trkpt lat="45.17498" lon="5.61339">
        <ele>1026</ele>
        <time>2013-02-10T08:01:25Z</time>
      </trkpt>
      <trkpt lat="45.17498" lon="5.61338">
        <ele>1025.9</ele>
        <time>2013-02-10T08:01:26Z</time>
      </trkpt>
      <trkpt lat="45.17504" lon="5.61316">
        <ele>1029.6</ele>
        <time>2013-02-10T08:01:51Z</time>
      </trkpt>
      <trkpt lat="45.17507" lon="5.61305">
        <ele>1032.3</ele>
        <time>2013-02-10T08:02:03Z</time>
      </trkpt>
      <trkpt lat="45.17509" lon="5.61293">
        <ele>1035.5</ele>
        <time>2013-02-10T08:02:15Z</time>
      </trkpt>
      <trkpt lat="45.17511" lon="5.61281">
        <ele>1037.4</ele>
        <time>2013-02-10T08:02:28Z</time>
      </trkpt>
      <trkpt lat="45.17512" lon="5.6128">
        <ele>1037.3</ele>
        <time>2013-02-10T08:02:29Z</time>
      </trkpt>
      <trkpt lat="45.17519" lon="5.6126">
        <ele>1042</ele>
        <time>2013-02-10T08:02:51Z</time>
      </trkpt>
      <trkpt lat="45.17518" lon="5.61247">
        <ele>1046</ele>
        <time>2013-02-10T08:03:07Z</time>
      </trkpt>
      <trkpt lat="45.17521" lon="5.61236">
        <ele>1047.4</ele>
        <time>2013-02-10T08:03:21Z</time>
      </trkpt>
      <trkpt lat="45.17524" lon="5.61224">
        <ele>1050.9</ele>
        <time>2013-02-10T08:03:36Z</time>
      </trkpt>
      <trkpt lat="45.17524" lon="5.61224">
        <ele>1051</ele>
        <time>2013-02-10T08:03:37Z</time>
      </trkpt>
      <trkpt lat="45.17524" lon="5.61201">
        <ele>1057.3</ele>
        <time>2013-02-10T08:04:04Z</time>
      </trkpt>
      <trkpt lat="45.17526" lon="5.61188">
        <ele>1059.9</ele>
        <time>2013-02-10T08:04:17Z</time>
      </trkpt>
      <trkpt lat="45.17529" lon="5.61177">
        <ele>1063.1</ele>
        <time>2013-02-10T08:04:31Z</time>
      </trkpt>
      <trkpt lat="45.17531" lon="5.61165">
        <ele>1066.8</ele>
        <time>2013-02-10T08:04:43Z</time>
      </trkpt>
      <trkpt lat="45.17531" lon="5.61164">
        <ele>1066.8</ele>
        <time>2013-02-10T08:04:44Z</time>
      </trkpt>
      <trkpt lat="45.17533" lon="5.61141">
        <ele>1071.3</ele>
        <time>2013-02-10T08:05:07Z</time>
      </trkpt>
      <trkpt lat="45.17533" lon="5.61128">
        <ele>1073.5</ele>
        <time>2013-02-10T08:05:19Z</time>
      </trkpt>
      <trkpt lat="45.17531" lon="5.61116">
        <ele>1075.6</ele>
        <time>2013-02-10T08:05:31Z</time>
      </trkpt>
      <trkpt lat="45.17531" lon="5.61104">
        <ele>1078.3</ele>
        <time>2013-02-10T08:05:42Z</time>
      </trkpt>
      <trkpt lat="45.17529" lon="5.61091">
        <ele>1080.8</ele>
        <time>2013-02-10T08:05:54Z</time>
      </trkpt>
      <trkpt lat="45.17529" lon="5.6109">
        <ele>1081</ele>
        <time>2013-02-10T08:05:55Z</time>
      </trkpt>
      <trkpt lat="45.17528" lon="5.61067">
        <ele>1084.6</ele>
        <time>2013-02-10T08:06:16Z</time>
      </trkpt>
      <trkpt lat="45.17527" lon="5.61056">
        <ele>1086.7</ele>
        <time>2013-02-10T08:06:27Z</time>
      </trkpt>
      <trkpt lat="45.17526" lon="5.61044">
        <ele>1088.2</ele>
        <time>2013-02-10T08:06:37Z</time>
      </trkpt>
      <trkpt lat="45.17523" lon="5.61033">
        <ele>1089.9</ele>
        <time>2013-02-10T08:06:47Z</time>
      </trkpt>
      <trkpt lat="45.17519" lon="5.61022">
        <ele>1091.1</ele>
        <time>2013-02-10T08:06:58Z</time>
      </trkpt>
      <trkpt lat="45.17518" lon="5.61021">
        <ele>1091.3</ele>
        <time>2013-02-10T08:06:59Z</time>
      </trkpt>
      <trkpt lat="45.17508" lon="5.61003">
        <ele>1094.3</ele>
        <time>2013-02-10T08:07:18Z</time>
      </trkpt>
      <trkpt lat="45.17503" lon="5.60993">
        <ele>1096.7</ele>
        <time>2013-02-10T08:07:30Z</time>
      </trkpt>
      <trkpt lat="45.17498" lon="5.60983">
        <ele>1098.1</ele>
        <time>2013-02-10T08:07:41Z</time>
      </trkpt>
      <trkpt lat="45.17492" lon="5.60974">
        <ele>1099.8</ele>
        <time>2013-02-10T08:07:51Z</time>
      </trkpt>
      <trkpt lat="45.17488" lon="5.60963">
        <ele>1102.2</ele>
        <time>2013-02-10T08:08:02Z</time>
      </trkpt>
      <trkpt lat="45.17487" lon="5.60962">
        <ele>1102.7</ele>
        <time>2013-02-10T08:08:03Z</time>
      </trkpt>
      <trkpt lat="45.17479" lon="5.60942">
        <ele>1106.3</ele>
        <time>2013-02-10T08:08:27Z</time>
      </trkpt>
      <trkpt lat="45.17476" lon="5.60931">
        <ele>1109</ele>
        <time>2013-02-10T08:08:38Z</time>
      </trkpt>
      <trkpt lat="45.17472" lon="5.6092">
        <ele>1111.9</ele>
        <time>2013-02-10T08:08:50Z</time>
      </trkpt>
      <trkpt lat="45.1747" lon="5.60908">
        <ele>1114.4</ele>
        <time>2013-02-10T08:09:04Z</time>
      </trkpt>
      <trkpt lat="45.1747" lon="5.60907">
        <ele>1114.2</ele>
        <time>2013-02-10T08:09:05Z</time>
      </trkpt>
      <trkpt lat="45.17464" lon="5.60885">
        <ele>1119.8</ele>
        <time>2013-02-10T08:09:30Z</time>
      </trkpt>
      <trkpt lat="45.17463" lon="5.60873">
        <ele>1122.5</ele>
        <time>2013-02-10T08:09:43Z</time>
      </trkpt>
      <trkpt lat="45.1746" lon="5.60861">
        <ele>1126.6</ele>
        <time>2013-02-10T08:09:57Z</time>
      </trkpt>
      <trkpt lat="45.17457" lon="5.6085">
        <ele>1128.7</ele>
        <time>2013-02-10T08:10:09Z</time>
      </trkpt>
      <trkpt lat="45.17457" lon="5.60849">
        <ele>1128.8</ele>
        <time>2013-02-10T08:10:10Z</time>
      </trkpt>
      <trkpt lat="45.17452" lon="5.60826">
        <ele>1133.7</ele>
        <time>2013-02-10T08:10:33Z</time>
      </trkpt>
      <trkpt lat="45.17449" lon="5.60814">
        <ele>1135.8</ele>
        <time>2013-02-10T08:10:46Z</time>
      </trkpt>
      <trkpt lat="45.17447" lon="5.60803">
        <ele>1138.3</ele>
        <time>2013-02-10T08:10:58Z</time>
      </trkpt>
      <trkpt lat="45.17443" lon="5.60792">
        <ele>1141.4</ele>
        <time>2013-02-10T08:11:10Z</time>
      </trkpt>
      <trkpt lat="45.17443" lon="5.60791">
        <ele>1141.7</ele>
        <time>2013-02-10T08:11:11Z</time>
      </trkpt>
      <trkpt lat="45.17437" lon="5.60769">
        <ele>1146.7</ele>
        <time>2013-02-10T08:11:36Z</time>
      </trkpt>
      <trkpt lat="45.17434" lon="5.60758">
        <ele>1149.3</ele>
        <time>2013-02-10T08:11:48Z</time>
      </trkpt>
      <trkpt lat="45.17431" lon="5.60747">
        <ele>1151.5</ele>
        <time>2013-02-10T08:12:00Z</time>
      </trkpt>
      <trkpt lat="45.17428" lon="5.60736">
        <ele>1154.7</ele>
        <time>2013-02-10T08:12:14Z</time>
      </trkpt>
      <trkpt lat="45.17427" lon="5.60735">
        <ele>1154.5</ele>
        <time>2013-02-10T08:12:15Z</time>
      </trkpt>
      <trkpt lat="45.1742" lon="5.60713">
        <ele>1159.5</ele>
        <time>2013-02-10T08:12:38Z</time>
      </trkpt>
      <trkpt lat="45.17415" lon="5.60703">
        <ele>1161.5</ele>
        <time>2013-02-10T08:12:50Z</time>
      </trkpt>
      <trkpt lat="45.17411" lon="5.60692">
        <ele>1164.8</ele>
        <time>2013-02-10T08:13:03Z</time>
      </trkpt>
      <trkpt lat="45.17407" lon="5.60681">
        <ele>1166.9</ele>
        <time>2013-02-10T08:13:16Z</time>
      </trkpt>
      <trkpt lat="45.17407" lon="5.6068">
        <ele>1167.2</ele>
        <time>2013-02-10T08:13:17Z</time>
      </trkpt>
      <trkpt lat="45.174" lon="5.60659">
        <ele>1172.3</ele>
        <time>2013-02-10T08:13:41Z</time>
      </trkpt>
      <trkpt lat="45.17396" lon="5.60648">
        <ele>1175.3</ele>
        <time>2013-02-10T08:13:54Z</time>
      </trkpt>
      <trkpt lat="45.17395" lon="5.60636">
        <ele>1177.7</ele>
        <time>2013-02-10T08:14:07Z</time>
      </trkpt>
      <trkpt lat="45.17394" lon="5.60623">
        <ele>1180.5</ele>
        <time>2013-02-10T08:14:22Z</time>
      </trkpt>
      <trkpt lat="45.17394" lon="5.60622">
        <ele>1180.8</ele>
        <time>2013-02-10T08:14:23Z</time>
      </trkpt>
      <trkpt lat="45.17391" lon="5.60599">
        <ele>1185.5</ele>
        <time>2013-02-10T08:14:48Z</time>
      </trkpt>
      <trkpt lat="45.17389" lon="5.60587">
        <ele>1188.4</ele>
        <time>2013-02-10T08:14:59Z</time>
      </trkpt>
      <trkpt lat="45.17388" lon="5.60575">
        <ele>1189.6</ele>
        <time>2013-02-10T08:15:10Z</time>
      </trkpt>
      <trkpt lat="45.17386" lon="5.60563">
        <ele>1191.4</ele>
        <time>2013-02-10T08:15:21Z</time>
      </trkpt>
      <trkpt lat="45.17385" lon="5.60551">
        <ele>1193.1</ele>
        <time>2013-02-10T08:15:32Z</time>
      </trkpt>
      <trkpt lat="45.17385" lon="5.60549">
        <ele>1193.2</ele>
        <time>2013-02-10T08:15:33Z</time>
      </trkpt>
      <trkpt lat="45.17384" lon="5.60526">
        <ele>1197.7</ele>
        <time>2013-02-10T08:15:56Z</time>
      </trkpt>
      <trkpt lat="45.17383" lon="5.60513">
        <ele>1199.4</ele>
        <time>2013-02-10T08:16:08Z</time>
      </trkpt>
      <trkpt lat="45.17381" lon="5.60501">
        <ele>1200.9</ele>
        <time>2013-02-10T08:16:19Z</time>
      </trkpt>
      <trkpt lat="45.17375" lon="5.60492">
        <ele>1201.3</ele>
        <time>2013-02-10T08:16:32Z</time>
      </trkpt>
      <trkpt lat="45.17368" lon="5.60487">
        <ele>1204.5</ele>
        <time>2013-02-10T08:16:45Z</time>
      </trkpt>
      <trkpt lat="45.17367" lon="5.60486">
        <ele>1204.8</ele>
        <time>2013-02-10T08:16:46Z</time>
      </trkpt>
      <trkpt lat="45.17367" lon="5.60483">
        <ele>1201.4</ele>
        <time>2013-02-10T08:20:01Z</time>
      </trkpt>
      <trkpt lat="45.17367" lon="5.60482">
        <ele>1201.5</ele>
        <time>2013-02-10T08:20:02Z</time>
      </trkpt>
      <trkpt lat="45.17351" lon="5.60478">
        <ele>1203.5</ele>
        <time>2013-02-10T08:20:38Z</time>
      </trkpt>
      <trkpt lat="45.17342" lon="5.60477">
        <ele>1205.8</ele>
        <time>2013-02-10T08:20:48Z</time>
      </trkpt>
      <trkpt lat="45.17334" lon="5.60476">
        <ele>1207.2</ele>
        <time>2013-02-10T08:20:58Z</time>
      </trkpt>
      <trkpt lat="45.17325" lon="5.60478">
        <ele>1209.1</ele>
        <time>2013-02-10T08:21:09Z</time>
      </trkpt>
      <trkpt lat="45.17324" lon="5.60478">
        <ele>1209.4</ele>
        <time>2013-02-10T08:21:10Z</time>
      </trkpt>
      <trkpt lat="45.17308" lon="5.60477">
        <ele>1210.9</ele>
        <time>2013-02-10T08:21:39Z</time>
      </trkpt>
      <trkpt lat="45.17299" lon="5.60478">
        <ele>1212.2</ele>
        <time>2013-02-10T08:21:50Z</time>
      </trkpt>
      <trkpt lat="45.17291" lon="5.60479">
        <ele>1214.2</ele>
        <time>2013-02-10T08:22:01Z</time>
      </trkpt>
      <trkpt lat="45.17282" lon="5.60479">
        <ele>1216.6</ele>
        <time>2013-02-10T08:22:13Z</time>
      </trkpt>
      <trkpt lat="45.17281" lon="5.60478">
        <ele>1217.1</ele>
        <time>2013-02-10T08:22:14Z</time>
      </trkpt>
      <trkpt lat="45.17265" lon="5.60481">
        <ele>1221.1</ele>
        <time>2013-02-10T08:22:37Z</time>
      </trkpt>
      <trkpt lat="45.17256" lon="5.60481">
        <ele>1223.2</ele>
        <time>2013-02-10T08:22:48Z</time>
      </trkpt>
      <trkpt lat="45.17248" lon="5.60478">
        <ele>1224.9</ele>
        <time>2013-02-10T08:22:59Z</time>
      </trkpt>
      <trkpt lat="45.17239" lon="5.60477">
        <ele>1227.4</ele>
        <time>2013-02-10T08:23:11Z</time>
      </trkpt>
      <trkpt lat="45.17231" lon="5.60479">
        <ele>1228.9</ele>
        <time>2013-02-10T08:23:21Z</time>
      </trkpt>
      <trkpt lat="45.1723" lon="5.60479">
        <ele>1229</ele>
        <time>2013-02-10T08:23:22Z</time>
      </trkpt>
      <trkpt lat="45.17213" lon="5.60479">
        <ele>1233.7</ele>
        <time>2013-02-10T08:23:48Z</time>
      </trkpt>
      <trkpt lat="45.17205" lon="5.6048">
        <ele>1235.3</ele>
        <time>2013-02-10T08:24:01Z</time>
      </trkpt>
      <trkpt lat="45.17197" lon="5.60485">
        <ele>1238.9</ele>
        <time>2013-02-10T08:24:17Z</time>
      </trkpt>
      <trkpt lat="45.17189" lon="5.60492">
        <ele>1240.6</ele>
        <time>2013-02-10T08:24:28Z</time>
      </trkpt>
      <trkpt lat="45.17188" lon="5.60492">
        <ele>1240.2</ele>
        <time>2013-02-10T08:24:29Z</time>
      </trkpt>
      <trkpt lat="45.17172" lon="5.60496">
        <ele>1242.8</ele>
        <time>2013-02-10T08:24:49Z</time>
      </trkpt>
      <trkpt lat="45.17164" lon="5.60501">
        <ele>1244</ele>
        <time>2013-02-10T08:24:59Z</time>
      </trkpt>
      <trkpt lat="45.17156" lon="5.60503">
        <ele>1246</ele>
        <time>2013-02-10T08:25:09Z</time>
      </trkpt>
      <trkpt lat="45.17148" lon="5.60502">
        <ele>1247.7</ele>
        <time>2013-02-10T08:25:19Z</time>
      </trkpt>
      <trkpt lat="45.1714" lon="5.60496">
        <ele>1249.1</ele>
        <time>2013-02-10T08:25:30Z</time>
      </trkpt>
      <trkpt lat="45.17139" lon="5.60496">
        <ele>1249</ele>
        <time>2013-02-10T08:25:31Z</time>
      </trkpt>
      <trkpt lat="45.17125" lon="5.60484">
        <ele>1251.4</ele>
        <time>2013-02-10T08:25:52Z</time>
      </trkpt>
      <trkpt lat="45.17117" lon="5.60481">
        <ele>1251.5</ele>
        <time>2013-02-10T08:26:02Z</time>
      </trkpt>
      <trkpt lat="45.17109" lon="5.60475">
        <ele>1253.7</ele>
        <time>2013-02-10T08:26:11Z</time>
      </trkpt>
      <trkpt lat="45.17102" lon="5.60468">
        <ele>1254.3</ele>
        <time>2013-02-10T08:26:20Z</time>
      </trkpt>
      <trkpt lat="45.17096" lon="5.6046">
        <ele>1254.2</ele>
        <time>2013-02-10T08:26:29Z</time>
      </trkpt>
      <trkpt lat="45.17089" lon="5.60452">
        <ele>1255.4</ele>
        <time>2013-02-10T08:26:39Z</time>
      </trkpt>
      <trkpt lat="45.17088" lon="5.60451">
        <ele>1255.7</ele>
        <time>2013-02-10T08:26:40Z</time>
      </trkpt>
      <trkpt lat="45.17082" lon="5.6043">
        <ele>1258.4</ele>
        <time>2013-02-10T08:27:32Z</time>
      </trkpt>
      <trkpt lat="45.1708" lon="5.60418">
        <ele>1258.8</ele>
        <time>2013-02-10T08:27:44Z</time>
      </trkpt>
      <trkpt lat="45.17079" lon="5.60417">
        <ele>1258.8</ele>
        <time>2013-02-10T08:27:45Z</time>
      </trkpt>
      <trkpt lat="45.17075" lon="5.60395">
        <ele>1263.3</ele>
        <time>2013-02-10T08:28:11Z</time>
      </trkpt>
      <trkpt lat="45.17074" lon="5.60383">
        <ele>1265.8</ele>
        <time>2013-02-10T08:28:23Z</time>
      </trkpt>
      <trkpt lat="45.17074" lon="5.60371">
        <ele>1267.1</ele>
        <time>2013-02-10T08:28:32Z</time>
      </trkpt>
      <trkpt lat="45.17072" lon="5.6036">
        <ele>1266.7</ele>
        <time>2013-02-10T08:28:42Z</time>
      </trkpt>
      <trkpt lat="45.17071" lon="5.60347">
        <ele>1268.5</ele>
        <time>2013-02-10T08:28:52Z</time>
      </trkpt>
      <trkpt lat="45.17071" lon="5.60346">
        <ele>1268.6</ele>
        <time>2013-02-10T08:28:53Z</time>
      </trkpt>
      <trkpt lat="45.17064" lon="5.60325">
        <ele>1270.2</ele>
        <time>2013-02-10T08:29:12Z</time>
      </trkpt>
      <trkpt lat="45.1706" lon="5.60314">
        <ele>1271.4</ele>
        <time>2013-02-10T08:29:24Z</time>
      </trkpt>
      <trkpt lat="45.17055" lon="5.60304">
        <ele>1271.9</ele>
        <time>2013-02-10T08:29:36Z</time>
      </trkpt>
      <trkpt lat="45.17051" lon="5.60293">
        <ele>1275.9</ele>
        <time>2013-02-10T08:29:48Z</time>
      </trkpt>
      <trkpt lat="45.17046" lon="5.60283">
        <ele>1276.9</ele>
        <time>2013-02-10T08:29:59Z</time>
      </trkpt>
      <trkpt lat="45.17045" lon="5.60282">
        <ele>1277</ele>
        <time>2013-02-10T08:30:00Z</time>
      </trkpt>
      <trkpt lat="45.17041" lon="5.60259">
        <ele>1281.3</ele>
        <time>2013-02-10T08:30:26Z</time>
      </trkpt>
      <trkpt lat="45.17042" lon="5.60246">
        <ele>1285.7</ele>
        <time>2013-02-10T08:30:50Z</time>
      </trkpt>
      <trkpt lat="45.17038" lon="5.60236">
        <ele>1287.6</ele>
        <time>2013-02-10T08:31:01Z</time>
      </trkpt>
      <trkpt lat="45.17038" lon="5.60235">
        <ele>1287.7</ele>
        <time>2013-02-10T08:31:02Z</time>
      </trkpt>
      <trkpt lat="45.17033" lon="5.60213">
        <ele>1290.2</ele>
        <time>2013-02-10T08:31:20Z</time>
      </trkpt>
      <trkpt lat="45.1703" lon="5.60202">
        <ele>1291.5</ele>
        <time>2013-02-10T08:31:30Z</time>
      </trkpt>
      <trkpt lat="45.17025" lon="5.60192">
        <ele>1292.5</ele>
        <time>2013-02-10T08:31:41Z</time>
      </trkpt>
      <trkpt lat="45.17021" lon="5.60182">
        <ele>1292.9</ele>
        <time>2013-02-10T08:31:52Z</time>
      </trkpt>
      <trkpt lat="45.17018" lon="5.60171">
        <ele>1296</ele>
        <time>2013-02-10T08:32:02Z</time>
      </trkpt>
      <trkpt lat="45.17018" lon="5.60169">
        <ele>1296.3</ele>
        <time>2013-02-10T08:32:03Z</time>
      </trkpt>
      <trkpt lat="45.17016" lon="5.60147">
        <ele>1300</ele>
        <time>2013-02-10T08:32:27Z</time>
      </trkpt>
      <trkpt lat="45.17013" lon="5.60136">
        <ele>1301.4</ele>
        <time>2013-02-10T08:32:38Z</time>
      </trkpt>
      <trkpt lat="45.17017" lon="5.60124">
        <ele>1305.2</ele>
        <time>2013-02-10T08:33:01Z</time>
      </trkpt>
      <trkpt lat="45.17015" lon="5.60112">
        <ele>1306.6</ele>
        <time>2013-02-10T08:33:14Z</time>
      </trkpt>
      <trkpt lat="45.17014" lon="5.60111">
        <ele>1307.2</ele>
        <time>2013-02-10T08:33:15Z</time>
      </trkpt>
      <trkpt lat="45.17017" lon="5.60092">
        <ele>1310.9</ele>
        <time>2013-02-10T08:33:41Z</time>
      </trkpt>
      <trkpt lat="45.17021" lon="5.60081">
        <ele>1314.8</ele>
        <time>2013-02-10T08:34:03Z</time>
      </trkpt>
      <trkpt lat="45.17018" lon="5.60069">
        <ele>1316.7</ele>
        <time>2013-02-10T08:34:16Z</time>
      </trkpt>
      <trkpt lat="45.17018" lon="5.60067">
        <ele>1316.6</ele>
        <time>2013-02-10T08:34:17Z</time>
      </trkpt>
      <trkpt lat="45.17015" lon="5.60045">
        <ele>1321.6</ele>
        <time>2013-02-10T08:34:41Z</time>
      </trkpt>
      <trkpt lat="45.17023" lon="5.60039">
        <ele>1325.7</ele>
        <time>2013-02-10T08:34:59Z</time>
      </trkpt>
      <trkpt lat="45.17027" lon="5.60028">
        <ele>1328.2</ele>
        <time>2013-02-10T08:35:18Z</time>
      </trkpt>
      <trkpt lat="45.17028" lon="5.60028">
        <ele>1328.3</ele>
        <time>2013-02-10T08:35:19Z</time>
      </trkpt>
      <trkpt lat="45.17043" lon="5.60031">
        <ele>1334.1</ele>
        <time>2013-02-10T08:36:04Z</time>
      </trkpt>
      <trkpt lat="45.17051" lon="5.60038">
        <ele>1334.2</ele>
        <time>2013-02-10T08:36:16Z</time>
      </trkpt>
      <trkpt lat="45.17059" lon="5.60043">
        <ele>1335.6</ele>
        <time>2013-02-10T08:36:27Z</time>
      </trkpt>
      <trkpt lat="45.1706" lon="5.60043">
        <ele>1335.9</ele>
        <time>2013-02-10T08:36:28Z</time>
      </trkpt>
      <trkpt lat="45.17075" lon="5.60051">
        <ele>1337.8</ele>
        <time>2013-02-10T08:36:46Z</time>
      </trkpt>
      <trkpt lat="45.17083" lon="5.60055">
        <ele>1339.1</ele>
        <time>2013-02-10T08:36:58Z</time>
      </trkpt>
      <trkpt lat="45.17091" lon="5.6006">
        <ele>1339.9</ele>
        <time>2013-02-10T08:37:10Z</time>
      </trkpt>
      <trkpt lat="45.171" lon="5.60062">
        <ele>1340.7</ele>
        <time>2013-02-10T08:37:20Z</time>
      </trkpt>
      <trkpt lat="45.17109" lon="5.60063">
        <ele>1341.7</ele>
        <time>2013-02-10T08:37:32Z</time>
      </trkpt>
      <trkpt lat="45.17109" lon="5.60064">
        <ele>1341.9</ele>
        <time>2013-02-10T08:37:33Z</time>
      </trkpt>
      <trkpt lat="45.17125" lon="5.60061">
        <ele>1343.8</ele>
        <time>2013-02-10T08:37:53Z</time>
      </trkpt>
      <trkpt lat="45.17134" lon="5.60057">
        <ele>1345.6</ele>
        <time>2013-02-10T08:38:04Z</time>
      </trkpt>
      <trkpt lat="45.17142" lon="5.60054">
        <ele>1347.2</ele>
        <time>2013-02-10T08:38:17Z</time>
      </trkpt>
      <trkpt lat="45.1715" lon="5.60052">
        <ele>1349.3</ele>
        <time>2013-02-10T08:38:28Z</time>
      </trkpt>
      <trkpt lat="45.17159" lon="5.60049">
        <ele>1351</ele>
        <time>2013-02-10T08:38:39Z</time>
      </trkpt>
      <trkpt lat="45.1716" lon="5.60048">
        <ele>1351.3</ele>
        <time>2013-02-10T08:38:40Z</time>
      </trkpt>
      <trkpt lat="45.17176" lon="5.60045">
        <ele>1355.3</ele>
        <time>2013-02-10T08:39:01Z</time>
      </trkpt>
      <trkpt lat="45.17184" lon="5.60041">
        <ele>1356.5</ele>
        <time>2013-02-10T08:39:11Z</time>
      </trkpt>
      <trkpt lat="45.17192" lon="5.60037">
        <ele>1358.8</ele>
        <time>2013-02-10T08:39:22Z</time>
      </trkpt>
      <trkpt lat="45.172" lon="5.60032">
        <ele>1359.6</ele>
        <time>2013-02-10T08:39:32Z</time>
      </trkpt>
      <trkpt lat="45.17208" lon="5.60029">
        <ele>1361</ele>
        <time>2013-02-10T08:39:42Z</time>
      </trkpt>
      <trkpt lat="45.17209" lon="5.60029">
        <ele>1361.4</ele>
        <time>2013-02-10T08:39:43Z</time>
      </trkpt>
      <trkpt lat="45.17225" lon="5.60024">
        <ele>1364.8</ele>
        <time>2013-02-10T08:40:04Z</time>
      </trkpt>
      <trkpt lat="45.17233" lon="5.60022">
        <ele>1366.5</ele>
        <time>2013-02-10T08:40:14Z</time>
      </trkpt>
      <trkpt lat="45.17241" lon="5.6002">
        <ele>1368.5</ele>
        <time>2013-02-10T08:40:25Z</time>
      </trkpt>
      <trkpt lat="45.17248" lon="5.60013">
        <ele>1370.5</ele>
        <time>2013-02-10T08:40:35Z</time>
      </trkpt>
      <trkpt lat="45.17251" lon="5.60001">
        <ele>1374.2</ele>
        <time>2013-02-10T08:40:51Z</time>
      </trkpt>
      <trkpt lat="45.17251" lon="5.6">
        <ele>1374</ele>
        <time>2013-02-10T08:40:52Z</time>
      </trkpt>
      <trkpt lat="45.17255" lon="5.5998">
        <ele>1376.9</ele>
        <time>2013-02-10T08:41:13Z</time>
      </trkpt>
      <trkpt lat="45.17264" lon="5.59976">
        <ele>1378.7</ele>
        <time>2013-02-10T08:41:26Z</time>
      </trkpt>
      <trkpt lat="45.17264" lon="5.59964">
        <ele>1381.8</ele>
        <time>2013-02-10T08:41:42Z</time>
      </trkpt>
      <trkpt lat="45.17261" lon="5.59952">
        <ele>1385.4</ele>
        <time>2013-02-10T08:41:58Z</time>
      </trkpt>
      <trkpt lat="45.17261" lon="5.59951">
        <ele>1385.9</ele>
        <time>2013-02-10T08:41:59Z</time>
      </trkpt>
      <trkpt lat="45.17278" lon="5.59944">
        <ele>1388.3</ele>
        <time>2013-02-10T08:42:21Z</time>
      </trkpt>
      <trkpt lat="45.17286" lon="5.59939">
        <ele>1390.6</ele>
        <time>2013-02-10T08:42:36Z</time>
      </trkpt>
      <trkpt lat="45.17293" lon="5.59932">
        <ele>1392.3</ele>
        <time>2013-02-10T08:42:48Z</time>
      </trkpt>
      <trkpt lat="45.17301" lon="5.59926">
        <ele>1395.8</ele>
        <time>2013-02-10T08:43:04Z</time>
      </trkpt>
      <trkpt lat="45.17301" lon="5.59926">
        <ele>1395.8</ele>
        <time>2013-02-10T08:43:05Z</time>
      </trkpt>
      <trkpt lat="45.17316" lon="5.59916">
        <ele>1400</ele>
        <time>2013-02-10T08:43:26Z</time>
      </trkpt>
      <trkpt lat="45.17325" lon="5.5991">
        <ele>1402.8</ele>
        <time>2013-02-10T08:43:39Z</time>
      </trkpt>
      <trkpt lat="45.17328" lon="5.59899">
        <ele>1405</ele>
        <time>2013-02-10T08:43:55Z</time>
      </trkpt>
      <trkpt lat="45.17326" lon="5.59887">
        <ele>1407.6</ele>
        <time>2013-02-10T08:44:05Z</time>
      </trkpt>
      <trkpt lat="45.17326" lon="5.59886">
        <ele>1407.4</ele>
        <time>2013-02-10T08:44:06Z</time>
      </trkpt>
      <trkpt lat="45.1732" lon="5.59865">
        <ele>1411.2</ele>
        <time>2013-02-10T08:44:27Z</time>
      </trkpt>
      <trkpt lat="45.17315" lon="5.59855">
        <ele>1412.8</ele>
        <time>2013-02-10T08:44:38Z</time>
      </trkpt>
      <trkpt lat="45.17311" lon="5.59843">
        <ele>1415.2</ele>
        <time>2013-02-10T08:44:49Z</time>
      </trkpt>
      <trkpt lat="45.17308" lon="5.59832">
        <ele>1417.9</ele>
        <time>2013-02-10T08:45:01Z</time>
      </trkpt>
      <trkpt lat="45.17305" lon="5.59821">
        <ele>1421.4</ele>
        <time>2013-02-10T08:45:15Z</time>
      </trkpt>
      <trkpt lat="45.17305" lon="5.5982">
        <ele>1421.3</ele>
        <time>2013-02-10T08:45:16Z</time>
      </trkpt>
      <trkpt lat="45.1731" lon="5.59805">
        <ele>1428.9</ele>
        <time>2013-02-10T08:45:50Z</time>
      </trkpt>
      <trkpt lat="45.17305" lon="5.59795">
        <ele>1432.4</ele>
        <time>2013-02-10T08:46:11Z</time>
      </trkpt>
      <trkpt lat="45.17307" lon="5.59783">
        <ele>1437.8</ele>
        <time>2013-02-10T08:46:33Z</time>
      </trkpt>
      <trkpt lat="45.17307" lon="5.59782">
        <ele>1437.6</ele>
        <time>2013-02-10T08:46:34Z</time>
      </trkpt>
      <trkpt lat="45.17322" lon="5.59772">
        <ele>1444.3</ele>
        <time>2013-02-10T08:47:02Z</time>
      </trkpt>
      <trkpt lat="45.1733" lon="5.59766">
        <ele>1446.3</ele>
        <time>2013-02-10T08:47:13Z</time>
      </trkpt>
      <trkpt lat="45.17337" lon="5.5976">
        <ele>1447.8</ele>
        <time>2013-02-10T08:47:24Z</time>
      </trkpt>
      <trkpt lat="45.17337" lon="5.59748">
        <ele>1451.8</ele>
        <time>2013-02-10T08:47:39Z</time>
      </trkpt>
      <trkpt lat="45.17337" lon="5.59747">
        <ele>1451.6</ele>
        <time>2013-02-10T08:47:40Z</time>
      </trkpt>
      <trkpt lat="45.17342" lon="5.59734">
        <ele>1457.3</ele>
        <time>2013-02-10T08:50:58Z</time>
      </trkpt>
      <trkpt lat="45.17342" lon="5.59734">
        <ele>1457</ele>
        <time>2013-02-10T08:50:59Z</time>
      </trkpt>
      <trkpt lat="45.1735" lon="5.59728">
        <ele>1461.1</ele>
        <time>2013-02-10T08:52:14Z</time>
      </trkpt>
      <trkpt lat="45.17355" lon="5.59705">
        <ele>1468</ele>
        <time>2013-02-10T08:52:45Z</time>
      </trkpt>
      <trkpt lat="45.1736" lon="5.59696">
        <ele>1471.7</ele>
        <time>2013-02-10T08:53:00Z</time>
      </trkpt>
      <trkpt lat="45.17365" lon="5.59685">
        <ele>1474.5</ele>
        <time>2013-02-10T08:53:14Z</time>
      </trkpt>
      <trkpt lat="45.17365" lon="5.59685">
        <ele>1474.4</ele>
        <time>2013-02-10T08:53:15Z</time>
      </trkpt>
      <trkpt lat="45.17381" lon="5.5968">
        <ele>1480.4</ele>
        <time>2013-02-10T08:53:45Z</time>
      </trkpt>
      <trkpt lat="45.17388" lon="5.59674">
        <ele>1483.6</ele>
        <time>2013-02-10T08:53:57Z</time>
      </trkpt>
      <trkpt lat="45.17396" lon="5.59669">
        <ele>1485.4</ele>
        <time>2013-02-10T08:54:10Z</time>
      </trkpt>
      <trkpt lat="45.17399" lon="5.59657">
        <ele>1490</ele>
        <time>2013-02-10T08:54:26Z</time>
      </trkpt>
      <trkpt lat="45.17399" lon="5.59656">
        <ele>1490</ele>
        <time>2013-02-10T08:54:27Z</time>
      </trkpt>
      <trkpt lat="45.1741" lon="5.59639">
        <ele>1492.2</ele>
        <time>2013-02-10T08:54:55Z</time>
      </trkpt>
      <trkpt lat="45.17419" lon="5.59637">
        <ele>1493.3</ele>
        <time>2013-02-10T08:55:12Z</time>
      </trkpt>
      <trkpt lat="45.17427" lon="5.59636">
        <ele>1493.4</ele>
        <time>2013-02-10T08:55:21Z</time>
      </trkpt>
      <trkpt lat="45.17435" lon="5.59634">
        <ele>1494.2</ele>
        <time>2013-02-10T08:55:30Z</time>
      </trkpt>
      <trkpt lat="45.17436" lon="5.59634">
        <ele>1494.3</ele>
        <time>2013-02-10T08:55:31Z</time>
      </trkpt>
      <trkpt lat="45.17446" lon="5.59616">
        <ele>1493.8</ele>
        <time>2013-02-10T08:55:46Z</time>
      </trkpt>
      <trkpt lat="45.17451" lon="5.59607">
        <ele>1493.3</ele>
        <time>2013-02-10T08:55:54Z</time>
      </trkpt>
      <trkpt lat="45.17457" lon="5.59598">
        <ele>1492.8</ele>
        <time>2013-02-10T08:56:02Z</time>
      </trkpt>
      <trkpt lat="45.17465" lon="5.59592">
        <ele>1493.2</ele>
        <time>2013-02-10T08:56:09Z</time>
      </trkpt>
      <trkpt lat="45.17472" lon="5.59586">
        <ele>1494.2</ele>
        <time>2013-02-10T08:56:16Z</time>
      </trkpt>
      <trkpt lat="45.17477" lon="5.59577">
        <ele>1493.3</ele>
        <time>2013-02-10T08:56:23Z</time>
      </trkpt>
      <trkpt lat="45.17483" lon="5.59567">
        <ele>1491.5</ele>
        <time>2013-02-10T08:56:32Z</time>
      </trkpt>
      <trkpt lat="45.17483" lon="5.59566">
        <ele>1491.4</ele>
        <time>2013-02-10T08:56:33Z</time>
      </trkpt>
      <trkpt lat="45.17497" lon="5.59556">
        <ele>1490.7</ele>
        <time>2013-02-10T08:56:50Z</time>
      </trkpt>
      <trkpt lat="45.17504" lon="5.59549">
        <ele>1492</ele>
        <time>2013-02-10T08:56:57Z</time>
      </trkpt>
      <trkpt lat="45.1751" lon="5.59541">
        <ele>1492.4</ele>
        <time>2013-02-10T08:57:04Z</time>
      </trkpt>
      <trkpt lat="45.17513" lon="5.59531">
        <ele>1491.4</ele>
        <time>2013-02-10T08:57:11Z</time>
      </trkpt>
      <trkpt lat="45.17515" lon="5.59519">
        <ele>1489.7</ele>
        <time>2013-02-10T08:57:17Z</time>
      </trkpt>
      <trkpt lat="45.17517" lon="5.59507">
        <ele>1488.2</ele>
        <time>2013-02-10T08:57:22Z</time>
      </trkpt>
      <trkpt lat="45.17521" lon="5.59496">
        <ele>1488.4</ele>
        <time>2013-02-10T08:57:29Z</time>
      </trkpt>
      <trkpt lat="45.17527" lon="5.59486">
        <ele>1488.3</ele>
        <time>2013-02-10T08:57:38Z</time>
      </trkpt>
      <trkpt lat="45.17527" lon="5.59486">
        <ele>1488.6</ele>
        <time>2013-02-10T08:57:39Z</time>
      </trkpt>
      <trkpt lat="45.17542" lon="5.59476">
        <ele>1491.4</ele>
        <time>2013-02-10T08:57:58Z</time>
      </trkpt>
      <trkpt lat="45.17548" lon="5.59467">
        <ele>1494.1</ele>
        <time>2013-02-10T08:58:10Z</time>
      </trkpt>
      <trkpt lat="45.17557" lon="5.59463">
        <ele>1497.3</ele>
        <time>2013-02-10T08:58:27Z</time>
      </trkpt>
      <trkpt lat="45.17554" lon="5.59452">
        <ele>1499.2</ele>
        <time>2013-02-10T08:58:43Z</time>
      </trkpt>
      <trkpt lat="45.17553" lon="5.59451">
        <ele>1499.2</ele>
        <time>2013-02-10T08:58:44Z</time>
      </trkpt>
      <trkpt lat="45.17555" lon="5.59428">
        <ele>1502.2</ele>
        <time>2013-02-10T08:59:03Z</time>
      </trkpt>
      <trkpt lat="45.17557" lon="5.59416">
        <ele>1503.4</ele>
        <time>2013-02-10T08:59:17Z</time>
      </trkpt>
      <trkpt lat="45.17555" lon="5.59404">
        <ele>1505.6</ele>
        <time>2013-02-10T08:59:28Z</time>
      </trkpt>
      <trkpt lat="45.17551" lon="5.59394">
        <ele>1507.4</ele>
        <time>2013-02-10T08:59:41Z</time>
      </trkpt>
      <trkpt lat="45.17546" lon="5.59384">
        <ele>1508.9</ele>
        <time>2013-02-10T08:59:54Z</time>
      </trkpt>
      <trkpt lat="45.17545" lon="5.59383">
        <ele>1509.1</ele>
        <time>2013-02-10T08:59:55Z</time>
      </trkpt>
      <trkpt lat="45.17532" lon="5.59369">
        <ele>1508.5</ele>
        <time>2013-02-10T09:00:16Z</time>
      </trkpt>
      <trkpt lat="45.17526" lon="5.5936">
        <ele>1509.4</ele>
        <time>2013-02-10T09:00:26Z</time>
      </trkpt>
      <trkpt lat="45.17521" lon="5.5935">
        <ele>1511.3</ele>
        <time>2013-02-10T09:00:36Z</time>
      </trkpt>
      <trkpt lat="45.17514" lon="5.59343">
        <ele>1511.2</ele>
        <time>2013-02-10T09:00:45Z</time>
      </trkpt>
      <trkpt lat="45.17508" lon="5.59334">
        <ele>1512.7</ele>
        <time>2013-02-10T09:00:56Z</time>
      </trkpt>
      <trkpt lat="45.17508" lon="5.59332">
        <ele>1512.7</ele>
        <time>2013-02-10T09:00:57Z</time>
      </trkpt>
      <trkpt lat="45.17496" lon="5.59316">
        <ele>1514.9</ele>
        <time>2013-02-10T09:01:19Z</time>
      </trkpt>
      <trkpt lat="45.17504" lon="5.59312">
        <ele>1519.8</ele>
        <time>2013-02-10T09:01:49Z</time>
      </trkpt>
      <trkpt lat="45.17512" lon="5.59315">
        <ele>1522.1</ele>
        <time>2013-02-10T09:02:04Z</time>
      </trkpt>
      <trkpt lat="45.17512" lon="5.59316">
        <ele>1522.4</ele>
        <time>2013-02-10T09:02:05Z</time>
      </trkpt>
      <trkpt lat="45.17529" lon="5.59314">
        <ele>1527.7</ele>
        <time>2013-02-10T09:02:35Z</time>
      </trkpt>
      <trkpt lat="45.17537" lon="5.59311">
        <ele>1530.4</ele>
        <time>2013-02-10T09:02:49Z</time>
      </trkpt>
      <trkpt lat="45.17546" lon="5.59311">
        <ele>1533</ele>
        <time>2013-02-10T09:03:03Z</time>
      </trkpt>
      <trkpt lat="45.17554" lon="5.59315">
        <ele>1537</ele>
        <time>2013-02-10T09:03:19Z</time>
      </trkpt>
      <trkpt lat="45.17555" lon="5.59315">
        <ele>1537.2</ele>
        <time>2013-02-10T09:03:20Z</time>
      </trkpt>
      <trkpt lat="45.17552" lon="5.59293">
        <ele>1546.7</ele>
        <time>2013-02-10T09:04:21Z</time>
      </trkpt>
      <trkpt lat="45.17552" lon="5.59292">
        <ele>1547.2</ele>
        <time>2013-02-10T09:04:22Z</time>
      </trkpt>
      <trkpt lat="45.17545" lon="5.59272">
        <ele>1552.5</ele>
        <time>2013-02-10T09:05:09Z</time>
      </trkpt>
      <trkpt lat="45.17539" lon="5.59262">
        <ele>1557.8</ele>
        <time>2013-02-10T09:05:54Z</time>
      </trkpt>
      <trkpt lat="45.17539" lon="5.59261">
        <ele>1557.9</ele>
        <time>2013-02-10T09:05:55Z</time>
      </trkpt>
      <trkpt lat="45.17526" lon="5.59246">
        <ele>1558</ele>
        <time>2013-02-10T09:07:30Z</time>
      </trkpt>
      <trkpt lat="45.17526" lon="5.59246">
        <ele>1558</ele>
        <time>2013-02-10T09:07:31Z</time>
      </trkpt>
      <trkpt lat="45.17527" lon="5.59241">
        <ele>1564.2</ele>
        <time>2013-02-10T09:10:05Z</time>
      </trkpt>
      <trkpt lat="45.17528" lon="5.59241">
        <ele>1564.3</ele>
        <time>2013-02-10T09:10:06Z</time>
      </trkpt>
      <trkpt lat="45.17542" lon="5.5923">
        <ele>1575</ele>
        <time>2013-02-10T09:11:59Z</time>
      </trkpt>
      <trkpt lat="45.17542" lon="5.5923">
        <ele>1575.2</ele>
        <time>2013-02-10T09:12:00Z</time>
      </trkpt>
      <trkpt lat="45.17552" lon="5.59217">
        <ele>1581.3</ele>
        <time>2013-02-10T09:12:43Z</time>
      </trkpt>
      <trkpt lat="45.17561" lon="5.5922">
        <ele>1585.7</ele>
        <time>2013-02-10T09:13:01Z</time>
      </trkpt>
      <trkpt lat="45.17561" lon="5.5922">
        <ele>1585.7</ele>
        <time>2013-02-10T09:13:02Z</time>
      </trkpt>
      <trkpt lat="45.17577" lon="5.59216">
        <ele>1593</ele>
        <time>2013-02-10T09:13:31Z</time>
      </trkpt>
      <trkpt lat="45.17586" lon="5.59212">
        <ele>1594.3</ele>
        <time>2013-02-10T09:13:42Z</time>
      </trkpt>
      <trkpt lat="45.17593" lon="5.59207">
        <ele>1595.9</ele>
        <time>2013-02-10T09:13:55Z</time>
      </trkpt>
      <trkpt lat="45.17602" lon="5.59204">
        <ele>1599.3</ele>
        <time>2013-02-10T09:14:06Z</time>
      </trkpt>
      <trkpt lat="45.17603" lon="5.59204">
        <ele>1599.3</ele>
        <time>2013-02-10T09:14:07Z</time>
      </trkpt>
      <trkpt lat="45.17617" lon="5.59193">
        <ele>1602.1</ele>
        <time>2013-02-10T09:14:24Z</time>
      </trkpt>
      <trkpt lat="45.17623" lon="5.59185">
        <ele>1602.3</ele>
        <time>2013-02-10T09:14:31Z</time>
      </trkpt>
      <trkpt lat="45.17629" lon="5.59177">
        <ele>1603.7</ele>
        <time>2013-02-10T09:14:41Z</time>
      </trkpt>
      <trkpt lat="45.17634" lon="5.59167">
        <ele>1603.4</ele>
        <time>2013-02-10T09:16:40Z</time>
      </trkpt>
      <trkpt lat="45.17634" lon="5.59165">
        <ele>1603.2</ele>
        <time>2013-02-10T09:16:41Z</time>
      </trkpt>
      <trkpt lat="45.1763" lon="5.59144">
        <ele>1603.8</ele>
        <time>2013-02-10T09:16:55Z</time>
      </trkpt>
      <trkpt lat="45.17626" lon="5.59133">
        <ele>1604.7</ele>
        <time>2013-02-10T09:17:03Z</time>
      </trkpt>
      <trkpt lat="45.17622" lon="5.59123">
        <ele>1603.9</ele>
        <time>2013-02-10T09:17:11Z</time>
      </trkpt>
      <trkpt lat="45.17618" lon="5.59114">
        <ele>1605</ele>
        <time>2013-02-10T09:17:19Z</time>
      </trkpt>
      <trkpt lat="45.17612" lon="5.59105">
        <ele>1605.2</ele>
        <time>2013-02-10T09:17:27Z</time>
      </trkpt>
      <trkpt lat="45.17607" lon="5.59095">
        <ele>1605.9</ele>
        <time>2013-02-10T09:17:36Z</time>
      </trkpt>
      <trkpt lat="45.17602" lon="5.59086">
        <ele>1606.8</ele>
        <time>2013-02-10T09:17:44Z</time>
      </trkpt>
      <trkpt lat="45.17601" lon="5.59085">
        <ele>1606.8</ele>
        <time>2013-02-10T09:17:45Z</time>
      </trkpt>
      <trkpt lat="45.1759" lon="5.59067">
        <ele>1607.6</ele>
        <time>2013-02-10T09:18:02Z</time>
      </trkpt>
      <trkpt lat="45.17586" lon="5.59057">
        <ele>1606.4</ele>
        <time>2013-02-10T09:18:10Z</time>
      </trkpt>
      <trkpt lat="45.17585" lon="5.59045">
        <ele>1606.3</ele>
        <time>2013-02-10T09:18:18Z</time>
      </trkpt>
      <trkpt lat="45.17583" lon="5.59034">
        <ele>1606</ele>
        <time>2013-02-10T09:18:28Z</time>
      </trkpt>
      <trkpt lat="45.17579" lon="5.59024">
        <ele>1606.4</ele>
        <time>2013-02-10T09:18:37Z</time>
      </trkpt>
      <trkpt lat="45.1758" lon="5.59012">
        <ele>1606.1</ele>
        <time>2013-02-10T09:18:46Z</time>
      </trkpt>
      <trkpt lat="45.1758" lon="5.59011">
        <ele>1605.9</ele>
        <time>2013-02-10T09:18:47Z</time>
      </trkpt>
      <trkpt lat="45.17588" lon="5.58992">
        <ele>1609</ele>
        <time>2013-02-10T09:19:08Z</time>
      </trkpt>
      <trkpt lat="45.17589" lon="5.58979">
        <ele>1608.6</ele>
        <time>2013-02-10T09:19:18Z</time>
      </trkpt>
      <trkpt lat="45.17589" lon="5.58968">
        <ele>1608.9</ele>
        <time>2013-02-10T09:19:27Z</time>
      </trkpt>
      <trkpt lat="45.17588" lon="5.58955">
        <ele>1610.8</ele>
        <time>2013-02-10T09:19:37Z</time>
      </trkpt>
      <trkpt lat="45.17589" lon="5.58943">
        <ele>1611.4</ele>
        <time>2013-02-10T09:19:47Z</time>
      </trkpt>
      <trkpt lat="45.17589" lon="5.58942">
        <ele>1611.4</ele>
        <time>2013-02-10T09:19:48Z</time>
      </trkpt>
      <trkpt lat="45.1759" lon="5.58919">
        <ele>1611.1</ele>
        <time>2013-02-10T09:20:05Z</time>
      </trkpt>
      <trkpt lat="45.17586" lon="5.58914">
        <ele>1610.1</ele>
        <time>2013-02-10T09:22:28Z</time>
      </trkpt>
      <trkpt lat="45.17586" lon="5.58912">
        <ele>1609.9</ele>
        <time>2013-02-10T09:23:26Z</time>
      </trkpt>
      <trkpt lat="45.17579" lon="5.58905">
        <ele>1608.7</ele>
        <time>2013-02-10T09:23:39Z</time>
      </trkpt>
      <trkpt lat="45.17578" lon="5.58904">
        <ele>1608.6</ele>
        <time>2013-02-10T09:23:40Z</time>
      </trkpt>
      <trkpt lat="45.17565" lon="5.58892">
        <ele>1607.3</ele>
        <time>2013-02-10T09:23:52Z</time>
      </trkpt>
      <trkpt lat="45.17557" lon="5.58885">
        <ele>1606.6</ele>
        <time>2013-02-10T09:23:58Z</time>
      </trkpt>
      <trkpt lat="45.1755" lon="5.58879">
        <ele>1606.3</ele>
        <time>2013-02-10T09:24:05Z</time>
      </trkpt>
      <trkpt lat="45.17542" lon="5.58873">
        <ele>1606.2</ele>
        <time>2013-02-10T09:24:12Z</time>
      </trkpt>
      <trkpt lat="45.17534" lon="5.58868">
        <ele>1607</ele>
        <time>2013-02-10T09:24:19Z</time>
      </trkpt>
      <trkpt lat="45.17527" lon="5.58863">
        <ele>1607.4</ele>
        <time>2013-02-10T09:24:26Z</time>
      </trkpt>
      <trkpt lat="45.17519" lon="5.58857">
        <ele>1606.7</ele>
        <time>2013-02-10T09:24:33Z</time>
      </trkpt>
      <trkpt lat="45.17511" lon="5.58851">
        <ele>1608</ele>
        <time>2013-02-10T09:24:40Z</time>
      </trkpt>
      <trkpt lat="45.1751" lon="5.58851">
        <ele>1607.9</ele>
        <time>2013-02-10T09:24:41Z</time>
      </trkpt>
      <trkpt lat="45.17496" lon="5.5884">
        <ele>1608.5</ele>
        <time>2013-02-10T09:24:55Z</time>
      </trkpt>
      <trkpt lat="45.17489" lon="5.58834">
        <ele>1609.3</ele>
        <time>2013-02-10T09:25:03Z</time>
      </trkpt>
      <trkpt lat="45.17483" lon="5.58826">
        <ele>1609.5</ele>
        <time>2013-02-10T09:25:10Z</time>
      </trkpt>
      <trkpt lat="45.17478" lon="5.58815">
        <ele>1611</ele>
        <time>2013-02-10T09:25:18Z</time>
      </trkpt>
      <trkpt lat="45.17473" lon="5.58805">
        <ele>1611.2</ele>
        <time>2013-02-10T09:25:26Z</time>
      </trkpt>
      <trkpt lat="45.17468" lon="5.58796">
        <ele>1611.7</ele>
        <time>2013-02-10T09:25:34Z</time>
      </trkpt>
      <trkpt lat="45.17462" lon="5.58787">
        <ele>1611.9</ele>
        <time>2013-02-10T09:25:41Z</time>
      </trkpt>
      <trkpt lat="45.17461" lon="5.58786">
        <ele>1612</ele>
        <time>2013-02-10T09:25:42Z</time>
      </trkpt>
      <trkpt lat="45.17448" lon="5.58773">
        <ele>1611.3</ele>
        <time>2013-02-10T09:25:55Z</time>
      </trkpt>
      <trkpt lat="45.1744" lon="5.58765">
        <ele>1611.3</ele>
        <time>2013-02-10T09:26:02Z</time>
      </trkpt>
      <trkpt lat="45.17434" lon="5.58758">
        <ele>1610.3</ele>
        <time>2013-02-10T09:26:08Z</time>
      </trkpt>
      <trkpt lat="45.17428" lon="5.58751">
        <ele>1610.1</ele>
        <time>2013-02-10T09:26:14Z</time>
      </trkpt>
      <trkpt lat="45.17422" lon="5.58744">
        <ele>1610</ele>
        <time>2013-02-10T09:26:20Z</time>
      </trkpt>
      <trkpt lat="45.17414" lon="5.58737">
        <ele>1609.3</ele>
        <time>2013-02-10T09:26:27Z</time>
      </trkpt>
      <trkpt lat="45.17407" lon="5.5873">
        <ele>1610.1</ele>
        <time>2013-02-10T09:26:34Z</time>
      </trkpt>
      <trkpt lat="45.174" lon="5.58722">
        <ele>1611.4</ele>
        <time>2013-02-10T09:26:42Z</time>
      </trkpt>
      <trkpt lat="45.17399" lon="5.58721">
        <ele>1611.3</ele>
        <time>2013-02-10T09:26:43Z</time>
      </trkpt>
      <trkpt lat="45.17387" lon="5.58709">
        <ele>1611</ele>
        <time>2013-02-10T09:26:56Z</time>
      </trkpt>
      <trkpt lat="45.17379" lon="5.58702">
        <ele>1611.5</ele>
        <time>2013-02-10T09:27:04Z</time>
      </trkpt>
      <trkpt lat="45.17373" lon="5.58694">
        <ele>1613.5</ele>
        <time>2013-02-10T09:27:12Z</time>
      </trkpt>
      <trkpt lat="45.17366" lon="5.58688">
        <ele>1613.8</ele>
        <time>2013-02-10T09:27:20Z</time>
      </trkpt>
      <trkpt lat="45.17357" lon="5.58685">
        <ele>1614.4</ele>
        <time>2013-02-10T09:27:27Z</time>
      </trkpt>
      <trkpt lat="45.17349" lon="5.5868">
        <ele>1613.8</ele>
        <time>2013-02-10T09:27:34Z</time>
      </trkpt>
      <trkpt lat="45.17342" lon="5.58675">
        <ele>1614</ele>
        <time>2013-02-10T09:27:40Z</time>
      </trkpt>
      <trkpt lat="45.17334" lon="5.5867">
        <ele>1614</ele>
        <time>2013-02-10T09:27:47Z</time>
      </trkpt>
      <trkpt lat="45.17333" lon="5.58669">
        <ele>1613.9</ele>
        <time>2013-02-10T09:27:48Z</time>
      </trkpt>
      <trkpt lat="45.17322" lon="5.58654">
        <ele>1613.3</ele>
        <time>2013-02-10T09:28:01Z</time>
      </trkpt>
      <trkpt lat="45.17317" lon="5.58644">
        <ele>1613.5</ele>
        <time>2013-02-10T09:28:08Z</time>
      </trkpt>
      <trkpt lat="45.17312" lon="5.58634">
        <ele>1613.9</ele>
        <time>2013-02-10T09:28:15Z</time>
      </trkpt>
      <trkpt lat="45.17304" lon="5.58627">
        <ele>1614.1</ele>
        <time>2013-02-10T09:28:22Z</time>
      </trkpt>
      <trkpt lat="45.17298" lon="5.5862">
        <ele>1613.8</ele>
        <time>2013-02-10T09:28:28Z</time>
      </trkpt>
      <trkpt lat="45.17291" lon="5.58614">
        <ele>1612.7</ele>
        <time>2013-02-10T09:28:35Z</time>
      </trkpt>
      <trkpt lat="45.17283" lon="5.58608">
        <ele>1613.5</ele>
        <time>2013-02-10T09:28:43Z</time>
      </trkpt>
      <trkpt lat="45.17276" lon="5.586">
        <ele>1612.9</ele>
        <time>2013-02-10T09:28:50Z</time>
      </trkpt>
      <trkpt lat="45.17275" lon="5.58599">
        <ele>1612.9</ele>
        <time>2013-02-10T09:28:51Z</time>
      </trkpt>
      <trkpt lat="45.17261" lon="5.58587">
        <ele>1610.2</ele>
        <time>2013-02-10T09:29:02Z</time>
      </trkpt>
      <trkpt lat="45.17254" lon="5.58582">
        <ele>1608.8</ele>
        <time>2013-02-10T09:29:07Z</time>
      </trkpt>
      <trkpt lat="45.17248" lon="5.58575">
        <ele>1608.3</ele>
        <time>2013-02-10T09:29:13Z</time>
      </trkpt>
      <trkpt lat="45.17241" lon="5.58568">
        <ele>1607.6</ele>
        <time>2013-02-10T09:29:19Z</time>
      </trkpt>
      <trkpt lat="45.17235" lon="5.58561">
        <ele>1607.2</ele>
        <time>2013-02-10T09:29:25Z</time>
      </trkpt>
      <trkpt lat="45.17228" lon="5.58554">
        <ele>1607.2</ele>
        <time>2013-02-10T09:29:31Z</time>
      </trkpt>
      <trkpt lat="45.17221" lon="5.58548">
        <ele>1605.1</ele>
        <time>2013-02-10T09:29:37Z</time>
      </trkpt>
      <trkpt lat="45.17215" lon="5.58541">
        <ele>1605.3</ele>
        <time>2013-02-10T09:29:42Z</time>
      </trkpt>
      <trkpt lat="45.17208" lon="5.58534">
        <ele>1604.3</ele>
        <time>2013-02-10T09:29:48Z</time>
      </trkpt>
      <trkpt lat="45.17201" lon="5.58527">
        <ele>1604</ele>
        <time>2013-02-10T09:29:56Z</time>
      </trkpt>
      <trkpt lat="45.172" lon="5.58526">
        <ele>1604</ele>
        <time>2013-02-10T09:29:57Z</time>
      </trkpt>
      <trkpt lat="45.17187" lon="5.58513">
        <ele>1602.5</ele>
        <time>2013-02-10T09:30:10Z</time>
      </trkpt>
      <trkpt lat="45.1718" lon="5.58506">
        <ele>1603.8</ele>
        <time>2013-02-10T09:30:19Z</time>
      </trkpt>
      <trkpt lat="45.17172" lon="5.585">
        <ele>1603.7</ele>
        <time>2013-02-10T09:30:28Z</time>
      </trkpt>
      <trkpt lat="45.17164" lon="5.58494">
        <ele>1605.5</ele>
        <time>2013-02-10T09:30:37Z</time>
      </trkpt>
      <trkpt lat="45.17157" lon="5.58489">
        <ele>1605.5</ele>
        <time>2013-02-10T09:30:45Z</time>
      </trkpt>
      <trkpt lat="45.1715" lon="5.58482">
        <ele>1606.5</ele>
        <time>2013-02-10T09:30:55Z</time>
      </trkpt>
      <trkpt lat="45.17143" lon="5.58475">
        <ele>1608.1</ele>
        <time>2013-02-10T09:31:04Z</time>
      </trkpt>
      <trkpt lat="45.17142" lon="5.58474">
        <ele>1608</ele>
        <time>2013-02-10T09:31:05Z</time>
      </trkpt>
      <trkpt lat="45.17129" lon="5.58461">
        <ele>1609.9</ele>
        <time>2013-02-10T09:31:23Z</time>
      </trkpt>
      <trkpt lat="45.1712" lon="5.58456">
        <ele>1610.8</ele>
        <time>2013-02-10T09:31:34Z</time>
      </trkpt>
      <trkpt lat="45.17112" lon="5.58453">
        <ele>1611.4</ele>
        <time>2013-02-10T09:31:43Z</time>
      </trkpt>
      <trkpt lat="45.17103" lon="5.58449">
        <ele>1612.6</ele>
        <time>2013-02-10T09:31:54Z</time>
      </trkpt>
      <trkpt lat="45.17096" lon="5.58444">
        <ele>1614.9</ele>
        <time>2013-02-10T09:32:05Z</time>
      </trkpt>
      <trkpt lat="45.17095" lon="5.58443">
        <ele>1614.9</ele>
        <time>2013-02-10T09:32:06Z</time>
      </trkpt>
      <trkpt lat="45.17106" lon="5.58424">
        <ele>1625.5</ele>
        <time>2013-02-10T09:33:01Z</time>
      </trkpt>
      <trkpt lat="45.1711" lon="5.58413">
        <ele>1632.3</ele>
        <time>2013-02-10T09:33:53Z</time>
      </trkpt>
      <trkpt lat="45.1711" lon="5.58412">
        <ele>1632.5</ele>
        <time>2013-02-10T09:33:54Z</time>
      </trkpt>
      <trkpt lat="45.17112" lon="5.58402">
        <ele>1638.1</ele>
        <time>2013-02-10T09:34:30Z</time>
      </trkpt>
      <trkpt lat="45.17121" lon="5.58402">
        <ele>1640.6</ele>
        <time>2013-02-10T09:34:50Z</time>
      </trkpt>
      <trkpt lat="45.17129" lon="5.584">
        <ele>1645.2</ele>
        <time>2013-02-10T09:35:10Z</time>
      </trkpt>
      <trkpt lat="45.1713" lon="5.584">
        <ele>1645.2</ele>
        <time>2013-02-10T09:35:11Z</time>
      </trkpt>
      <trkpt lat="45.17134" lon="5.58387">
        <ele>1650.9</ele>
        <time>2013-02-10T09:35:43Z</time>
      </trkpt>
      <trkpt lat="45.17142" lon="5.58382">
        <ele>1653.1</ele>
        <time>2013-02-10T09:36:29Z</time>
      </trkpt>
      <trkpt lat="45.17143" lon="5.58382">
        <ele>1653.1</ele>
        <time>2013-02-10T09:36:30Z</time>
      </trkpt>
      <trkpt lat="45.17158" lon="5.58386">
        <ele>1654.1</ele>
        <time>2013-02-10T09:36:48Z</time>
      </trkpt>
      <trkpt lat="45.17167" lon="5.58386">
        <ele>1654.9</ele>
        <time>2013-02-10T09:36:56Z</time>
      </trkpt>
      <trkpt lat="45.17175" lon="5.58385">
        <ele>1656.3</ele>
        <time>2013-02-10T09:37:04Z</time>
      </trkpt>
      <trkpt lat="45.17183" lon="5.58384">
        <ele>1657.7</ele>
        <time>2013-02-10T09:37:15Z</time>
      </trkpt>
      <trkpt lat="45.17191" lon="5.58384">
        <ele>1659.4</ele>
        <time>2013-02-10T09:37:24Z</time>
      </trkpt>
      <trkpt lat="45.172" lon="5.58381">
        <ele>1660.9</ele>
        <time>2013-02-10T09:37:33Z</time>
      </trkpt>
      <trkpt lat="45.17201" lon="5.58381">
        <ele>1661</ele>
        <time>2013-02-10T09:37:34Z</time>
      </trkpt>
      <trkpt lat="45.17216" lon="5.58384">
        <ele>1663.3</ele>
        <time>2013-02-10T09:37:52Z</time>
      </trkpt>
      <trkpt lat="45.17223" lon="5.58392">
        <ele>1665</ele>
        <time>2013-02-10T09:39:16Z</time>
      </trkpt>
      <trkpt lat="45.17223" lon="5.58392">
        <ele>1664.9</ele>
        <time>2013-02-10T09:39:17Z</time>
      </trkpt>
      <trkpt lat="45.17233" lon="5.5839">
        <ele>1665.5</ele>
        <time>2013-02-10T09:42:49Z</time>
      </trkpt>
      <trkpt lat="45.17249" lon="5.58392">
        <ele>1666.5</ele>
        <time>2013-02-10T09:43:05Z</time>
      </trkpt>
      <trkpt lat="45.17257" lon="5.58391">
        <ele>1667.8</ele>
        <time>2013-02-10T09:43:12Z</time>
      </trkpt>
      <trkpt lat="45.17265" lon="5.58395">
        <ele>1668</ele>
        <time>2013-02-10T09:43:20Z</time>
      </trkpt>
      <trkpt lat="45.17273" lon="5.58398">
        <ele>1667.4</ele>
        <time>2013-02-10T09:43:27Z</time>
      </trkpt>
      <trkpt lat="45.17282" lon="5.584">
        <ele>1668.2</ele>
        <time>2013-02-10T09:43:38Z</time>
      </trkpt>
      <trkpt lat="45.17289" lon="5.58406">
        <ele>1669.7</ele>
        <time>2013-02-10T09:43:49Z</time>
      </trkpt>
      <trkpt lat="45.1729" lon="5.58407">
        <ele>1670</ele>
        <time>2013-02-10T09:43:50Z</time>
      </trkpt>
      <trkpt lat="45.17304" lon="5.58419">
        <ele>1673.1</ele>
        <time>2013-02-10T09:44:11Z</time>
      </trkpt>
      <trkpt lat="45.17312" lon="5.58423">
        <ele>1674.9</ele>
        <time>2013-02-10T09:44:23Z</time>
      </trkpt>
      <trkpt lat="45.1732" lon="5.58428">
        <ele>1676.4</ele>
        <time>2013-02-10T09:44:32Z</time>
      </trkpt>
      <trkpt lat="45.17327" lon="5.58435">
        <ele>1677.5</ele>
        <time>2013-02-10T09:44:42Z</time>
      </trkpt>
      <trkpt lat="45.17334" lon="5.58443">
        <ele>1679.8</ele>
        <time>2013-02-10T09:44:53Z</time>
      </trkpt>
      <trkpt lat="45.17334" lon="5.58443">
        <ele>1679.9</ele>
        <time>2013-02-10T09:44:54Z</time>
      </trkpt>
      <trkpt lat="45.17349" lon="5.58454">
        <ele>1684.3</ele>
        <time>2013-02-10T09:45:18Z</time>
      </trkpt>
      <trkpt lat="45.17355" lon="5.58463">
        <ele>1685.6</ele>
        <time>2013-02-10T09:45:29Z</time>
      </trkpt>
      <trkpt lat="45.17361" lon="5.58472">
        <ele>1687.5</ele>
        <time>2013-02-10T09:45:40Z</time>
      </trkpt>
      <trkpt lat="45.17367" lon="5.58481">
        <ele>1689.7</ele>
        <time>2013-02-10T09:45:52Z</time>
      </trkpt>
      <trkpt lat="45.17373" lon="5.58489">
        <ele>1691.1</ele>
        <time>2013-02-10T09:46:01Z</time>
      </trkpt>
      <trkpt lat="45.17374" lon="5.5849">
        <ele>1691.2</ele>
        <time>2013-02-10T09:46:02Z</time>
      </trkpt>
      <trkpt lat="45.17386" lon="5.58504">
        <ele>1692.3</ele>
        <time>2013-02-10T09:46:17Z</time>
      </trkpt>
      <trkpt lat="45.17393" lon="5.58513">
        <ele>1693.9</ele>
        <time>2013-02-10T09:46:25Z</time>
      </trkpt>
      <trkpt lat="45.17399" lon="5.58522">
        <ele>1694.6</ele>
        <time>2013-02-10T09:46:33Z</time>
      </trkpt>
      <trkpt lat="45.17407" lon="5.58527">
        <ele>1694.5</ele>
        <time>2013-02-10T09:46:41Z</time>
      </trkpt>
      <trkpt lat="45.17415" lon="5.58527">
        <ele>1694.7</ele>
        <time>2013-02-10T09:46:48Z</time>
      </trkpt>
      <trkpt lat="45.17423" lon="5.58532">
        <ele>1694.5</ele>
        <time>2013-02-10T09:46:55Z</time>
      </trkpt>
      <trkpt lat="45.1743" lon="5.58537">
        <ele>1695</ele>
        <time>2013-02-10T09:47:02Z</time>
      </trkpt>
      <trkpt lat="45.17431" lon="5.58537">
        <ele>1695.2</ele>
        <time>2013-02-10T09:47:03Z</time>
      </trkpt>
      <trkpt lat="45.17446" lon="5.58547">
        <ele>1696.9</ele>
        <time>2013-02-10T09:47:19Z</time>
      </trkpt>
      <trkpt lat="45.17454" lon="5.58547">
        <ele>1696.8</ele>
        <time>2013-02-10T09:47:27Z</time>
      </trkpt>
      <trkpt lat="45.17463" lon="5.58545">
        <ele>1698.6</ele>
        <time>2013-02-10T09:47:48Z</time>
      </trkpt>
      <trkpt lat="45.17472" lon="5.58544">
        <ele>1696.3</ele>
        <time>2013-02-10T09:48:05Z</time>
      </trkpt>
      <trkpt lat="45.17473" lon="5.58544">
        <ele>1696.8</ele>
        <time>2013-02-10T09:48:06Z</time>
      </trkpt>
      <trkpt lat="45.17488" lon="5.58547">
        <ele>1696.5</ele>
        <time>2013-02-10T09:48:18Z</time>
      </trkpt>
      <trkpt lat="45.17497" lon="5.58547">
        <ele>1696.7</ele>
        <time>2013-02-10T09:48:39Z</time>
      </trkpt>
      <trkpt lat="45.17506" lon="5.58546">
        <ele>1696.6</ele>
        <time>2013-02-10T09:48:57Z</time>
      </trkpt>
      <trkpt lat="45.17513" lon="5.58552">
        <ele>1697.2</ele>
        <time>2013-02-10T09:49:05Z</time>
      </trkpt>
      <trkpt lat="45.17519" lon="5.58559">
        <ele>1698</ele>
        <time>2013-02-10T09:49:12Z</time>
      </trkpt>
      <trkpt lat="45.1752" lon="5.5856">
        <ele>1698.2</ele>
        <time>2013-02-10T09:49:13Z</time>
      </trkpt>
      <trkpt lat="45.1753" lon="5.58573">
        <ele>1697.8</ele>
        <time>2013-02-10T09:49:26Z</time>
      </trkpt>
      <trkpt lat="45.17538" lon="5.58576">
        <ele>1698.1</ele>
        <time>2013-02-10T09:49:32Z</time>
      </trkpt>
      <trkpt lat="45.17547" lon="5.58579">
        <ele>1698.2</ele>
        <time>2013-02-10T09:49:39Z</time>
      </trkpt>
      <trkpt lat="45.17555" lon="5.58584">
        <ele>1698.9</ele>
        <time>2013-02-10T09:49:46Z</time>
      </trkpt>
      <trkpt lat="45.17563" lon="5.58589">
        <ele>1698.8</ele>
        <time>2013-02-10T09:49:53Z</time>
      </trkpt>
      <trkpt lat="45.17569" lon="5.58598">
        <ele>1699</ele>
        <time>2013-02-10T09:50:01Z</time>
      </trkpt>
      <trkpt lat="45.17577" lon="5.58603">
        <ele>1699.3</ele>
        <time>2013-02-10T09:50:09Z</time>
      </trkpt>
      <trkpt lat="45.17585" lon="5.58605">
        <ele>1700.2</ele>
        <time>2013-02-10T09:50:17Z</time>
      </trkpt>
      <trkpt lat="45.17586" lon="5.58605">
        <ele>1700</ele>
        <time>2013-02-10T09:50:18Z</time>
      </trkpt>
      <trkpt lat="45.17603" lon="5.58605">
        <ele>1697.9</ele>
        <time>2013-02-10T09:51:25Z</time>
      </trkpt>
      <trkpt lat="45.17603" lon="5.58605">
        <ele>1697.9</ele>
        <time>2013-02-10T09:51:26Z</time>
      </trkpt>
      <trkpt lat="45.17586" lon="5.58605">
        <ele>1697.1</ele>
        <time>2013-02-10T09:52:03Z</time>
      </trkpt>
      <trkpt lat="45.17578" lon="5.58598">
        <ele>1697.5</ele>
        <time>2013-02-10T09:52:15Z</time>
      </trkpt>
      <trkpt lat="45.17572" lon="5.58592">
        <ele>1696.2</ele>
        <time>2013-02-10T09:52:22Z</time>
      </trkpt>
      <trkpt lat="45.17564" lon="5.58587">
        <ele>1696.4</ele>
        <time>2013-02-10T09:52:28Z</time>
      </trkpt>
      <trkpt lat="45.17563" lon="5.58587">
        <ele>1696.2</ele>
        <time>2013-02-10T09:52:29Z</time>
      </trkpt>
      <trkpt lat="45.17549" lon="5.58582">
        <ele>1694.9</ele>
        <time>2013-02-10T09:52:38Z</time>
      </trkpt>
      <trkpt lat="45.17541" lon="5.58578">
        <ele>1695.4</ele>
        <time>2013-02-10T09:52:44Z</time>
      </trkpt>
      <trkpt lat="45.17534" lon="5.58571">
        <ele>1693.7</ele>
        <time>2013-02-10T09:52:50Z</time>
      </trkpt>
      <trkpt lat="45.17528" lon="5.58564">
        <ele>1693.6</ele>
        <time>2013-02-10T09:52:55Z</time>
      </trkpt>
      <trkpt lat="45.17521" lon="5.58557">
        <ele>1693.6</ele>
        <time>2013-02-10T09:53:00Z</time>
      </trkpt>
      <trkpt lat="45.17513" lon="5.58552">
        <ele>1692.4</ele>
        <time>2013-02-10T09:53:04Z</time>
      </trkpt>
      <trkpt lat="45.17505" lon="5.58549">
        <ele>1692.2</ele>
        <time>2013-02-10T09:53:10Z</time>
      </trkpt>
      <trkpt lat="45.17497" lon="5.58544">
        <ele>1688.6</ele>
        <time>2013-02-10T09:54:46Z</time>
      </trkpt>
      <trkpt lat="45.17497" lon="5.58544">
        <ele>1688.2</ele>
        <time>2013-02-10T09:54:47Z</time>
      </trkpt>
      <trkpt lat="45.17488" lon="5.58544">
        <ele>1683.8</ele>
        <time>2013-02-10T09:58:50Z</time>
      </trkpt>
      <trkpt lat="45.1748" lon="5.58525">
        <ele>1681.6</ele>
        <time>2013-02-10T09:59:09Z</time>
      </trkpt>
      <trkpt lat="45.1748" lon="5.58515">
        <ele>1680.8</ele>
        <time>2013-02-10T09:59:14Z</time>
      </trkpt>
      <trkpt lat="45.17478" lon="5.58505">
        <ele>1679.9</ele>
        <time>2013-02-10T09:59:17Z</time>
      </trkpt>
      <trkpt lat="45.17475" lon="5.58494">
        <ele>1678</ele>
        <time>2013-02-10T09:59:20Z</time>
      </trkpt>
      <trkpt lat="45.17472" lon="5.58483">
        <ele>1676</ele>
        <time>2013-02-10T09:59:23Z</time>
      </trkpt>
      <trkpt lat="45.17471" lon="5.58474">
        <ele>1674.7</ele>
        <time>2013-02-10T09:59:25Z</time>
      </trkpt>
      <trkpt lat="45.17472" lon="5.58465">
        <ele>1673.5</ele>
        <time>2013-02-10T09:59:27Z</time>
      </trkpt>
      <trkpt lat="45.17473" lon="5.58455">
        <ele>1671.9</ele>
        <time>2013-02-10T09:59:29Z</time>
      </trkpt>
      <trkpt lat="45.17475" lon="5.58445">
        <ele>1670.4</ele>
        <time>2013-02-10T09:59:31Z</time>
      </trkpt>
      <trkpt lat="45.17477" lon="5.58434">
        <ele>1668.8</ele>
        <time>2013-02-10T09:59:33Z</time>
      </trkpt>
      <trkpt lat="45.1748" lon="5.58424">
        <ele>1667</ele>
        <time>2013-02-10T09:59:35Z</time>
      </trkpt>
      <trkpt lat="45.17479" lon="5.58415">
        <ele>1665.5</ele>
        <time>2013-02-10T09:59:37Z</time>
      </trkpt>
      <trkpt lat="45.17482" lon="5.58403">
        <ele>1663.6</ele>
        <time>2013-02-10T09:59:40Z</time>
      </trkpt>
      <trkpt lat="45.17484" lon="5.58394">
        <ele>1661.7</ele>
        <time>2013-02-10T09:59:42Z</time>
      </trkpt>
      <trkpt lat="45.17488" lon="5.58383">
        <ele>1659.7</ele>
        <time>2013-02-10T09:59:45Z</time>
      </trkpt>
      <trkpt lat="45.17489" lon="5.58372">
        <ele>1657.2</ele>
        <time>2013-02-10T09:59:48Z</time>
      </trkpt>
      <trkpt lat="45.17488" lon="5.5836">
        <ele>1655.5</ele>
        <time>2013-02-10T09:59:51Z</time>
      </trkpt>
      <trkpt lat="45.17488" lon="5.58354">
        <ele>1655.2</ele>
        <time>2013-02-10T09:59:52Z</time>
      </trkpt>
      <trkpt lat="45.17487" lon="5.58339">
        <ele>1653.1</ele>
        <time>2013-02-10T09:59:55Z</time>
      </trkpt>
      <trkpt lat="45.17489" lon="5.58328">
        <ele>1652</ele>
        <time>2013-02-10T09:59:57Z</time>
      </trkpt>
      <trkpt lat="45.17488" lon="5.58317">
        <ele>1650</ele>
        <time>2013-02-10T09:59:59Z</time>
      </trkpt>
      <trkpt lat="45.17487" lon="5.58307">
        <ele>1647.9</ele>
        <time>2013-02-10T10:00:01Z</time>
      </trkpt>
      <trkpt lat="45.17487" lon="5.58297">
        <ele>1646.5</ele>
        <time>2013-02-10T10:00:03Z</time>
      </trkpt>
      <trkpt lat="45.17488" lon="5.58287">
        <ele>1645</ele>
        <time>2013-02-10T10:00:05Z</time>
      </trkpt>
      <trkpt lat="45.1749" lon="5.58278">
        <ele>1644</ele>
        <time>2013-02-10T10:00:07Z</time>
      </trkpt>
      <trkpt lat="45.1749" lon="5.58269">
        <ele>1643.7</ele>
        <time>2013-02-10T10:00:09Z</time>
      </trkpt>
      <trkpt lat="45.17491" lon="5.58258">
        <ele>1641.7</ele>
        <time>2013-02-10T10:00:12Z</time>
      </trkpt>
      <trkpt lat="45.17491" lon="5.58246">
        <ele>1640.5</ele>
        <time>2013-02-10T10:00:16Z</time>
      </trkpt>
      <trkpt lat="45.17491" lon="5.58236">
        <ele>1638.3</ele>
        <time>2013-02-10T10:00:20Z</time>
      </trkpt>
      <trkpt lat="45.17492" lon="5.58227">
        <ele>1637.3</ele>
        <time>2013-02-10T10:00:22Z</time>
      </trkpt>
      <trkpt lat="45.17494" lon="5.58217">
        <ele>1636</ele>
        <time>2013-02-10T10:00:24Z</time>
      </trkpt>
      <trkpt lat="45.17495" lon="5.58207">
        <ele>1634.7</ele>
        <time>2013-02-10T10:00:26Z</time>
      </trkpt>
      <trkpt lat="45.17495" lon="5.58194">
        <ele>1633.5</ele>
        <time>2013-02-10T10:00:30Z</time>
      </trkpt>
      <trkpt lat="45.17498" lon="5.58182">
        <ele>1633.1</ele>
        <time>2013-02-10T10:00:33Z</time>
      </trkpt>
      <trkpt lat="45.17498" lon="5.58171">
        <ele>1631</ele>
        <time>2013-02-10T10:00:35Z</time>
      </trkpt>
      <trkpt lat="45.17499" lon="5.58161">
        <ele>1629.2</ele>
        <time>2013-02-10T10:00:37Z</time>
      </trkpt>
      <trkpt lat="45.17503" lon="5.58155">
        <ele>1627.6</ele>
        <time>2013-02-10T10:00:39Z</time>
      </trkpt>
      <trkpt lat="45.17507" lon="5.58147">
        <ele>1626.2</ele>
        <time>2013-02-10T10:00:41Z</time>
      </trkpt>
      <trkpt lat="45.17513" lon="5.5814">
        <ele>1624.6</ele>
        <time>2013-02-10T10:00:43Z</time>
      </trkpt>
      <trkpt lat="45.17519" lon="5.58134">
        <ele>1623.2</ele>
        <time>2013-02-10T10:00:45Z</time>
      </trkpt>
      <trkpt lat="45.17525" lon="5.5813">
        <ele>1622.2</ele>
        <time>2013-02-10T10:00:47Z</time>
      </trkpt>
      <trkpt lat="45.1753" lon="5.58123">
        <ele>1620.4</ele>
        <time>2013-02-10T10:00:49Z</time>
      </trkpt>
      <trkpt lat="45.17535" lon="5.58116">
        <ele>1619.1</ele>
        <time>2013-02-10T10:00:51Z</time>
      </trkpt>
      <trkpt lat="45.1754" lon="5.58108">
        <ele>1617.4</ele>
        <time>2013-02-10T10:00:53Z</time>
      </trkpt>
      <trkpt lat="45.17542" lon="5.58103">
        <ele>1616.5</ele>
        <time>2013-02-10T10:00:54Z</time>
      </trkpt>
      <trkpt lat="45.17547" lon="5.58089">
        <ele>1613.5</ele>
        <time>2013-02-10T10:00:57Z</time>
      </trkpt>
      <trkpt lat="45.17552" lon="5.58082">
        <ele>1611.8</ele>
        <time>2013-02-10T10:00:59Z</time>
      </trkpt>
      <trkpt lat="45.17558" lon="5.58075">
        <ele>1610</ele>
        <time>2013-02-10T10:01:01Z</time>
      </trkpt>
      <trkpt lat="45.17564" lon="5.58067">
        <ele>1608.6</ele>
        <time>2013-02-10T10:01:03Z</time>
      </trkpt>
      <trkpt lat="45.1757" lon="5.58059">
        <ele>1606.8</ele>
        <time>2013-02-10T10:01:05Z</time>
      </trkpt>
      <trkpt lat="45.17573" lon="5.5805">
        <ele>1605.1</ele>
        <time>2013-02-10T10:01:07Z</time>
      </trkpt>
      <trkpt lat="45.17575" lon="5.58041">
        <ele>1602.8</ele>
        <time>2013-02-10T10:01:09Z</time>
      </trkpt>
      <trkpt lat="45.17578" lon="5.58031">
        <ele>1600.9</ele>
        <time>2013-02-10T10:01:11Z</time>
      </trkpt>
      <trkpt lat="45.17582" lon="5.58021">
        <ele>1599.1</ele>
        <time>2013-02-10T10:01:13Z</time>
      </trkpt>
      <trkpt lat="45.17587" lon="5.58012">
        <ele>1597.1</ele>
        <time>2013-02-10T10:01:15Z</time>
      </trkpt>
      <trkpt lat="45.17591" lon="5.58005">
        <ele>1594.5</ele>
        <time>2013-02-10T10:01:17Z</time>
      </trkpt>
      <trkpt lat="45.17598" lon="5.57999">
        <ele>1592.9</ele>
        <time>2013-02-10T10:01:19Z</time>
      </trkpt>
      <trkpt lat="45.17606" lon="5.57996">
        <ele>1591.4</ele>
        <time>2013-02-10T10:01:21Z</time>
      </trkpt>
      <trkpt lat="45.17614" lon="5.57995">
        <ele>1589.8</ele>
        <time>2013-02-10T10:01:23Z</time>
      </trkpt>
      <trkpt lat="45.17621" lon="5.57992">
        <ele>1588.7</ele>
        <time>2013-02-10T10:01:25Z</time>
      </trkpt>
      <trkpt lat="45.17628" lon="5.57985">
        <ele>1587.1</ele>
        <time>2013-02-10T10:01:27Z</time>
      </trkpt>
      <trkpt lat="45.17635" lon="5.57978">
        <ele>1585.4</ele>
        <time>2013-02-10T10:01:29Z</time>
      </trkpt>
      <trkpt lat="45.17642" lon="5.57974">
        <ele>1583</ele>
        <time>2013-02-10T10:01:31Z</time>
      </trkpt>
      <trkpt lat="45.17648" lon="5.57968">
        <ele>1581</ele>
        <time>2013-02-10T10:01:33Z</time>
      </trkpt>
      <trkpt lat="45.17654" lon="5.5796">
        <ele>1579.2</ele>
        <time>2013-02-10T10:01:35Z</time>
      </trkpt>
      <trkpt lat="45.17661" lon="5.57952">
        <ele>1577.9</ele>
        <time>2013-02-10T10:01:37Z</time>
      </trkpt>
      <trkpt lat="45.17668" lon="5.57945">
        <ele>1575.7</ele>
        <time>2013-02-10T10:01:39Z</time>
      </trkpt>
      <trkpt lat="45.17674" lon="5.57937">
        <ele>1573.4</ele>
        <time>2013-02-10T10:01:41Z</time>
      </trkpt>
      <trkpt lat="45.17678" lon="5.57927">
        <ele>1570.3</ele>
        <time>2013-02-10T10:01:44Z</time>
      </trkpt>
      <trkpt lat="45.17684" lon="5.57918">
        <ele>1567.7</ele>
        <time>2013-02-10T10:01:50Z</time>
      </trkpt>
      <trkpt lat="45.17686" lon="5.57909">
        <ele>1566.5</ele>
        <time>2013-02-10T10:01:52Z</time>
      </trkpt>
      <trkpt lat="45.17687" lon="5.57899">
        <ele>1565</ele>
        <time>2013-02-10T10:01:54Z</time>
      </trkpt>
      <trkpt lat="45.17688" lon="5.57894">
        <ele>1564.5</ele>
        <time>2013-02-10T10:01:55Z</time>
      </trkpt>
      <trkpt lat="45.1769" lon="5.5788">
        <ele>1562.3</ele>
        <time>2013-02-10T10:01:58Z</time>
      </trkpt>
      <trkpt lat="45.17694" lon="5.57872">
        <ele>1561.2</ele>
        <time>2013-02-10T10:02:00Z</time>
      </trkpt>
      <trkpt lat="45.17696" lon="5.57862">
        <ele>1558.6</ele>
        <time>2013-02-10T10:02:02Z</time>
      </trkpt>
      <trkpt lat="45.177" lon="5.57851">
        <ele>1556.8</ele>
        <time>2013-02-10T10:02:04Z</time>
      </trkpt>
      <trkpt lat="45.17705" lon="5.57842">
        <ele>1554.9</ele>
        <time>2013-02-10T10:02:06Z</time>
      </trkpt>
      <trkpt lat="45.17707" lon="5.57832">
        <ele>1552.7</ele>
        <time>2013-02-10T10:02:08Z</time>
      </trkpt>
      <trkpt lat="45.17709" lon="5.57821">
        <ele>1551</ele>
        <time>2013-02-10T10:02:10Z</time>
      </trkpt>
      <trkpt lat="45.17711" lon="5.5781">
        <ele>1549.1</ele>
        <time>2013-02-10T10:02:12Z</time>
      </trkpt>
      <trkpt lat="45.17711" lon="5.57799">
        <ele>1546.9</ele>
        <time>2013-02-10T10:02:14Z</time>
      </trkpt>
      <trkpt lat="45.17714" lon="5.57787">
        <ele>1544.9</ele>
        <time>2013-02-10T10:02:16Z</time>
      </trkpt>
      <trkpt lat="45.17716" lon="5.57775">
        <ele>1542.6</ele>
        <time>2013-02-10T10:02:18Z</time>
      </trkpt>
      <trkpt lat="45.17718" lon="5.57763">
        <ele>1540.2</ele>
        <time>2013-02-10T10:02:20Z</time>
      </trkpt>
      <trkpt lat="45.17721" lon="5.57751">
        <ele>1538.2</ele>
        <time>2013-02-10T10:02:22Z</time>
      </trkpt>
      <trkpt lat="45.17723" lon="5.57744">
        <ele>1536.4</ele>
        <time>2013-02-10T10:02:23Z</time>
      </trkpt>
      <trkpt lat="45.17724" lon="5.57737">
        <ele>1535</ele>
        <time>2013-02-10T10:02:24Z</time>
      </trkpt>
      <trkpt lat="45.17726" lon="5.5773">
        <ele>1532.6</ele>
        <time>2013-02-10T10:02:25Z</time>
      </trkpt>
      <trkpt lat="45.17732" lon="5.57723">
        <ele>1529.2</ele>
        <time>2013-02-10T10:02:27Z</time>
      </trkpt>
      <trkpt lat="45.17737" lon="5.57715">
        <ele>1527.2</ele>
        <time>2013-02-10T10:02:29Z</time>
      </trkpt>
      <trkpt lat="45.17743" lon="5.57708">
        <ele>1524.1</ele>
        <time>2013-02-10T10:02:31Z</time>
      </trkpt>
      <trkpt lat="45.17747" lon="5.57699">
        <ele>1521.4</ele>
        <time>2013-02-10T10:02:33Z</time>
      </trkpt>
      <trkpt lat="45.17747" lon="5.57688">
        <ele>1519</ele>
        <time>2013-02-10T10:02:35Z</time>
      </trkpt>
      <trkpt lat="45.17749" lon="5.5768">
        <ele>1516</ele>
        <time>2013-02-10T10:02:37Z</time>
      </trkpt>
      <trkpt lat="45.17754" lon="5.57673">
        <ele>1513.4</ele>
        <time>2013-02-10T10:02:39Z</time>
      </trkpt>
      <trkpt lat="45.17759" lon="5.57666">
        <ele>1511.8</ele>
        <time>2013-02-10T10:02:41Z</time>
      </trkpt>
      <trkpt lat="45.17767" lon="5.57663">
        <ele>1507.2</ele>
        <time>2013-02-10T10:02:47Z</time>
      </trkpt>
      <trkpt lat="45.17767" lon="5.57653">
        <ele>1505.4</ele>
        <time>2013-02-10T10:02:52Z</time>
      </trkpt>
      <trkpt lat="45.17765" lon="5.57642">
        <ele>1503.4</ele>
        <time>2013-02-10T10:02:55Z</time>
      </trkpt>
      <trkpt lat="45.17764" lon="5.57637">
        <ele>1502</ele>
        <time>2013-02-10T10:02:56Z</time>
      </trkpt>
      <trkpt lat="45.1776" lon="5.57625">
        <ele>1498.6</ele>
        <time>2013-02-10T10:02:59Z</time>
      </trkpt>
      <trkpt lat="45.17756" lon="5.57617">
        <ele>1496</ele>
        <time>2013-02-10T10:03:01Z</time>
      </trkpt>
      <trkpt lat="45.17751" lon="5.57612">
        <ele>1493.3</ele>
        <time>2013-02-10T10:03:03Z</time>
      </trkpt>
      <trkpt lat="45.17744" lon="5.57606">
        <ele>1489.7</ele>
        <time>2013-02-10T10:03:06Z</time>
      </trkpt>
      <trkpt lat="45.17738" lon="5.57601">
        <ele>1487.4</ele>
        <time>2013-02-10T10:03:08Z</time>
      </trkpt>
      <trkpt lat="45.1773" lon="5.57596">
        <ele>1484.9</ele>
        <time>2013-02-10T10:03:10Z</time>
      </trkpt>
      <trkpt lat="45.17723" lon="5.57592">
        <ele>1482.9</ele>
        <time>2013-02-10T10:03:12Z</time>
      </trkpt>
      <trkpt lat="45.17717" lon="5.5759">
        <ele>1481.1</ele>
        <time>2013-02-10T10:03:14Z</time>
      </trkpt>
      <trkpt lat="45.1771" lon="5.57587">
        <ele>1479.2</ele>
        <time>2013-02-10T10:03:16Z</time>
      </trkpt>
      <trkpt lat="45.17706" lon="5.57585">
        <ele>1478.7</ele>
        <time>2013-02-10T10:03:17Z</time>
      </trkpt>
      <trkpt lat="45.17701" lon="5.57582">
        <ele>1478.2</ele>
        <time>2013-02-10T10:03:18Z</time>
      </trkpt>
      <trkpt lat="45.17696" lon="5.57578">
        <ele>1477.9</ele>
        <time>2013-02-10T10:03:19Z</time>
      </trkpt>
      <trkpt lat="45.17689" lon="5.57574">
        <ele>1475.9</ele>
        <time>2013-02-10T10:03:21Z</time>
      </trkpt>
      <trkpt lat="45.17682" lon="5.57566">
        <ele>1473.2</ele>
        <time>2013-02-10T10:03:31Z</time>
      </trkpt>
      <trkpt lat="45.17677" lon="5.57556">
        <ele>1472.8</ele>
        <time>2013-02-10T10:03:50Z</time>
      </trkpt>
      <trkpt lat="45.17674" lon="5.57567">
        <ele>1470</ele>
        <time>2013-02-10T10:05:19Z</time>
      </trkpt>
      <trkpt lat="45.17673" lon="5.57568">
        <ele>1469.9</ele>
        <time>2013-02-10T10:05:20Z</time>
      </trkpt>
      <trkpt lat="45.17675" lon="5.57554">
        <ele>1467.7</ele>
        <time>2013-02-10T10:07:02Z</time>
      </trkpt>
      <trkpt lat="45.17665" lon="5.57556">
        <ele>1464.1</ele>
        <time>2013-02-10T10:11:24Z</time>
      </trkpt>
      <trkpt lat="45.17649" lon="5.57559">
        <ele>1463.1</ele>
        <time>2013-02-10T10:11:38Z</time>
      </trkpt>
      <trkpt lat="45.17641" lon="5.5756">
        <ele>1462.7</ele>
        <time>2013-02-10T10:11:45Z</time>
      </trkpt>
      <trkpt lat="45.17632" lon="5.57562">
        <ele>1462</ele>
        <time>2013-02-10T10:11:52Z</time>
      </trkpt>
      <trkpt lat="45.17624" lon="5.57567">
        <ele>1461.8</ele>
        <time>2013-02-10T10:11:59Z</time>
      </trkpt>
      <trkpt lat="45.17617" lon="5.57572">
        <ele>1461.5</ele>
        <time>2013-02-10T10:12:06Z</time>
      </trkpt>
      <trkpt lat="45.17609" lon="5.57576">
        <ele>1461.9</ele>
        <time>2013-02-10T10:12:13Z</time>
      </trkpt>
      <trkpt lat="45.17601" lon="5.57578">
        <ele>1461.7</ele>
        <time>2013-02-10T10:12:20Z</time>
      </trkpt>
      <trkpt lat="45.17593" lon="5.5758">
        <ele>1462</ele>
        <time>2013-02-10T10:12:27Z</time>
      </trkpt>
      <trkpt lat="45.17592" lon="5.5758">
        <ele>1461.3</ele>
        <time>2013-02-10T10:12:28Z</time>
      </trkpt>
      <trkpt lat="45.17579" lon="5.57569">
        <ele>1460.6</ele>
        <time>2013-02-10T10:12:42Z</time>
      </trkpt>
      <trkpt lat="45.17574" lon="5.57559">
        <ele>1461.3</ele>
        <time>2013-02-10T10:12:49Z</time>
      </trkpt>
      <trkpt lat="45.1757" lon="5.5755">
        <ele>1460.5</ele>
        <time>2013-02-10T10:12:58Z</time>
      </trkpt>
      <trkpt lat="45.17565" lon="5.57541">
        <ele>1460.2</ele>
        <time>2013-02-10T10:13:06Z</time>
      </trkpt>
      <trkpt lat="45.17559" lon="5.57532">
        <ele>1460.4</ele>
        <time>2013-02-10T10:13:14Z</time>
      </trkpt>
      <trkpt lat="45.17553" lon="5.57523">
        <ele>1460.3</ele>
        <time>2013-02-10T10:13:21Z</time>
      </trkpt>
      <trkpt lat="45.17548" lon="5.57514">
        <ele>1460.2</ele>
        <time>2013-02-10T10:13:27Z</time>
      </trkpt>
      <trkpt lat="45.17543" lon="5.57504">
        <ele>1459.8</ele>
        <time>2013-02-10T10:13:33Z</time>
      </trkpt>
      <trkpt lat="45.17542" lon="5.57503">
        <ele>1459.7</ele>
        <time>2013-02-10T10:13:34Z</time>
      </trkpt>
      <trkpt lat="45.17533" lon="5.57486">
        <ele>1458.7</ele>
        <time>2013-02-10T10:13:45Z</time>
      </trkpt>
      <trkpt lat="45.17529" lon="5.57477">
        <ele>1458.5</ele>
        <time>2013-02-10T10:13:52Z</time>
      </trkpt>
      <trkpt lat="45.17524" lon="5.57467">
        <ele>1457.3</ele>
        <time>2013-02-10T10:13:59Z</time>
      </trkpt>
      <trkpt lat="45.17518" lon="5.57458">
        <ele>1457.6</ele>
        <time>2013-02-10T10:14:06Z</time>
      </trkpt>
      <trkpt lat="45.17514" lon="5.57448">
        <ele>1457.2</ele>
        <time>2013-02-10T10:14:12Z</time>
      </trkpt>
      <trkpt lat="45.17509" lon="5.57438">
        <ele>1456.9</ele>
        <time>2013-02-10T10:14:19Z</time>
      </trkpt>
      <trkpt lat="45.17506" lon="5.57427">
        <ele>1456.9</ele>
        <time>2013-02-10T10:14:26Z</time>
      </trkpt>
      <trkpt lat="45.17502" lon="5.57417">
        <ele>1456.1</ele>
        <time>2013-02-10T10:14:33Z</time>
      </trkpt>
      <trkpt lat="45.17498" lon="5.57406">
        <ele>1455.7</ele>
        <time>2013-02-10T10:14:40Z</time>
      </trkpt>
      <trkpt lat="45.17497" lon="5.57404">
        <ele>1455.4</ele>
        <time>2013-02-10T10:14:41Z</time>
      </trkpt>
      <trkpt lat="45.17491" lon="5.57385">
        <ele>1454.3</ele>
        <time>2013-02-10T10:14:56Z</time>
      </trkpt>
      <trkpt lat="45.17488" lon="5.57374">
        <ele>1453.5</ele>
        <time>2013-02-10T10:15:02Z</time>
      </trkpt>
      <trkpt lat="45.17486" lon="5.57364">
        <ele>1453.4</ele>
        <time>2013-02-10T10:15:08Z</time>
      </trkpt>
      <trkpt lat="45.17483" lon="5.57352">
        <ele>1453.4</ele>
        <time>2013-02-10T10:15:15Z</time>
      </trkpt>
      <trkpt lat="45.17479" lon="5.57342">
        <ele>1453.5</ele>
        <time>2013-02-10T10:15:21Z</time>
      </trkpt>
      <trkpt lat="45.17475" lon="5.57331">
        <ele>1452.7</ele>
        <time>2013-02-10T10:15:28Z</time>
      </trkpt>
      <trkpt lat="45.17471" lon="5.57321">
        <ele>1452.4</ele>
        <time>2013-02-10T10:15:35Z</time>
      </trkpt>
      <trkpt lat="45.17466" lon="5.5731">
        <ele>1451.9</ele>
        <time>2013-02-10T10:15:42Z</time>
      </trkpt>
      <trkpt lat="45.17465" lon="5.57308">
        <ele>1452</ele>
        <time>2013-02-10T10:15:43Z</time>
      </trkpt>
      <trkpt lat="45.17457" lon="5.5729">
        <ele>1450.1</ele>
        <time>2013-02-10T10:15:55Z</time>
      </trkpt>
      <trkpt lat="45.17452" lon="5.5728">
        <ele>1449.1</ele>
        <time>2013-02-10T10:16:02Z</time>
      </trkpt>
      <trkpt lat="45.17446" lon="5.57272">
        <ele>1448.9</ele>
        <time>2013-02-10T10:16:09Z</time>
      </trkpt>
      <trkpt lat="45.17439" lon="5.57267">
        <ele>1449</ele>
        <time>2013-02-10T10:16:15Z</time>
      </trkpt>
      <trkpt lat="45.17432" lon="5.57262">
        <ele>1448.3</ele>
        <time>2013-02-10T10:16:21Z</time>
      </trkpt>
      <trkpt lat="45.17424" lon="5.57258">
        <ele>1448.5</ele>
        <time>2013-02-10T10:16:27Z</time>
      </trkpt>
      <trkpt lat="45.17415" lon="5.57255">
        <ele>1448.7</ele>
        <time>2013-02-10T10:16:34Z</time>
      </trkpt>
      <trkpt lat="45.17407" lon="5.57255">
        <ele>1448.6</ele>
        <time>2013-02-10T10:16:40Z</time>
      </trkpt>
      <trkpt lat="45.174" lon="5.57259">
        <ele>1447.8</ele>
        <time>2013-02-10T10:16:47Z</time>
      </trkpt>
      <trkpt lat="45.17399" lon="5.5726">
        <ele>1447.6</ele>
        <time>2013-02-10T10:16:48Z</time>
      </trkpt>
      <trkpt lat="45.17392" lon="5.57279">
        <ele>1447</ele>
        <time>2013-02-10T10:17:01Z</time>
      </trkpt>
      <trkpt lat="45.17392" lon="5.57292">
        <ele>1446.6</ele>
        <time>2013-02-10T10:17:08Z</time>
      </trkpt>
      <trkpt lat="45.17392" lon="5.57303">
        <ele>1445</ele>
        <time>2013-02-10T10:17:14Z</time>
      </trkpt>
      <trkpt lat="45.1739" lon="5.57314">
        <ele>1444.5</ele>
        <time>2013-02-10T10:17:20Z</time>
      </trkpt>
      <trkpt lat="45.1739" lon="5.57326">
        <ele>1444.2</ele>
        <time>2013-02-10T10:17:26Z</time>
      </trkpt>
      <trkpt lat="45.1739" lon="5.57339">
        <ele>1444.3</ele>
        <time>2013-02-10T10:17:33Z</time>
      </trkpt>
      <trkpt lat="45.1739" lon="5.57349">
        <ele>1442.8</ele>
        <time>2013-02-10T10:17:39Z</time>
      </trkpt>
      <trkpt lat="45.17391" lon="5.5736">
        <ele>1442.7</ele>
        <time>2013-02-10T10:17:44Z</time>
      </trkpt>
      <trkpt lat="45.17391" lon="5.57373">
        <ele>1442.5</ele>
        <time>2013-02-10T10:17:51Z</time>
      </trkpt>
      <trkpt lat="45.17391" lon="5.57375">
        <ele>1442.4</ele>
        <time>2013-02-10T10:17:52Z</time>
      </trkpt>
      <trkpt lat="45.17393" lon="5.57396">
        <ele>1441.3</ele>
        <time>2013-02-10T10:18:04Z</time>
      </trkpt>
      <trkpt lat="45.17393" lon="5.57407">
        <ele>1440.7</ele>
        <time>2013-02-10T10:18:10Z</time>
      </trkpt>
      <trkpt lat="45.17393" lon="5.57419">
        <ele>1441.2</ele>
        <time>2013-02-10T10:18:17Z</time>
      </trkpt>
      <trkpt lat="45.17392" lon="5.57431">
        <ele>1440.1</ele>
        <time>2013-02-10T10:18:23Z</time>
      </trkpt>
      <trkpt lat="45.17392" lon="5.57444">
        <ele>1439.8</ele>
        <time>2013-02-10T10:18:30Z</time>
      </trkpt>
      <trkpt lat="45.17391" lon="5.57455">
        <ele>1438.8</ele>
        <time>2013-02-10T10:18:36Z</time>
      </trkpt>
      <trkpt lat="45.1739" lon="5.57466">
        <ele>1439.1</ele>
        <time>2013-02-10T10:18:42Z</time>
      </trkpt>
      <trkpt lat="45.17387" lon="5.57478">
        <ele>1438.7</ele>
        <time>2013-02-10T10:18:49Z</time>
      </trkpt>
      <trkpt lat="45.17385" lon="5.57489">
        <ele>1438.5</ele>
        <time>2013-02-10T10:18:55Z</time>
      </trkpt>
      <trkpt lat="45.17384" lon="5.57491">
        <ele>1438.4</ele>
        <time>2013-02-10T10:18:56Z</time>
      </trkpt>
      <trkpt lat="45.1738" lon="5.57512">
        <ele>1437.6</ele>
        <time>2013-02-10T10:19:08Z</time>
      </trkpt>
      <trkpt lat="45.17377" lon="5.57523">
        <ele>1437.5</ele>
        <time>2013-02-10T10:19:14Z</time>
      </trkpt>
      <trkpt lat="45.17374" lon="5.57534">
        <ele>1436.8</ele>
        <time>2013-02-10T10:19:20Z</time>
      </trkpt>
      <trkpt lat="45.17371" lon="5.57544">
        <ele>1437.1</ele>
        <time>2013-02-10T10:19:26Z</time>
      </trkpt>
      <trkpt lat="45.17367" lon="5.57554">
        <ele>1436.6</ele>
        <time>2013-02-10T10:19:32Z</time>
      </trkpt>
      <trkpt lat="45.17364" lon="5.57565">
        <ele>1435.6</ele>
        <time>2013-02-10T10:19:39Z</time>
      </trkpt>
      <trkpt lat="45.17362" lon="5.57577">
        <ele>1435</ele>
        <time>2013-02-10T10:19:46Z</time>
      </trkpt>
      <trkpt lat="45.1736" lon="5.57588">
        <ele>1434.2</ele>
        <time>2013-02-10T10:19:53Z</time>
      </trkpt>
      <trkpt lat="45.17358" lon="5.57601">
        <ele>1434.4</ele>
        <time>2013-02-10T10:20:00Z</time>
      </trkpt>
      <trkpt lat="45.17358" lon="5.57602">
        <ele>1434.2</ele>
        <time>2013-02-10T10:20:01Z</time>
      </trkpt>
      <trkpt lat="45.17356" lon="5.57624">
        <ele>1434.9</ele>
        <time>2013-02-10T10:20:14Z</time>
      </trkpt>
      <trkpt lat="45.17355" lon="5.57636">
        <ele>1434.4</ele>
        <time>2013-02-10T10:20:21Z</time>
      </trkpt>
      <trkpt lat="45.17355" lon="5.57648">
        <ele>1434.6</ele>
        <time>2013-02-10T10:20:28Z</time>
      </trkpt>
      <trkpt lat="45.17355" lon="5.5766">
        <ele>1435.2</ele>
        <time>2013-02-10T10:20:36Z</time>
      </trkpt>
      <trkpt lat="45.17355" lon="5.57673">
        <ele>1435.4</ele>
        <time>2013-02-10T10:20:44Z</time>
      </trkpt>
      <trkpt lat="45.17356" lon="5.57684">
        <ele>1434.8</ele>
        <time>2013-02-10T10:20:51Z</time>
      </trkpt>
      <trkpt lat="45.17357" lon="5.57696">
        <ele>1435.9</ele>
        <time>2013-02-10T10:20:59Z</time>
      </trkpt>
      <trkpt lat="45.17358" lon="5.57709">
        <ele>1435.5</ele>
        <time>2013-02-10T10:21:07Z</time>
      </trkpt>
      <trkpt lat="45.17358" lon="5.57711">
        <ele>1435.5</ele>
        <time>2013-02-10T10:21:08Z</time>
      </trkpt>
      <trkpt lat="45.17357" lon="5.57732">
        <ele>1435</ele>
        <time>2013-02-10T10:21:22Z</time>
      </trkpt>
      <trkpt lat="45.17355" lon="5.57744">
        <ele>1435.7</ele>
        <time>2013-02-10T10:21:29Z</time>
      </trkpt>
      <trkpt lat="45.1735" lon="5.57754">
        <ele>1435.8</ele>
        <time>2013-02-10T10:21:36Z</time>
      </trkpt>
      <trkpt lat="45.17344" lon="5.57763">
        <ele>1435.3</ele>
        <time>2013-02-10T10:21:43Z</time>
      </trkpt>
      <trkpt lat="45.17337" lon="5.5777">
        <ele>1435.3</ele>
        <time>2013-02-10T10:21:50Z</time>
      </trkpt>
      <trkpt lat="45.17331" lon="5.57777">
        <ele>1434.6</ele>
        <time>2013-02-10T10:21:57Z</time>
      </trkpt>
      <trkpt lat="45.17326" lon="5.57787">
        <ele>1435.6</ele>
        <time>2013-02-10T10:22:04Z</time>
      </trkpt>
      <trkpt lat="45.17321" lon="5.57797">
        <ele>1434</ele>
        <time>2013-02-10T10:22:12Z</time>
      </trkpt>
      <trkpt lat="45.1732" lon="5.57798">
        <ele>1434.3</ele>
        <time>2013-02-10T10:22:13Z</time>
      </trkpt>
      <trkpt lat="45.17311" lon="5.57816">
        <ele>1436.2</ele>
        <time>2013-02-10T10:28:29Z</time>
      </trkpt>
      <trkpt lat="45.1731" lon="5.57816">
        <ele>1436.6</ele>
        <time>2013-02-10T10:28:30Z</time>
      </trkpt>
      <trkpt lat="45.17314" lon="5.57838">
        <ele>1443.6</ele>
        <time>2013-02-10T10:29:01Z</time>
      </trkpt>
      <trkpt lat="45.17323" lon="5.57837">
        <ele>1447</ele>
        <time>2013-02-10T10:29:23Z</time>
      </trkpt>
      <trkpt lat="45.17332" lon="5.57834">
        <ele>1449.6</ele>
        <time>2013-02-10T10:29:43Z</time>
      </trkpt>
      <trkpt lat="45.17332" lon="5.57833">
        <ele>1449.9</ele>
        <time>2013-02-10T10:29:44Z</time>
      </trkpt>
      <trkpt lat="45.17346" lon="5.57823">
        <ele>1452.8</ele>
        <time>2013-02-10T10:30:05Z</time>
      </trkpt>
      <trkpt lat="45.17353" lon="5.57816">
        <ele>1455.3</ele>
        <time>2013-02-10T10:30:14Z</time>
      </trkpt>
      <trkpt lat="45.17361" lon="5.57811">
        <ele>1458.5</ele>
        <time>2013-02-10T10:30:27Z</time>
      </trkpt>
      <trkpt lat="45.17368" lon="5.57804">
        <ele>1461.9</ele>
        <time>2013-02-10T10:30:44Z</time>
      </trkpt>
      <trkpt lat="45.17368" lon="5.57804">
        <ele>1462.3</ele>
        <time>2013-02-10T10:30:45Z</time>
      </trkpt>
      <trkpt lat="45.17383" lon="5.57793">
        <ele>1467</ele>
        <time>2013-02-10T10:31:10Z</time>
      </trkpt>
      <trkpt lat="45.1739" lon="5.57786">
        <ele>1469.8</ele>
        <time>2013-02-10T10:31:21Z</time>
      </trkpt>
      <trkpt lat="45.17396" lon="5.57778">
        <ele>1472.7</ele>
        <time>2013-02-10T10:31:39Z</time>
      </trkpt>
      <trkpt lat="45.17403" lon="5.57771">
        <ele>1475.5</ele>
        <time>2013-02-10T10:31:54Z</time>
      </trkpt>
      <trkpt lat="45.17403" lon="5.5777">
        <ele>1475.9</ele>
        <time>2013-02-10T10:31:55Z</time>
      </trkpt>
      <trkpt lat="45.17412" lon="5.57751">
        <ele>1479.5</ele>
        <time>2013-02-10T10:32:17Z</time>
      </trkpt>
      <trkpt lat="45.17416" lon="5.5774">
        <ele>1481.8</ele>
        <time>2013-02-10T10:32:33Z</time>
      </trkpt>
      <trkpt lat="45.17419" lon="5.57728">
        <ele>1482.9</ele>
        <time>2013-02-10T10:32:42Z</time>
      </trkpt>
      <trkpt lat="45.17421" lon="5.57717">
        <ele>1484.7</ele>
        <time>2013-02-10T10:32:51Z</time>
      </trkpt>
      <trkpt lat="45.17423" lon="5.57705">
        <ele>1486.1</ele>
        <time>2013-02-10T10:33:01Z</time>
      </trkpt>
      <trkpt lat="45.17424" lon="5.57704">
        <ele>1486.4</ele>
        <time>2013-02-10T10:33:02Z</time>
      </trkpt>
      <trkpt lat="45.17427" lon="5.57681">
        <ele>1490.8</ele>
        <time>2013-02-10T10:33:22Z</time>
      </trkpt>
      <trkpt lat="45.1743" lon="5.57669">
        <ele>1493.1</ele>
        <time>2013-02-10T10:33:33Z</time>
      </trkpt>
      <trkpt lat="45.17432" lon="5.57657">
        <ele>1497.5</ele>
        <time>2013-02-10T10:33:46Z</time>
      </trkpt>
      <trkpt lat="45.17436" lon="5.57646">
        <ele>1498.4</ele>
        <time>2013-02-10T10:33:58Z</time>
      </trkpt>
      <trkpt lat="45.1744" lon="5.57636">
        <ele>1503.2</ele>
        <time>2013-02-10T10:34:11Z</time>
      </trkpt>
      <trkpt lat="45.1744" lon="5.57635">
        <ele>1503.2</ele>
        <time>2013-02-10T10:34:12Z</time>
      </trkpt>
      <trkpt lat="45.17451" lon="5.57619">
        <ele>1509.1</ele>
        <time>2013-02-10T10:34:39Z</time>
      </trkpt>
      <trkpt lat="45.17457" lon="5.57629">
        <ele>1512.3</ele>
        <time>2013-02-10T10:34:52Z</time>
      </trkpt>
      <trkpt lat="45.17458" lon="5.57641">
        <ele>1514.6</ele>
        <time>2013-02-10T10:35:07Z</time>
      </trkpt>
      <trkpt lat="45.17461" lon="5.57653">
        <ele>1517.4</ele>
        <time>2013-02-10T10:35:20Z</time>
      </trkpt>
      <trkpt lat="45.17461" lon="5.57654">
        <ele>1517.3</ele>
        <time>2013-02-10T10:35:21Z</time>
      </trkpt>
      <trkpt lat="45.17465" lon="5.57677">
        <ele>1522</ele>
        <time>2013-02-10T10:35:43Z</time>
      </trkpt>
      <trkpt lat="45.17467" lon="5.57689">
        <ele>1523.5</ele>
        <time>2013-02-10T10:35:55Z</time>
      </trkpt>
      <trkpt lat="45.17469" lon="5.57701">
        <ele>1527.3</ele>
        <time>2013-02-10T10:36:47Z</time>
      </trkpt>
      <trkpt lat="45.17469" lon="5.57702">
        <ele>1527.3</ele>
        <time>2013-02-10T10:36:48Z</time>
      </trkpt>
      <trkpt lat="45.17473" lon="5.57714">
        <ele>1531.9</ele>
        <time>2013-02-10T10:41:01Z</time>
      </trkpt>
      <trkpt lat="45.17481" lon="5.57734">
        <ele>1536.8</ele>
        <time>2013-02-10T10:41:43Z</time>
      </trkpt>
      <trkpt lat="45.17485" lon="5.57745">
        <ele>1539.9</ele>
        <time>2013-02-10T10:42:31Z</time>
      </trkpt>
      <trkpt lat="45.17485" lon="5.57745">
        <ele>1539.8</ele>
        <time>2013-02-10T10:42:32Z</time>
      </trkpt>
      <trkpt lat="45.17493" lon="5.57753">
        <ele>1543.1</ele>
        <time>2013-02-10T10:44:36Z</time>
      </trkpt>
      <trkpt lat="45.17495" lon="5.57777">
        <ele>1549.7</ele>
        <time>2013-02-10T10:45:46Z</time>
      </trkpt>
      <trkpt lat="45.17494" lon="5.57777">
        <ele>1550</ele>
        <time>2013-02-10T10:45:47Z</time>
      </trkpt>
      <trkpt lat="45.175" lon="5.578">
        <ele>1556.2</ele>
        <time>2013-02-10T10:46:45Z</time>
      </trkpt>
      <trkpt lat="45.17498" lon="5.57812">
        <ele>1559.2</ele>
        <time>2013-02-10T10:47:11Z</time>
      </trkpt>
      <trkpt lat="45.17498" lon="5.57813">
        <ele>1559.1</ele>
        <time>2013-02-10T10:47:12Z</time>
      </trkpt>
      <trkpt lat="45.17502" lon="5.57836">
        <ele>1564.4</ele>
        <time>2013-02-10T10:48:10Z</time>
      </trkpt>
      <trkpt lat="45.17504" lon="5.57849">
        <ele>1567.9</ele>
        <time>2013-02-10T10:49:16Z</time>
      </trkpt>
      <trkpt lat="45.17504" lon="5.57849">
        <ele>1568.1</ele>
        <time>2013-02-10T10:49:17Z</time>
      </trkpt>
      <trkpt lat="45.1749" lon="5.57864">
        <ele>1573.1</ele>
        <time>2013-02-10T10:51:53Z</time>
      </trkpt>
      <trkpt lat="45.1749" lon="5.57865">
        <ele>1573</ele>
        <time>2013-02-10T10:51:54Z</time>
      </trkpt>
      <trkpt lat="45.1749" lon="5.57878">
        <ele>1574.2</ele>
        <time>2013-02-10T10:53:11Z</time>
      </trkpt>
      <trkpt lat="45.17494" lon="5.57901">
        <ele>1580</ele>
        <time>2013-02-10T10:53:45Z</time>
      </trkpt>
      <trkpt lat="45.17493" lon="5.5791">
        <ele>1584.1</ele>
        <time>2013-02-10T10:55:06Z</time>
      </trkpt>
      <trkpt lat="45.17491" lon="5.57922">
        <ele>1585.1</ele>
        <time>2013-02-10T10:56:10Z</time>
      </trkpt>
      <trkpt lat="45.17491" lon="5.57922">
        <ele>1584.7</ele>
        <time>2013-02-10T10:56:11Z</time>
      </trkpt>
      <trkpt lat="45.1749" lon="5.57946">
        <ele>1590.3</ele>
        <time>2013-02-10T10:56:53Z</time>
      </trkpt>
      <trkpt lat="45.17492" lon="5.57958">
        <ele>1592.2</ele>
        <time>2013-02-10T10:57:06Z</time>
      </trkpt>
      <trkpt lat="45.17494" lon="5.5797">
        <ele>1594.5</ele>
        <time>2013-02-10T10:57:17Z</time>
      </trkpt>
      <trkpt lat="45.17494" lon="5.57971">
        <ele>1594.6</ele>
        <time>2013-02-10T10:57:18Z</time>
      </trkpt>
      <trkpt lat="45.17496" lon="5.57994">
        <ele>1598.7</ele>
        <time>2013-02-10T10:57:41Z</time>
      </trkpt>
      <trkpt lat="45.17496" lon="5.58006">
        <ele>1599.9</ele>
        <time>2013-02-10T10:57:54Z</time>
      </trkpt>
      <trkpt lat="45.17496" lon="5.58018">
        <ele>1603.2</ele>
        <time>2013-02-10T10:58:07Z</time>
      </trkpt>
      <trkpt lat="45.17493" lon="5.58031">
        <ele>1605.6</ele>
        <time>2013-02-10T10:58:21Z</time>
      </trkpt>
      <trkpt lat="45.17493" lon="5.58032">
        <ele>1605.8</ele>
        <time>2013-02-10T10:58:22Z</time>
      </trkpt>
      <trkpt lat="45.17489" lon="5.58054">
        <ele>1609.8</ele>
        <time>2013-02-10T10:58:46Z</time>
      </trkpt>
      <trkpt lat="45.17486" lon="5.58065">
        <ele>1611.6</ele>
        <time>2013-02-10T10:58:57Z</time>
      </trkpt>
      <trkpt lat="45.17483" lon="5.58077">
        <ele>1613.7</ele>
        <time>2013-02-10T10:59:10Z</time>
      </trkpt>
      <trkpt lat="45.1748" lon="5.58088">
        <ele>1616.3</ele>
        <time>2013-02-10T10:59:22Z</time>
      </trkpt>
      <trkpt lat="45.1748" lon="5.5809">
        <ele>1616.4</ele>
        <time>2013-02-10T10:59:23Z</time>
      </trkpt>
      <trkpt lat="45.17478" lon="5.58113">
        <ele>1621.9</ele>
        <time>2013-02-10T10:59:47Z</time>
      </trkpt>
      <trkpt lat="45.17474" lon="5.58123">
        <ele>1623.1</ele>
        <time>2013-02-10T11:00:02Z</time>
      </trkpt>
      <trkpt lat="45.1747" lon="5.58134">
        <ele>1625</ele>
        <time>2013-02-10T11:00:17Z</time>
      </trkpt>
      <trkpt lat="45.17465" lon="5.58144">
        <ele>1626.6</ele>
        <time>2013-02-10T11:00:29Z</time>
      </trkpt>
      <trkpt lat="45.17465" lon="5.58145">
        <ele>1626.8</ele>
        <time>2013-02-10T11:00:30Z</time>
      </trkpt>
      <trkpt lat="45.17454" lon="5.58163">
        <ele>1629.6</ele>
        <time>2013-02-10T11:00:59Z</time>
      </trkpt>
      <trkpt lat="45.17449" lon="5.58172">
        <ele>1630.4</ele>
        <time>2013-02-10T11:01:10Z</time>
      </trkpt>
      <trkpt lat="45.17444" lon="5.58181">
        <ele>1633</ele>
        <time>2013-02-10T11:01:20Z</time>
      </trkpt>
      <trkpt lat="45.17438" lon="5.58191">
        <ele>1634.1</ele>
        <time>2013-02-10T11:01:58Z</time>
      </trkpt>
      <trkpt lat="45.17438" lon="5.58192">
        <ele>1634</ele>
        <time>2013-02-10T11:01:59Z</time>
      </trkpt>
      <trkpt lat="45.17427" lon="5.58208">
        <ele>1636.2</ele>
        <time>2013-02-10T11:02:39Z</time>
      </trkpt>
      <trkpt lat="45.17422" lon="5.58217">
        <ele>1638.2</ele>
        <time>2013-02-10T11:02:48Z</time>
      </trkpt>
      <trkpt lat="45.17416" lon="5.58227">
        <ele>1639.7</ele>
        <time>2013-02-10T11:02:59Z</time>
      </trkpt>
      <trkpt lat="45.17415" lon="5.58228">
        <ele>1639.9</ele>
        <time>2013-02-10T11:03:00Z</time>
      </trkpt>
      <trkpt lat="45.17405" lon="5.58245">
        <ele>1643.8</ele>
        <time>2013-02-10T11:03:21Z</time>
      </trkpt>
      <trkpt lat="45.17401" lon="5.58256">
        <ele>1645</ele>
        <time>2013-02-10T11:03:32Z</time>
      </trkpt>
      <trkpt lat="45.17397" lon="5.58268">
        <ele>1647.2</ele>
        <time>2013-02-10T11:03:46Z</time>
      </trkpt>
      <trkpt lat="45.17392" lon="5.58277">
        <ele>1648</ele>
        <time>2013-02-10T11:03:57Z</time>
      </trkpt>
      <trkpt lat="45.17386" lon="5.58286">
        <ele>1649.8</ele>
        <time>2013-02-10T11:04:08Z</time>
      </trkpt>
      <trkpt lat="45.17385" lon="5.58287">
        <ele>1650.1</ele>
        <time>2013-02-10T11:04:09Z</time>
      </trkpt>
      <trkpt lat="45.17376" lon="5.58304">
        <ele>1651.2</ele>
        <time>2013-02-10T11:04:31Z</time>
      </trkpt>
      <trkpt lat="45.17369" lon="5.58312">
        <ele>1652.2</ele>
        <time>2013-02-10T11:04:40Z</time>
      </trkpt>
      <trkpt lat="45.17363" lon="5.5832">
        <ele>1651.9</ele>
        <time>2013-02-10T11:04:49Z</time>
      </trkpt>
      <trkpt lat="45.17356" lon="5.58328">
        <ele>1651</ele>
        <time>2013-02-10T11:04:58Z</time>
      </trkpt>
      <trkpt lat="45.17349" lon="5.58333">
        <ele>1650.5</ele>
        <time>2013-02-10T11:05:06Z</time>
      </trkpt>
      <trkpt lat="45.17341" lon="5.58339">
        <ele>1650.3</ele>
        <time>2013-02-10T11:05:15Z</time>
      </trkpt>
      <trkpt lat="45.1734" lon="5.58339">
        <ele>1650.2</ele>
        <time>2013-02-10T11:05:16Z</time>
      </trkpt>
      <trkpt lat="45.17327" lon="5.58353">
        <ele>1650.1</ele>
        <time>2013-02-10T11:05:36Z</time>
      </trkpt>
      <trkpt lat="45.1732" lon="5.5836">
        <ele>1650.6</ele>
        <time>2013-02-10T11:05:47Z</time>
      </trkpt>
      <trkpt lat="45.17313" lon="5.58367">
        <ele>1649.6</ele>
        <time>2013-02-10T11:05:56Z</time>
      </trkpt>
      <trkpt lat="45.17306" lon="5.58374">
        <ele>1649</ele>
        <time>2013-02-10T11:06:05Z</time>
      </trkpt>
      <trkpt lat="45.17299" lon="5.58381">
        <ele>1649.4</ele>
        <time>2013-02-10T11:06:16Z</time>
      </trkpt>
      <trkpt lat="45.17299" lon="5.58382">
        <ele>1649.5</ele>
        <time>2013-02-10T11:06:17Z</time>
      </trkpt>
      <trkpt lat="45.17286" lon="5.58396">
        <ele>1649.2</ele>
        <time>2013-02-10T11:06:47Z</time>
      </trkpt>
      <trkpt lat="45.17295" lon="5.58398">
        <ele>1650.8</ele>
        <time>2013-02-10T11:10:23Z</time>
      </trkpt>
      <trkpt lat="45.17295" lon="5.58398">
        <ele>1650.8</ele>
        <time>2013-02-10T11:10:24Z</time>
      </trkpt>
      <trkpt lat="45.17294" lon="5.58389">
        <ele>1650.7</ele>
        <time>2013-02-10T11:11:59Z</time>
      </trkpt>
      <trkpt lat="45.17293" lon="5.5839">
        <ele>1650.7</ele>
        <time>2013-02-10T11:12:00Z</time>
      </trkpt>
      <trkpt lat="45.17277" lon="5.58393">
        <ele>1649.4</ele>
        <time>2013-02-10T11:12:13Z</time>
      </trkpt>
      <trkpt lat="45.17269" lon="5.58393">
        <ele>1648.9</ele>
        <time>2013-02-10T11:12:20Z</time>
      </trkpt>
      <trkpt lat="45.17261" lon="5.58394">
        <ele>1648.9</ele>
        <time>2013-02-10T11:12:28Z</time>
      </trkpt>
      <trkpt lat="45.17252" lon="5.58395">
        <ele>1649.4</ele>
        <time>2013-02-10T11:12:39Z</time>
      </trkpt>
      <trkpt lat="45.17243" lon="5.58394">
        <ele>1646.8</ele>
        <time>2013-02-10T11:18:49Z</time>
      </trkpt>
      <trkpt lat="45.17243" lon="5.58394">
        <ele>1646.9</ele>
        <time>2013-02-10T11:18:50Z</time>
      </trkpt>
      <trkpt lat="45.17227" lon="5.58388">
        <ele>1645.4</ele>
        <time>2013-02-10T11:18:59Z</time>
      </trkpt>
      <trkpt lat="45.17219" lon="5.58385">
        <ele>1642.4</ele>
        <time>2013-02-10T11:19:02Z</time>
      </trkpt>
      <trkpt lat="45.1721" lon="5.58384">
        <ele>1641.2</ele>
        <time>2013-02-10T11:19:05Z</time>
      </trkpt>
      <trkpt lat="45.17203" lon="5.58389">
        <ele>1640</ele>
        <time>2013-02-10T11:19:09Z</time>
      </trkpt>
      <trkpt lat="45.17194" lon="5.58391">
        <ele>1639.1</ele>
        <time>2013-02-10T11:19:14Z</time>
      </trkpt>
      <trkpt lat="45.17185" lon="5.58393">
        <ele>1637.7</ele>
        <time>2013-02-10T11:19:21Z</time>
      </trkpt>
      <trkpt lat="45.1718" lon="5.58395">
        <ele>1637.4</ele>
        <time>2013-02-10T11:19:23Z</time>
      </trkpt>
      <trkpt lat="45.17171" lon="5.58393">
        <ele>1635.8</ele>
        <time>2013-02-10T11:19:25Z</time>
      </trkpt>
      <trkpt lat="45.17165" lon="5.5839">
        <ele>1634.1</ele>
        <time>2013-02-10T11:19:27Z</time>
      </trkpt>
      <trkpt lat="45.17158" lon="5.58385">
        <ele>1632.8</ele>
        <time>2013-02-10T11:19:29Z</time>
      </trkpt>
      <trkpt lat="45.17149" lon="5.58382">
        <ele>1629.2</ele>
        <time>2013-02-10T11:19:46Z</time>
      </trkpt>
      <trkpt lat="45.17141" lon="5.5838">
        <ele>1629</ele>
        <time>2013-02-10T11:19:50Z</time>
      </trkpt>
      <trkpt lat="45.17139" lon="5.5838">
        <ele>1628.9</ele>
        <time>2013-02-10T11:19:51Z</time>
      </trkpt>
      <trkpt lat="45.17124" lon="5.58377">
        <ele>1628.6</ele>
        <time>2013-02-10T11:20:12Z</time>
      </trkpt>
      <trkpt lat="45.17116" lon="5.58378">
        <ele>1628</ele>
        <time>2013-02-10T11:20:23Z</time>
      </trkpt>
      <trkpt lat="45.17108" lon="5.58379">
        <ele>1626.8</ele>
        <time>2013-02-10T11:20:26Z</time>
      </trkpt>
      <trkpt lat="45.171" lon="5.58381">
        <ele>1625.4</ele>
        <time>2013-02-10T11:20:29Z</time>
      </trkpt>
      <trkpt lat="45.17094" lon="5.58384">
        <ele>1623.5</ele>
        <time>2013-02-10T11:20:31Z</time>
      </trkpt>
      <trkpt lat="45.17086" lon="5.58389">
        <ele>1621.2</ele>
        <time>2013-02-10T11:20:34Z</time>
      </trkpt>
      <trkpt lat="45.1708" lon="5.58394">
        <ele>1618.2</ele>
        <time>2013-02-10T11:20:37Z</time>
      </trkpt>
      <trkpt lat="45.17079" lon="5.58406">
        <ele>1612.6</ele>
        <time>2013-02-10T11:20:45Z</time>
      </trkpt>
      <trkpt lat="45.17082" lon="5.58418">
        <ele>1607.1</ele>
        <time>2013-02-10T11:20:50Z</time>
      </trkpt>
      <trkpt lat="45.17076" lon="5.58427">
        <ele>1603.7</ele>
        <time>2013-02-10T11:20:53Z</time>
      </trkpt>
      <trkpt lat="45.17074" lon="5.58432">
        <ele>1601.8</ele>
        <time>2013-02-10T11:20:54Z</time>
      </trkpt>
      <trkpt lat="45.17072" lon="5.58448">
        <ele>1596.3</ele>
        <time>2013-02-10T11:20:57Z</time>
      </trkpt>
      <trkpt lat="45.17072" lon="5.58458">
        <ele>1593</ele>
        <time>2013-02-10T11:20:59Z</time>
      </trkpt>
      <trkpt lat="45.1707" lon="5.5847">
        <ele>1587.6</ele>
        <time>2013-02-10T11:21:02Z</time>
      </trkpt>
      <trkpt lat="45.17065" lon="5.58476">
        <ele>1584.9</ele>
        <time>2013-02-10T11:21:04Z</time>
      </trkpt>
      <trkpt lat="45.1706" lon="5.58481">
        <ele>1582.5</ele>
        <time>2013-02-10T11:21:06Z</time>
      </trkpt>
      <trkpt lat="45.17056" lon="5.5849">
        <ele>1580.3</ele>
        <time>2013-02-10T11:21:08Z</time>
      </trkpt>
      <trkpt lat="45.17055" lon="5.58502">
        <ele>1578.7</ele>
        <time>2013-02-10T11:21:10Z</time>
      </trkpt>
      <trkpt lat="45.17054" lon="5.58512">
        <ele>1575.9</ele>
        <time>2013-02-10T11:21:12Z</time>
      </trkpt>
      <trkpt lat="45.17051" lon="5.58519">
        <ele>1572.5</ele>
        <time>2013-02-10T11:21:14Z</time>
      </trkpt>
      <trkpt lat="45.1705" lon="5.58526">
        <ele>1570</ele>
        <time>2013-02-10T11:21:15Z</time>
      </trkpt>
      <trkpt lat="45.17048" lon="5.58535">
        <ele>1568.2</ele>
        <time>2013-02-10T11:21:16Z</time>
      </trkpt>
      <trkpt lat="45.17046" lon="5.58544">
        <ele>1566.8</ele>
        <time>2013-02-10T11:21:17Z</time>
      </trkpt>
      <trkpt lat="45.17045" lon="5.58553">
        <ele>1564.6</ele>
        <time>2013-02-10T11:21:18Z</time>
      </trkpt>
      <trkpt lat="45.17043" lon="5.58561">
        <ele>1562.9</ele>
        <time>2013-02-10T11:21:19Z</time>
      </trkpt>
      <trkpt lat="45.17042" lon="5.58568">
        <ele>1561.9</ele>
        <time>2013-02-10T11:21:20Z</time>
      </trkpt>
      <trkpt lat="45.17038" lon="5.58577">
        <ele>1560.7</ele>
        <time>2013-02-10T11:21:22Z</time>
      </trkpt>
      <trkpt lat="45.17034" lon="5.58586">
        <ele>1559.9</ele>
        <time>2013-02-10T11:21:25Z</time>
      </trkpt>
      <trkpt lat="45.1703" lon="5.58596">
        <ele>1558.9</ele>
        <time>2013-02-10T11:21:27Z</time>
      </trkpt>
      <trkpt lat="45.17027" lon="5.58606">
        <ele>1558</ele>
        <time>2013-02-10T11:21:29Z</time>
      </trkpt>
      <trkpt lat="45.17026" lon="5.58618">
        <ele>1556.6</ele>
        <time>2013-02-10T11:21:41Z</time>
      </trkpt>
      <trkpt lat="45.17024" lon="5.5863">
        <ele>1556.6</ele>
        <time>2013-02-10T11:22:06Z</time>
      </trkpt>
      <trkpt lat="45.17024" lon="5.58631">
        <ele>1556.9</ele>
        <time>2013-02-10T11:22:07Z</time>
      </trkpt>
      <trkpt lat="45.1704" lon="5.58627">
        <ele>1556.6</ele>
        <time>2013-02-10T11:22:28Z</time>
      </trkpt>
      <trkpt lat="45.17048" lon="5.58626">
        <ele>1556.6</ele>
        <time>2013-02-10T11:22:35Z</time>
      </trkpt>
      <trkpt lat="45.17057" lon="5.58624">
        <ele>1556.4</ele>
        <time>2013-02-10T11:22:43Z</time>
      </trkpt>
      <trkpt lat="45.17065" lon="5.58622">
        <ele>1556.1</ele>
        <time>2013-02-10T11:22:55Z</time>
      </trkpt>
      <trkpt lat="45.17074" lon="5.58618">
        <ele>1556.6</ele>
        <time>2013-02-10T11:23:06Z</time>
      </trkpt>
      <trkpt lat="45.17082" lon="5.58614">
        <ele>1556.6</ele>
        <time>2013-02-10T11:23:18Z</time>
      </trkpt>
      <trkpt lat="45.17083" lon="5.58613">
        <ele>1556.5</ele>
        <time>2013-02-10T11:23:19Z</time>
      </trkpt>
      <trkpt lat="45.17098" lon="5.58604">
        <ele>1556.9</ele>
        <time>2013-02-10T11:26:21Z</time>
      </trkpt>
      <trkpt lat="45.17099" lon="5.58605">
        <ele>1557</ele>
        <time>2013-02-10T11:26:22Z</time>
      </trkpt>
      <trkpt lat="45.17114" lon="5.58614">
        <ele>1562</ele>
        <time>2013-02-10T11:26:48Z</time>
      </trkpt>
      <trkpt lat="45.17122" lon="5.58614">
        <ele>1563.7</ele>
        <time>2013-02-10T11:27:00Z</time>
      </trkpt>
      <trkpt lat="45.1713" lon="5.58615">
        <ele>1565.3</ele>
        <time>2013-02-10T11:27:11Z</time>
      </trkpt>
      <trkpt lat="45.17138" lon="5.5861">
        <ele>1566.4</ele>
        <time>2013-02-10T11:27:20Z</time>
      </trkpt>
      <trkpt lat="45.17147" lon="5.58607">
        <ele>1566.4</ele>
        <time>2013-02-10T11:27:28Z</time>
      </trkpt>
      <trkpt lat="45.17148" lon="5.58606">
        <ele>1566.3</ele>
        <time>2013-02-10T11:27:29Z</time>
      </trkpt>
      <trkpt lat="45.17164" lon="5.58599">
        <ele>1568.1</ele>
        <time>2013-02-10T11:27:47Z</time>
      </trkpt>
      <trkpt lat="45.17172" lon="5.58597">
        <ele>1570.4</ele>
        <time>2013-02-10T11:27:58Z</time>
      </trkpt>
      <trkpt lat="45.1718" lon="5.58597">
        <ele>1571.8</ele>
        <time>2013-02-10T11:28:07Z</time>
      </trkpt>
      <trkpt lat="45.17189" lon="5.58598">
        <ele>1573.5</ele>
        <time>2013-02-10T11:28:16Z</time>
      </trkpt>
      <trkpt lat="45.17198" lon="5.58599">
        <ele>1573.4</ele>
        <time>2013-02-10T11:28:24Z</time>
      </trkpt>
      <trkpt lat="45.17206" lon="5.58599">
        <ele>1574.2</ele>
        <time>2013-02-10T11:28:36Z</time>
      </trkpt>
      <trkpt lat="45.17207" lon="5.58599">
        <ele>1574.4</ele>
        <time>2013-02-10T11:28:37Z</time>
      </trkpt>
      <trkpt lat="45.17223" lon="5.58602">
        <ele>1576.9</ele>
        <time>2013-02-10T11:29:03Z</time>
      </trkpt>
      <trkpt lat="45.17231" lon="5.58606">
        <ele>1579.1</ele>
        <time>2013-02-10T11:29:13Z</time>
      </trkpt>
      <trkpt lat="45.17239" lon="5.58612">
        <ele>1580</ele>
        <time>2013-02-10T11:29:23Z</time>
      </trkpt>
      <trkpt lat="45.17248" lon="5.58615">
        <ele>1580.8</ele>
        <time>2013-02-10T11:29:33Z</time>
      </trkpt>
      <trkpt lat="45.17256" lon="5.58618">
        <ele>1582.5</ele>
        <time>2013-02-10T11:29:43Z</time>
      </trkpt>
      <trkpt lat="45.17257" lon="5.58619">
        <ele>1582.8</ele>
        <time>2013-02-10T11:29:44Z</time>
      </trkpt>
      <trkpt lat="45.17271" lon="5.58628">
        <ele>1583.9</ele>
        <time>2013-02-10T11:30:06Z</time>
      </trkpt>
      <trkpt lat="45.17279" lon="5.58634">
        <ele>1584.3</ele>
        <time>2013-02-10T11:30:15Z</time>
      </trkpt>
      <trkpt lat="45.17286" lon="5.58639">
        <ele>1584.7</ele>
        <time>2013-02-10T11:30:23Z</time>
      </trkpt>
      <trkpt lat="45.17293" lon="5.58644">
        <ele>1584.3</ele>
        <time>2013-02-10T11:30:31Z</time>
      </trkpt>
      <trkpt lat="45.17301" lon="5.58649">
        <ele>1584.9</ele>
        <time>2013-02-10T11:30:39Z</time>
      </trkpt>
      <trkpt lat="45.17308" lon="5.58654">
        <ele>1585.1</ele>
        <time>2013-02-10T11:30:47Z</time>
      </trkpt>
      <trkpt lat="45.17309" lon="5.58655">
        <ele>1585.1</ele>
        <time>2013-02-10T11:30:48Z</time>
      </trkpt>
      <trkpt lat="45.17324" lon="5.58666">
        <ele>1584</ele>
        <time>2013-02-10T11:31:02Z</time>
      </trkpt>
      <trkpt lat="45.17331" lon="5.58671">
        <ele>1583.7</ele>
        <time>2013-02-10T11:31:09Z</time>
      </trkpt>
      <trkpt lat="45.17339" lon="5.58675">
        <ele>1583.8</ele>
        <time>2013-02-10T11:31:17Z</time>
      </trkpt>
      <trkpt lat="45.17347" lon="5.5868">
        <ele>1583.7</ele>
        <time>2013-02-10T11:31:25Z</time>
      </trkpt>
      <trkpt lat="45.17355" lon="5.58684">
        <ele>1583.1</ele>
        <time>2013-02-10T11:31:33Z</time>
      </trkpt>
      <trkpt lat="45.17363" lon="5.58688">
        <ele>1583.7</ele>
        <time>2013-02-10T11:31:41Z</time>
      </trkpt>
      <trkpt lat="45.17369" lon="5.58693">
        <ele>1583.4</ele>
        <time>2013-02-10T11:31:46Z</time>
      </trkpt>
      <trkpt lat="45.17376" lon="5.587">
        <ele>1582.6</ele>
        <time>2013-02-10T11:31:51Z</time>
      </trkpt>
      <trkpt lat="45.17378" lon="5.58701">
        <ele>1582.5</ele>
        <time>2013-02-10T11:31:52Z</time>
      </trkpt>
      <trkpt lat="45.1739" lon="5.58713">
        <ele>1580</ele>
        <time>2013-02-10T11:32:03Z</time>
      </trkpt>
      <trkpt lat="45.17397" lon="5.58719">
        <ele>1580</ele>
        <time>2013-02-10T11:32:09Z</time>
      </trkpt>
      <trkpt lat="45.17403" lon="5.58725">
        <ele>1579.1</ele>
        <time>2013-02-10T11:32:15Z</time>
      </trkpt>
      <trkpt lat="45.1741" lon="5.58732">
        <ele>1579.3</ele>
        <time>2013-02-10T11:32:21Z</time>
      </trkpt>
      <trkpt lat="45.17416" lon="5.58738">
        <ele>1578</ele>
        <time>2013-02-10T11:32:27Z</time>
      </trkpt>
      <trkpt lat="45.17423" lon="5.58745">
        <ele>1578.6</ele>
        <time>2013-02-10T11:32:33Z</time>
      </trkpt>
      <trkpt lat="45.1743" lon="5.58752">
        <ele>1578</ele>
        <time>2013-02-10T11:32:40Z</time>
      </trkpt>
      <trkpt lat="45.17436" lon="5.58759">
        <ele>1578.7</ele>
        <time>2013-02-10T11:32:47Z</time>
      </trkpt>
      <trkpt lat="45.17443" lon="5.58767">
        <ele>1578.8</ele>
        <time>2013-02-10T11:32:54Z</time>
      </trkpt>
      <trkpt lat="45.17444" lon="5.58768">
        <ele>1578.9</ele>
        <time>2013-02-10T11:32:55Z</time>
      </trkpt>
      <trkpt lat="45.17456" lon="5.58781">
        <ele>1578.8</ele>
        <time>2013-02-10T11:33:08Z</time>
      </trkpt>
      <trkpt lat="45.17463" lon="5.58789">
        <ele>1579.1</ele>
        <time>2013-02-10T11:33:15Z</time>
      </trkpt>
      <trkpt lat="45.17468" lon="5.58797">
        <ele>1579.3</ele>
        <time>2013-02-10T11:33:21Z</time>
      </trkpt>
      <trkpt lat="45.17473" lon="5.58805">
        <ele>1578.4</ele>
        <time>2013-02-10T11:33:26Z</time>
      </trkpt>
      <trkpt lat="45.17477" lon="5.58815">
        <ele>1577.6</ele>
        <time>2013-02-10T11:33:32Z</time>
      </trkpt>
      <trkpt lat="45.17482" lon="5.58825">
        <ele>1577</ele>
        <time>2013-02-10T11:33:38Z</time>
      </trkpt>
      <trkpt lat="45.17488" lon="5.58833">
        <ele>1576.6</ele>
        <time>2013-02-10T11:33:43Z</time>
      </trkpt>
      <trkpt lat="45.17495" lon="5.58839">
        <ele>1575.9</ele>
        <time>2013-02-10T11:33:48Z</time>
      </trkpt>
      <trkpt lat="45.17501" lon="5.58846">
        <ele>1574.8</ele>
        <time>2013-02-10T11:33:53Z</time>
      </trkpt>
      <trkpt lat="45.17508" lon="5.58852">
        <ele>1574.4</ele>
        <time>2013-02-10T11:33:59Z</time>
      </trkpt>
      <trkpt lat="45.17509" lon="5.58853">
        <ele>1574</ele>
        <time>2013-02-10T11:34:00Z</time>
      </trkpt>
      <trkpt lat="45.17523" lon="5.58864">
        <ele>1572.8</ele>
        <time>2013-02-10T11:34:12Z</time>
      </trkpt>
      <trkpt lat="45.1753" lon="5.5887">
        <ele>1572.6</ele>
        <time>2013-02-10T11:34:18Z</time>
      </trkpt>
      <trkpt lat="45.17537" lon="5.58875">
        <ele>1572.9</ele>
        <time>2013-02-10T11:34:23Z</time>
      </trkpt>
      <trkpt lat="45.17544" lon="5.58881">
        <ele>1572.7</ele>
        <time>2013-02-10T11:34:29Z</time>
      </trkpt>
      <trkpt lat="45.17552" lon="5.58887">
        <ele>1571.7</ele>
        <time>2013-02-10T11:34:35Z</time>
      </trkpt>
      <trkpt lat="45.17559" lon="5.58892">
        <ele>1571.7</ele>
        <time>2013-02-10T11:34:41Z</time>
      </trkpt>
      <trkpt lat="45.17566" lon="5.58898">
        <ele>1572</ele>
        <time>2013-02-10T11:34:49Z</time>
      </trkpt>
      <trkpt lat="45.17574" lon="5.58903">
        <ele>1573.3</ele>
        <time>2013-02-10T11:34:57Z</time>
      </trkpt>
      <trkpt lat="45.17581" lon="5.58911">
        <ele>1572.9</ele>
        <time>2013-02-10T11:35:21Z</time>
      </trkpt>
      <trkpt lat="45.17581" lon="5.58912">
        <ele>1572.7</ele>
        <time>2013-02-10T11:35:22Z</time>
      </trkpt>
      <trkpt lat="45.17584" lon="5.58934">
        <ele>1572.7</ele>
        <time>2013-02-10T11:35:47Z</time>
      </trkpt>
      <trkpt lat="45.17586" lon="5.58945">
        <ele>1573.7</ele>
        <time>2013-02-10T11:35:57Z</time>
      </trkpt>
      <trkpt lat="45.17588" lon="5.58957">
        <ele>1573.4</ele>
        <time>2013-02-10T11:36:04Z</time>
      </trkpt>
      <trkpt lat="45.17588" lon="5.58968">
        <ele>1571.8</ele>
        <time>2013-02-10T11:36:09Z</time>
      </trkpt>
      <trkpt lat="45.17588" lon="5.5898">
        <ele>1571.1</ele>
        <time>2013-02-10T11:36:16Z</time>
      </trkpt>
      <trkpt lat="45.17586" lon="5.58991">
        <ele>1570.3</ele>
        <time>2013-02-10T11:36:23Z</time>
      </trkpt>
      <trkpt lat="45.17586" lon="5.58993">
        <ele>1570.1</ele>
        <time>2013-02-10T11:36:24Z</time>
      </trkpt>
      <trkpt lat="45.17576" lon="5.59012">
        <ele>1568</ele>
        <time>2013-02-10T11:36:42Z</time>
      </trkpt>
      <trkpt lat="45.17578" lon="5.59024">
        <ele>1567.4</ele>
        <time>2013-02-10T11:36:51Z</time>
      </trkpt>
      <trkpt lat="45.17581" lon="5.59035">
        <ele>1567.1</ele>
        <time>2013-02-10T11:36:59Z</time>
      </trkpt>
      <trkpt lat="45.17582" lon="5.59047">
        <ele>1566.7</ele>
        <time>2013-02-10T11:37:06Z</time>
      </trkpt>
      <trkpt lat="45.17584" lon="5.59058">
        <ele>1567.6</ele>
        <time>2013-02-10T11:37:17Z</time>
      </trkpt>
      <trkpt lat="45.17588" lon="5.59068">
        <ele>1567.1</ele>
        <time>2013-02-10T11:37:26Z</time>
      </trkpt>
      <trkpt lat="45.17589" lon="5.59069">
        <ele>1567.1</ele>
        <time>2013-02-10T11:37:27Z</time>
      </trkpt>
      <trkpt lat="45.17598" lon="5.59087">
        <ele>1567</ele>
        <time>2013-02-10T11:37:42Z</time>
      </trkpt>
      <trkpt lat="45.17603" lon="5.59095">
        <ele>1567.1</ele>
        <time>2013-02-10T11:37:49Z</time>
      </trkpt>
      <trkpt lat="45.17609" lon="5.59105">
        <ele>1566.7</ele>
        <time>2013-02-10T11:37:56Z</time>
      </trkpt>
      <trkpt lat="45.17615" lon="5.59113">
        <ele>1565.3</ele>
        <time>2013-02-10T11:38:03Z</time>
      </trkpt>
      <trkpt lat="45.1762" lon="5.59123">
        <ele>1564.5</ele>
        <time>2013-02-10T11:38:09Z</time>
      </trkpt>
      <trkpt lat="45.17624" lon="5.59133">
        <ele>1563.6</ele>
        <time>2013-02-10T11:38:15Z</time>
      </trkpt>
      <trkpt lat="45.17628" lon="5.59143">
        <ele>1563.6</ele>
        <time>2013-02-10T11:38:23Z</time>
      </trkpt>
      <trkpt lat="45.17631" lon="5.59155">
        <ele>1563.1</ele>
        <time>2013-02-10T11:38:32Z</time>
      </trkpt>
      <trkpt lat="45.17631" lon="5.59157">
        <ele>1563.3</ele>
        <time>2013-02-10T11:38:33Z</time>
      </trkpt>
      <trkpt lat="45.17631" lon="5.5918">
        <ele>1560.7</ele>
        <time>2013-02-10T11:38:50Z</time>
      </trkpt>
      <trkpt lat="45.17625" lon="5.59186">
        <ele>1558.8</ele>
        <time>2013-02-10T11:45:03Z</time>
      </trkpt>
      <trkpt lat="45.17624" lon="5.59188">
        <ele>1558.5</ele>
        <time>2013-02-10T11:45:04Z</time>
      </trkpt>
      <trkpt lat="45.17612" lon="5.59202">
        <ele>1554.5</ele>
        <time>2013-02-10T11:45:16Z</time>
      </trkpt>
      <trkpt lat="45.17605" lon="5.59208">
        <ele>1551.3</ele>
        <time>2013-02-10T11:45:26Z</time>
      </trkpt>
      <trkpt lat="45.17598" lon="5.5921">
        <ele>1549.6</ele>
        <time>2013-02-10T11:45:31Z</time>
      </trkpt>
      <trkpt lat="45.1759" lon="5.59213">
        <ele>1546.1</ele>
        <time>2013-02-10T11:45:41Z</time>
      </trkpt>
      <trkpt lat="45.17584" lon="5.59222">
        <ele>1538.6</ele>
        <time>2013-02-10T11:46:07Z</time>
      </trkpt>
      <trkpt lat="45.17582" lon="5.59224">
        <ele>1538.6</ele>
        <time>2013-02-10T11:46:08Z</time>
      </trkpt>
      <trkpt lat="45.1758" lon="5.59245">
        <ele>1526.3</ele>
        <time>2013-02-10T11:46:52Z</time>
      </trkpt>
      <trkpt lat="45.17573" lon="5.59253">
        <ele>1519.1</ele>
        <time>2013-02-10T11:47:20Z</time>
      </trkpt>
      <trkpt lat="45.17572" lon="5.59253">
        <ele>1518.8</ele>
        <time>2013-02-10T11:47:21Z</time>
      </trkpt>
      <trkpt lat="45.17573" lon="5.59277">
        <ele>1504.7</ele>
        <time>2013-02-10T11:48:01Z</time>
      </trkpt>
      <trkpt lat="45.17571" lon="5.59289">
        <ele>1496.3</ele>
        <time>2013-02-10T11:48:23Z</time>
      </trkpt>
      <trkpt lat="45.17571" lon="5.59291">
        <ele>1496.1</ele>
        <time>2013-02-10T11:48:24Z</time>
      </trkpt>
      <trkpt lat="45.1757" lon="5.5931">
        <ele>1490</ele>
        <time>2013-02-10T11:48:47Z</time>
      </trkpt>
      <trkpt lat="45.17562" lon="5.5931">
        <ele>1486.7</ele>
        <time>2013-02-10T11:48:59Z</time>
      </trkpt>
      <trkpt lat="45.17559" lon="5.59322">
        <ele>1480.6</ele>
        <time>2013-02-10T11:49:18Z</time>
      </trkpt>
      <trkpt lat="45.17557" lon="5.59334">
        <ele>1475</ele>
        <time>2013-02-10T11:49:30Z</time>
      </trkpt>
      <trkpt lat="45.17556" lon="5.59335">
        <ele>1474.3</ele>
        <time>2013-02-10T11:49:31Z</time>
      </trkpt>
      <trkpt lat="45.17552" lon="5.59358">
        <ele>1465.5</ele>
        <time>2013-02-10T11:49:45Z</time>
      </trkpt>
      <trkpt lat="45.17555" lon="5.59369">
        <ele>1462.3</ele>
        <time>2013-02-10T11:49:52Z</time>
      </trkpt>
      <trkpt lat="45.17549" lon="5.59378">
        <ele>1460.5</ele>
        <time>2013-02-10T11:49:57Z</time>
      </trkpt>
      <trkpt lat="45.17554" lon="5.59387">
        <ele>1457.4</ele>
        <time>2013-02-10T11:50:02Z</time>
      </trkpt>
      <trkpt lat="45.17552" lon="5.59399">
        <ele>1454.8</ele>
        <time>2013-02-10T11:50:09Z</time>
      </trkpt>
      <trkpt lat="45.17553" lon="5.59411">
        <ele>1452.3</ele>
        <time>2013-02-10T11:50:15Z</time>
      </trkpt>
      <trkpt lat="45.17554" lon="5.59424">
        <ele>1449.6</ele>
        <time>2013-02-10T11:50:25Z</time>
      </trkpt>
      <trkpt lat="45.17555" lon="5.59434">
        <ele>1449</ele>
        <time>2013-02-10T11:50:29Z</time>
      </trkpt>
      <trkpt lat="45.17558" lon="5.59444">
        <ele>1447.8</ele>
        <time>2013-02-10T11:50:31Z</time>
      </trkpt>
      <trkpt lat="45.17559" lon="5.5945">
        <ele>1447</ele>
        <time>2013-02-10T11:50:32Z</time>
      </trkpt>
      <trkpt lat="45.17567" lon="5.59466">
        <ele>1445.6</ele>
        <time>2013-02-10T11:50:36Z</time>
      </trkpt>
      <trkpt lat="45.1757" lon="5.59477">
        <ele>1446.7</ele>
        <time>2013-02-10T11:50:51Z</time>
      </trkpt>
      <trkpt lat="45.17572" lon="5.59489">
        <ele>1447.7</ele>
        <time>2013-02-10T11:51:06Z</time>
      </trkpt>
      <trkpt lat="45.17572" lon="5.59501">
        <ele>1447.8</ele>
        <time>2013-02-10T11:51:24Z</time>
      </trkpt>
      <trkpt lat="45.17567" lon="5.59511">
        <ele>1448.9</ele>
        <time>2013-02-10T11:51:40Z</time>
      </trkpt>
      <trkpt lat="45.17566" lon="5.59512">
        <ele>1448.6</ele>
        <time>2013-02-10T11:51:41Z</time>
      </trkpt>
      <trkpt lat="45.17556" lon="5.59531">
        <ele>1449.7</ele>
        <time>2013-02-10T11:52:12Z</time>
      </trkpt>
      <trkpt lat="45.17551" lon="5.5954">
        <ele>1450.2</ele>
        <time>2013-02-10T11:52:26Z</time>
      </trkpt>
      <trkpt lat="45.17543" lon="5.59546">
        <ele>1450.4</ele>
        <time>2013-02-10T11:52:34Z</time>
      </trkpt>
      <trkpt lat="45.17537" lon="5.59553">
        <ele>1449.6</ele>
        <time>2013-02-10T11:52:41Z</time>
      </trkpt>
      <trkpt lat="45.17536" lon="5.59554">
        <ele>1449.5</ele>
        <time>2013-02-10T11:52:42Z</time>
      </trkpt>
      <trkpt lat="45.17528" lon="5.59574">
        <ele>1450.1</ele>
        <time>2013-02-10T11:53:04Z</time>
      </trkpt>
      <trkpt lat="45.17523" lon="5.59584">
        <ele>1450.3</ele>
        <time>2013-02-10T11:53:15Z</time>
      </trkpt>
      <trkpt lat="45.17518" lon="5.59595">
        <ele>1451.2</ele>
        <time>2013-02-10T11:53:24Z</time>
      </trkpt>
      <trkpt lat="45.17514" lon="5.59603">
        <ele>1450.5</ele>
        <time>2013-02-10T11:53:28Z</time>
      </trkpt>
      <trkpt lat="45.17509" lon="5.5961">
        <ele>1448.9</ele>
        <time>2013-02-10T11:53:31Z</time>
      </trkpt>
      <trkpt lat="45.17503" lon="5.59618">
        <ele>1447.9</ele>
        <time>2013-02-10T11:53:34Z</time>
      </trkpt>
      <trkpt lat="45.17497" lon="5.59624">
        <ele>1446.9</ele>
        <time>2013-02-10T11:53:37Z</time>
      </trkpt>
      <trkpt lat="45.1749" lon="5.59627">
        <ele>1446.8</ele>
        <time>2013-02-10T11:53:41Z</time>
      </trkpt>
      <trkpt lat="45.17485" lon="5.59637">
        <ele>1446.5</ele>
        <time>2013-02-10T11:53:46Z</time>
      </trkpt>
      <trkpt lat="45.17484" lon="5.59637">
        <ele>1446.5</ele>
        <time>2013-02-10T11:53:47Z</time>
      </trkpt>
      <trkpt lat="45.17469" lon="5.59638">
        <ele>1446.3</ele>
        <time>2013-02-10T11:54:01Z</time>
      </trkpt>
      <trkpt lat="45.17461" lon="5.59637">
        <ele>1445.6</ele>
        <time>2013-02-10T11:54:08Z</time>
      </trkpt>
      <trkpt lat="45.17453" lon="5.59635">
        <ele>1445.1</ele>
        <time>2013-02-10T11:54:14Z</time>
      </trkpt>
      <trkpt lat="45.17445" lon="5.59638">
        <ele>1444</ele>
        <time>2013-02-10T11:54:18Z</time>
      </trkpt>
      <trkpt lat="45.17438" lon="5.59644">
        <ele>1443.1</ele>
        <time>2013-02-10T11:54:21Z</time>
      </trkpt>
      <trkpt lat="45.17431" lon="5.59649">
        <ele>1440.6</ele>
        <time>2013-02-10T11:54:23Z</time>
      </trkpt>
      <trkpt lat="45.17422" lon="5.59652">
        <ele>1438.8</ele>
        <time>2013-02-10T11:54:28Z</time>
      </trkpt>
      <trkpt lat="45.17424" lon="5.59663">
        <ele>1436.8</ele>
        <time>2013-02-10T11:54:59Z</time>
      </trkpt>
      <trkpt lat="45.17425" lon="5.59666">
        <ele>1436.6</ele>
        <time>2013-02-10T11:55:00Z</time>
      </trkpt>
      <trkpt lat="45.17424" lon="5.59685">
        <ele>1433.1</ele>
        <time>2013-02-10T11:55:05Z</time>
      </trkpt>
      <trkpt lat="45.17418" lon="5.59692">
        <ele>1429.4</ele>
        <time>2013-02-10T11:55:08Z</time>
      </trkpt>
      <trkpt lat="45.17414" lon="5.597">
        <ele>1427.2</ele>
        <time>2013-02-10T11:55:10Z</time>
      </trkpt>
      <trkpt lat="45.17417" lon="5.59711">
        <ele>1424.1</ele>
        <time>2013-02-10T11:55:13Z</time>
      </trkpt>
      <trkpt lat="45.17411" lon="5.5972">
        <ele>1421.1</ele>
        <time>2013-02-10T11:55:16Z</time>
      </trkpt>
      <trkpt lat="45.17405" lon="5.59726">
        <ele>1417.9</ele>
        <time>2013-02-10T11:55:19Z</time>
      </trkpt>
      <trkpt lat="45.17406" lon="5.59737">
        <ele>1413.8</ele>
        <time>2013-02-10T11:55:24Z</time>
      </trkpt>
      <trkpt lat="45.17409" lon="5.59748">
        <ele>1411.4</ele>
        <time>2013-02-10T11:55:27Z</time>
      </trkpt>
      <trkpt lat="45.17409" lon="5.59758">
        <ele>1409.9</ele>
        <time>2013-02-10T11:55:29Z</time>
      </trkpt>
      <trkpt lat="45.17409" lon="5.59766">
        <ele>1408.2</ele>
        <time>2013-02-10T11:55:31Z</time>
      </trkpt>
      <trkpt lat="45.17408" lon="5.59778">
        <ele>1405.6</ele>
        <time>2013-02-10T11:55:33Z</time>
      </trkpt>
      <trkpt lat="45.17407" lon="5.59784">
        <ele>1404.3</ele>
        <time>2013-02-10T11:55:34Z</time>
      </trkpt>
      <trkpt lat="45.17405" lon="5.59796">
        <ele>1401.6</ele>
        <time>2013-02-10T11:55:36Z</time>
      </trkpt>
      <trkpt lat="45.17407" lon="5.59807">
        <ele>1397</ele>
        <time>2013-02-10T11:55:39Z</time>
      </trkpt>
      <trkpt lat="45.17405" lon="5.59816">
        <ele>1394.2</ele>
        <time>2013-02-10T11:55:41Z</time>
      </trkpt>
      <trkpt lat="45.17402" lon="5.59826">
        <ele>1391.6</ele>
        <time>2013-02-10T11:55:43Z</time>
      </trkpt>
      <trkpt lat="45.17397" lon="5.59837">
        <ele>1388.5</ele>
        <time>2013-02-10T11:55:45Z</time>
      </trkpt>
      <trkpt lat="45.17394" lon="5.59847">
        <ele>1385.8</ele>
        <time>2013-02-10T11:55:47Z</time>
      </trkpt>
      <trkpt lat="45.17386" lon="5.59851">
        <ele>1381.6</ele>
        <time>2013-02-10T11:55:49Z</time>
      </trkpt>
      <trkpt lat="45.17378" lon="5.59854">
        <ele>1378.6</ele>
        <time>2013-02-10T11:55:51Z</time>
      </trkpt>
      <trkpt lat="45.17369" lon="5.59854">
        <ele>1375.7</ele>
        <time>2013-02-10T11:55:53Z</time>
      </trkpt>
      <trkpt lat="45.17361" lon="5.59854">
        <ele>1373.6</ele>
        <time>2013-02-10T11:55:55Z</time>
      </trkpt>
      <trkpt lat="45.17354" lon="5.59853">
        <ele>1372</ele>
        <time>2013-02-10T11:55:57Z</time>
      </trkpt>
      <trkpt lat="45.17347" lon="5.59852">
        <ele>1371</ele>
        <time>2013-02-10T11:55:59Z</time>
      </trkpt>
      <trkpt lat="45.17343" lon="5.59853">
        <ele>1370.7</ele>
        <time>2013-02-10T11:56:00Z</time>
      </trkpt>
      <trkpt lat="45.17338" lon="5.59855">
        <ele>1370.5</ele>
        <time>2013-02-10T11:56:01Z</time>
      </trkpt>
      <trkpt lat="45.17329" lon="5.59858">
        <ele>1367.8</ele>
        <time>2013-02-10T11:56:03Z</time>
      </trkpt>
      <trkpt lat="45.17325" lon="5.5986">
        <ele>1366</ele>
        <time>2013-02-10T11:56:04Z</time>
      </trkpt>
      <trkpt lat="45.17316" lon="5.59863">
        <ele>1362</ele>
        <time>2013-02-10T11:56:08Z</time>
      </trkpt>
      <trkpt lat="45.17316" lon="5.59874">
        <ele>1358.2</ele>
        <time>2013-02-10T11:56:27Z</time>
      </trkpt>
      <trkpt lat="45.17309" lon="5.5988">
        <ele>1356.1</ele>
        <time>2013-02-10T11:56:30Z</time>
      </trkpt>
      <trkpt lat="45.17309" lon="5.59891">
        <ele>1353</ele>
        <time>2013-02-10T11:56:34Z</time>
      </trkpt>
      <trkpt lat="45.17311" lon="5.599">
        <ele>1351.2</ele>
        <time>2013-02-10T11:56:36Z</time>
      </trkpt>
      <trkpt lat="45.17314" lon="5.5991">
        <ele>1349.2</ele>
        <time>2013-02-10T11:56:38Z</time>
      </trkpt>
      <trkpt lat="45.1732" lon="5.5992">
        <ele>1347.3</ele>
        <time>2013-02-10T11:56:40Z</time>
      </trkpt>
      <trkpt lat="45.17324" lon="5.59928">
        <ele>1345.7</ele>
        <time>2013-02-10T11:56:42Z</time>
      </trkpt>
      <trkpt lat="45.17324" lon="5.59936">
        <ele>1344.5</ele>
        <time>2013-02-10T11:56:44Z</time>
      </trkpt>
      <trkpt lat="45.17322" lon="5.59946">
        <ele>1342.7</ele>
        <time>2013-02-10T11:56:46Z</time>
      </trkpt>
      <trkpt lat="45.17318" lon="5.59953">
        <ele>1339.9</ele>
        <time>2013-02-10T11:56:48Z</time>
      </trkpt>
      <trkpt lat="45.17314" lon="5.59961">
        <ele>1336.8</ele>
        <time>2013-02-10T11:56:50Z</time>
      </trkpt>
      <trkpt lat="45.17311" lon="5.59967">
        <ele>1335.9</ele>
        <time>2013-02-10T11:56:51Z</time>
      </trkpt>
      <trkpt lat="45.17306" lon="5.59977">
        <ele>1332.6</ele>
        <time>2013-02-10T11:56:53Z</time>
      </trkpt>
      <trkpt lat="45.17301" lon="5.59986">
        <ele>1328.5</ele>
        <time>2013-02-10T11:56:55Z</time>
      </trkpt>
      <trkpt lat="45.17296" lon="5.59994">
        <ele>1325.5</ele>
        <time>2013-02-10T11:56:57Z</time>
      </trkpt>
      <trkpt lat="45.1729" lon="5.60002">
        <ele>1322.7</ele>
        <time>2013-02-10T11:56:59Z</time>
      </trkpt>
      <trkpt lat="45.17287" lon="5.60007">
        <ele>1321.5</ele>
        <time>2013-02-10T11:57:00Z</time>
      </trkpt>
      <trkpt lat="45.17285" lon="5.60014">
        <ele>1319.7</ele>
        <time>2013-02-10T11:57:01Z</time>
      </trkpt>
      <trkpt lat="45.17283" lon="5.60019">
        <ele>1318.3</ele>
        <time>2013-02-10T11:57:02Z</time>
      </trkpt>
      <trkpt lat="45.1728" lon="5.60031">
        <ele>1315.6</ele>
        <time>2013-02-10T11:57:04Z</time>
      </trkpt>
      <trkpt lat="45.17278" lon="5.60037">
        <ele>1314.4</ele>
        <time>2013-02-10T11:57:05Z</time>
      </trkpt>
      <trkpt lat="45.17276" lon="5.60044">
        <ele>1312.7</ele>
        <time>2013-02-10T11:57:06Z</time>
      </trkpt>
      <trkpt lat="45.17275" lon="5.6005">
        <ele>1311.4</ele>
        <time>2013-02-10T11:57:07Z</time>
      </trkpt>
      <trkpt lat="45.17273" lon="5.60057">
        <ele>1309.3</ele>
        <time>2013-02-10T11:57:08Z</time>
      </trkpt>
      <trkpt lat="45.17271" lon="5.60063">
        <ele>1307.7</ele>
        <time>2013-02-10T11:57:09Z</time>
      </trkpt>
      <trkpt lat="45.17269" lon="5.6007">
        <ele>1306.5</ele>
        <time>2013-02-10T11:57:10Z</time>
      </trkpt>
      <trkpt lat="45.17267" lon="5.60076">
        <ele>1305.1</ele>
        <time>2013-02-10T11:57:11Z</time>
      </trkpt>
      <trkpt lat="45.17265" lon="5.60083">
        <ele>1304</ele>
        <time>2013-02-10T11:57:12Z</time>
      </trkpt>
      <trkpt lat="45.17263" lon="5.60089">
        <ele>1302</ele>
        <time>2013-02-10T11:57:13Z</time>
      </trkpt>
      <trkpt lat="45.17257" lon="5.60098">
        <ele>1299.5</ele>
        <time>2013-02-10T11:57:15Z</time>
      </trkpt>
      <trkpt lat="45.1725" lon="5.60102">
        <ele>1296.4</ele>
        <time>2013-02-10T11:57:17Z</time>
      </trkpt>
      <trkpt lat="45.17242" lon="5.60107">
        <ele>1294.1</ele>
        <time>2013-02-10T11:57:19Z</time>
      </trkpt>
      <trkpt lat="45.17235" lon="5.60114">
        <ele>1291</ele>
        <time>2013-02-10T11:57:21Z</time>
      </trkpt>
      <trkpt lat="45.1723" lon="5.60117">
        <ele>1290</ele>
        <time>2013-02-10T11:57:22Z</time>
      </trkpt>
      <trkpt lat="45.17225" lon="5.6012">
        <ele>1288.5</ele>
        <time>2013-02-10T11:57:23Z</time>
      </trkpt>
      <trkpt lat="45.1722" lon="5.60122">
        <ele>1287.4</ele>
        <time>2013-02-10T11:57:24Z</time>
      </trkpt>
      <trkpt lat="45.17211" lon="5.6012">
        <ele>1285.1</ele>
        <time>2013-02-10T11:57:26Z</time>
      </trkpt>
      <trkpt lat="45.17204" lon="5.60116">
        <ele>1282.6</ele>
        <time>2013-02-10T11:57:35Z</time>
      </trkpt>
      <trkpt lat="45.17196" lon="5.60114">
        <ele>1281.9</ele>
        <time>2013-02-10T11:57:38Z</time>
      </trkpt>
      <trkpt lat="45.17189" lon="5.60113">
        <ele>1280.1</ele>
        <time>2013-02-10T11:57:40Z</time>
      </trkpt>
      <trkpt lat="45.17182" lon="5.60112">
        <ele>1278.9</ele>
        <time>2013-02-10T11:57:42Z</time>
      </trkpt>
      <trkpt lat="45.17173" lon="5.6011">
        <ele>1277.4</ele>
        <time>2013-02-10T11:57:44Z</time>
      </trkpt>
      <trkpt lat="45.17166" lon="5.60108">
        <ele>1275.8</ele>
        <time>2013-02-10T11:57:46Z</time>
      </trkpt>
      <trkpt lat="45.1716" lon="5.60106">
        <ele>1274.5</ele>
        <time>2013-02-10T11:57:48Z</time>
      </trkpt>
      <trkpt lat="45.17153" lon="5.60106">
        <ele>1273.2</ele>
        <time>2013-02-10T11:57:50Z</time>
      </trkpt>
      <trkpt lat="45.17146" lon="5.60105">
        <ele>1272.2</ele>
        <time>2013-02-10T11:57:52Z</time>
      </trkpt>
      <trkpt lat="45.17139" lon="5.60105">
        <ele>1271.1</ele>
        <time>2013-02-10T11:57:54Z</time>
      </trkpt>
      <trkpt lat="45.1713" lon="5.60106">
        <ele>1269.9</ele>
        <time>2013-02-10T11:57:59Z</time>
      </trkpt>
      <trkpt lat="45.17122" lon="5.60106">
        <ele>1269.1</ele>
        <time>2013-02-10T11:58:13Z</time>
      </trkpt>
      <trkpt lat="45.17121" lon="5.60107">
        <ele>1269.1</ele>
        <time>2013-02-10T11:58:14Z</time>
      </trkpt>
      <trkpt lat="45.17109" lon="5.60117">
        <ele>1265.3</ele>
        <time>2013-02-10T11:58:38Z</time>
      </trkpt>
      <trkpt lat="45.17103" lon="5.60122">
        <ele>1263.2</ele>
        <time>2013-02-10T11:58:41Z</time>
      </trkpt>
      <trkpt lat="45.17098" lon="5.60131">
        <ele>1260.3</ele>
        <time>2013-02-10T11:58:45Z</time>
      </trkpt>
      <trkpt lat="45.1709" lon="5.60136">
        <ele>1256.5</ele>
        <time>2013-02-10T11:58:49Z</time>
      </trkpt>
      <trkpt lat="45.17082" lon="5.60141">
        <ele>1253.3</ele>
        <time>2013-02-10T11:58:53Z</time>
      </trkpt>
      <trkpt lat="45.17075" lon="5.60138">
        <ele>1251.5</ele>
        <time>2013-02-10T11:58:56Z</time>
      </trkpt>
      <trkpt lat="45.17067" lon="5.60134">
        <ele>1249.6</ele>
        <time>2013-02-10T11:59:05Z</time>
      </trkpt>
      <trkpt lat="45.17061" lon="5.60133">
        <ele>1248.9</ele>
        <time>2013-02-10T11:59:13Z</time>
      </trkpt>
      <trkpt lat="45.17053" lon="5.60135">
        <ele>1246.1</ele>
        <time>2013-02-10T11:59:20Z</time>
      </trkpt>
      <trkpt lat="45.1705" lon="5.60135">
        <ele>1245.6</ele>
        <time>2013-02-10T11:59:21Z</time>
      </trkpt>
      <trkpt lat="45.17039" lon="5.60146">
        <ele>1239.8</ele>
        <time>2013-02-10T11:59:35Z</time>
      </trkpt>
      <trkpt lat="45.17033" lon="5.60152">
        <ele>1236.2</ele>
        <time>2013-02-10T11:59:42Z</time>
      </trkpt>
      <trkpt lat="45.17027" lon="5.6016">
        <ele>1231.2</ele>
        <time>2013-02-10T11:59:55Z</time>
      </trkpt>
      <trkpt lat="45.17022" lon="5.6017">
        <ele>1229</ele>
        <time>2013-02-10T11:59:59Z</time>
      </trkpt>
      <trkpt lat="45.17014" lon="5.6017">
        <ele>1226.5</ele>
        <time>2013-02-10T12:00:03Z</time>
      </trkpt>
      <trkpt lat="45.17016" lon="5.60179">
        <ele>1223.6</ele>
        <time>2013-02-10T12:00:10Z</time>
      </trkpt>
      <trkpt lat="45.17018" lon="5.60187">
        <ele>1222.5</ele>
        <time>2013-02-10T12:00:12Z</time>
      </trkpt>
      <trkpt lat="45.17023" lon="5.60195">
        <ele>1221.4</ele>
        <time>2013-02-10T12:00:14Z</time>
      </trkpt>
      <trkpt lat="45.17026" lon="5.60206">
        <ele>1219.2</ele>
        <time>2013-02-10T12:00:25Z</time>
      </trkpt>
      <trkpt lat="45.17026" lon="5.60207">
        <ele>1219.2</ele>
        <time>2013-02-10T12:00:26Z</time>
      </trkpt>
      <trkpt lat="45.17022" lon="5.60225">
        <ele>1216.6</ele>
        <time>2013-02-10T12:00:34Z</time>
      </trkpt>
      <trkpt lat="45.17015" lon="5.60233">
        <ele>1211.9</ele>
        <time>2013-02-10T12:01:02Z</time>
      </trkpt>
      <trkpt lat="45.17017" lon="5.60243">
        <ele>1213.5</ele>
        <time>2013-02-10T12:01:44Z</time>
      </trkpt>
      <trkpt lat="45.17016" lon="5.60248">
        <ele>1213.5</ele>
        <time>2013-02-10T12:01:45Z</time>
      </trkpt>
      <trkpt lat="45.17021" lon="5.60262">
        <ele>1210.6</ele>
        <time>2013-02-10T12:01:48Z</time>
      </trkpt>
      <trkpt lat="45.17022" lon="5.60268">
        <ele>1209.7</ele>
        <time>2013-02-10T12:01:49Z</time>
      </trkpt>
      <trkpt lat="45.17025" lon="5.60274">
        <ele>1209.1</ele>
        <time>2013-02-10T12:01:50Z</time>
      </trkpt>
      <trkpt lat="45.1703" lon="5.60284">
        <ele>1206.8</ele>
        <time>2013-02-10T12:01:52Z</time>
      </trkpt>
      <trkpt lat="45.17032" lon="5.60294">
        <ele>1205.1</ele>
        <time>2013-02-10T12:01:54Z</time>
      </trkpt>
      <trkpt lat="45.17031" lon="5.60301">
        <ele>1204.5</ele>
        <time>2013-02-10T12:01:55Z</time>
      </trkpt>
      <trkpt lat="45.17031" lon="5.6031">
        <ele>1203.4</ele>
        <time>2013-02-10T12:01:56Z</time>
      </trkpt>
      <trkpt lat="45.17031" lon="5.60318">
        <ele>1202.7</ele>
        <time>2013-02-10T12:01:57Z</time>
      </trkpt>
      <trkpt lat="45.17031" lon="5.60325">
        <ele>1201.2</ele>
        <time>2013-02-10T12:01:58Z</time>
      </trkpt>
      <trkpt lat="45.17028" lon="5.60337">
        <ele>1198.6</ele>
        <time>2013-02-10T12:02:00Z</time>
      </trkpt>
      <trkpt lat="45.17026" lon="5.60348">
        <ele>1196</ele>
        <time>2013-02-10T12:02:03Z</time>
      </trkpt>
      <trkpt lat="45.17028" lon="5.60359">
        <ele>1193.8</ele>
        <time>2013-02-10T12:02:06Z</time>
      </trkpt>
      <trkpt lat="45.17033" lon="5.60366">
        <ele>1193.8</ele>
        <time>2013-02-10T12:02:09Z</time>
      </trkpt>
      <trkpt lat="45.17038" lon="5.60374">
        <ele>1192.7</ele>
        <time>2013-02-10T12:02:13Z</time>
      </trkpt>
      <trkpt lat="45.17042" lon="5.60385">
        <ele>1190.9</ele>
        <time>2013-02-10T12:02:18Z</time>
      </trkpt>
      <trkpt lat="45.17049" lon="5.60392">
        <ele>1189.9</ele>
        <time>2013-02-10T12:02:22Z</time>
      </trkpt>
      <trkpt lat="45.17056" lon="5.60396">
        <ele>1187.6</ele>
        <time>2013-02-10T12:02:26Z</time>
      </trkpt>
      <trkpt lat="45.17065" lon="5.60398">
        <ele>1186.1</ele>
        <time>2013-02-10T12:02:30Z</time>
      </trkpt>
      <trkpt lat="45.1707" lon="5.60403">
        <ele>1185.5</ele>
        <time>2013-02-10T12:02:32Z</time>
      </trkpt>
      <trkpt lat="45.17076" lon="5.60412">
        <ele>1184.9</ele>
        <time>2013-02-10T12:02:36Z</time>
      </trkpt>
      <trkpt lat="45.17081" lon="5.60422">
        <ele>1182.9</ele>
        <time>2013-02-10T12:02:44Z</time>
      </trkpt>
      <trkpt lat="45.17087" lon="5.60431">
        <ele>1180.7</ele>
        <time>2013-02-10T12:02:49Z</time>
      </trkpt>
      <trkpt lat="45.17089" lon="5.60432">
        <ele>1180.5</ele>
        <time>2013-02-10T12:02:50Z</time>
      </trkpt>
      <trkpt lat="45.17102" lon="5.60444">
        <ele>1177.3</ele>
        <time>2013-02-10T12:03:00Z</time>
      </trkpt>
      <trkpt lat="45.1711" lon="5.6045">
        <ele>1175.3</ele>
        <time>2013-02-10T12:03:05Z</time>
      </trkpt>
      <trkpt lat="45.17117" lon="5.60454">
        <ele>1173.8</ele>
        <time>2013-02-10T12:03:10Z</time>
      </trkpt>
      <trkpt lat="45.17124" lon="5.60459">
        <ele>1172.1</ele>
        <time>2013-02-10T12:03:16Z</time>
      </trkpt>
      <trkpt lat="45.17132" lon="5.6046">
        <ele>1171</ele>
        <time>2013-02-10T12:03:22Z</time>
      </trkpt>
      <trkpt lat="45.17139" lon="5.60461">
        <ele>1168.8</ele>
        <time>2013-02-10T12:03:26Z</time>
      </trkpt>
      <trkpt lat="45.17147" lon="5.60458">
        <ele>1166.3</ele>
        <time>2013-02-10T12:03:30Z</time>
      </trkpt>
      <trkpt lat="45.17154" lon="5.60455">
        <ele>1164.9</ele>
        <time>2013-02-10T12:03:34Z</time>
      </trkpt>
      <trkpt lat="45.17162" lon="5.60449">
        <ele>1161.7</ele>
        <time>2013-02-10T12:03:39Z</time>
      </trkpt>
      <trkpt lat="45.17171" lon="5.60451">
        <ele>1159.2</ele>
        <time>2013-02-10T12:03:44Z</time>
      </trkpt>
      <trkpt lat="45.17178" lon="5.60454">
        <ele>1157.5</ele>
        <time>2013-02-10T12:03:50Z</time>
      </trkpt>
      <trkpt lat="45.17179" lon="5.60455">
        <ele>1157.5</ele>
        <time>2013-02-10T12:03:51Z</time>
      </trkpt>
      <trkpt lat="45.17194" lon="5.60462">
        <ele>1156.6</ele>
        <time>2013-02-10T12:04:06Z</time>
      </trkpt>
      <trkpt lat="45.17202" lon="5.6046">
        <ele>1154.5</ele>
        <time>2013-02-10T12:04:11Z</time>
      </trkpt>
      <trkpt lat="45.1721" lon="5.60457">
        <ele>1153.7</ele>
        <time>2013-02-10T12:04:16Z</time>
      </trkpt>
      <trkpt lat="45.17219" lon="5.60456">
        <ele>1149.9</ele>
        <time>2013-02-10T12:04:22Z</time>
      </trkpt>
      <trkpt lat="45.17227" lon="5.60456">
        <ele>1148.1</ele>
        <time>2013-02-10T12:04:27Z</time>
      </trkpt>
      <trkpt lat="45.17235" lon="5.60457">
        <ele>1144.8</ele>
        <time>2013-02-10T12:04:33Z</time>
      </trkpt>
      <trkpt lat="45.17244" lon="5.60456">
        <ele>1141.8</ele>
        <time>2013-02-10T12:04:39Z</time>
      </trkpt>
      <trkpt lat="45.17253" lon="5.60454">
        <ele>1139.3</ele>
        <time>2013-02-10T12:04:44Z</time>
      </trkpt>
      <trkpt lat="45.17261" lon="5.60452">
        <ele>1136.9</ele>
        <time>2013-02-10T12:04:49Z</time>
      </trkpt>
      <trkpt lat="45.17267" lon="5.60448">
        <ele>1133.6</ele>
        <time>2013-02-10T12:04:55Z</time>
      </trkpt>
      <trkpt lat="45.17269" lon="5.60447">
        <ele>1133.1</ele>
        <time>2013-02-10T12:04:56Z</time>
      </trkpt>
      <trkpt lat="45.17282" lon="5.6044">
        <ele>1128.8</ele>
        <time>2013-02-10T12:05:05Z</time>
      </trkpt>
      <trkpt lat="45.1729" lon="5.60444">
        <ele>1128.6</ele>
        <time>2013-02-10T12:05:11Z</time>
      </trkpt>
      <trkpt lat="45.17298" lon="5.6045">
        <ele>1128.9</ele>
        <time>2013-02-10T12:05:17Z</time>
      </trkpt>
      <trkpt lat="45.17306" lon="5.60455">
        <ele>1128.9</ele>
        <time>2013-02-10T12:05:22Z</time>
      </trkpt>
      <trkpt lat="45.17312" lon="5.60462">
        <ele>1127.4</ele>
        <time>2013-02-10T12:05:26Z</time>
      </trkpt>
      <trkpt lat="45.17317" lon="5.60469">
        <ele>1124.5</ele>
        <time>2013-02-10T12:05:32Z</time>
      </trkpt>
      <trkpt lat="45.17322" lon="5.60479">
        <ele>1121.5</ele>
        <time>2013-02-10T12:05:38Z</time>
      </trkpt>
      <trkpt lat="45.1733" lon="5.60483">
        <ele>1121</ele>
        <time>2013-02-10T12:05:45Z</time>
      </trkpt>
      <trkpt lat="45.17337" lon="5.6049">
        <ele>1120.3</ele>
        <time>2013-02-10T12:05:54Z</time>
      </trkpt>
      <trkpt lat="45.17342" lon="5.60496">
        <ele>1119</ele>
        <time>2013-02-10T12:05:58Z</time>
      </trkpt>
      <trkpt lat="45.17346" lon="5.60497">
        <ele>1118.7</ele>
        <time>2013-02-10T12:05:59Z</time>
      </trkpt>
      <trkpt lat="45.17356" lon="5.60504">
        <ele>1116.6</ele>
        <time>2013-02-10T12:06:02Z</time>
      </trkpt>
      <trkpt lat="45.1736" lon="5.60515">
        <ele>1114.3</ele>
        <time>2013-02-10T12:06:05Z</time>
      </trkpt>
      <trkpt lat="45.1736" lon="5.60527">
        <ele>1110.2</ele>
        <time>2013-02-10T12:06:09Z</time>
      </trkpt>
      <trkpt lat="45.17357" lon="5.60538">
        <ele>1106</ele>
        <time>2013-02-10T12:06:13Z</time>
      </trkpt>
      <trkpt lat="45.1735" lon="5.60542">
        <ele>1103.1</ele>
        <time>2013-02-10T12:06:16Z</time>
      </trkpt>
      <trkpt lat="45.17343" lon="5.60547">
        <ele>1101.1</ele>
        <time>2013-02-10T12:06:19Z</time>
      </trkpt>
      <trkpt lat="45.17336" lon="5.60552">
        <ele>1099.4</ele>
        <time>2013-02-10T12:06:21Z</time>
      </trkpt>
      <trkpt lat="45.1733" lon="5.60556">
        <ele>1098.1</ele>
        <time>2013-02-10T12:06:23Z</time>
      </trkpt>
      <trkpt lat="45.17325" lon="5.60562">
        <ele>1097.2</ele>
        <time>2013-02-10T12:06:25Z</time>
      </trkpt>
      <trkpt lat="45.17319" lon="5.60567">
        <ele>1096.5</ele>
        <time>2013-02-10T12:06:27Z</time>
      </trkpt>
      <trkpt lat="45.17312" lon="5.60574">
        <ele>1095.3</ele>
        <time>2013-02-10T12:06:29Z</time>
      </trkpt>
      <trkpt lat="45.17306" lon="5.6058">
        <ele>1093.7</ele>
        <time>2013-02-10T12:06:31Z</time>
      </trkpt>
      <trkpt lat="45.17301" lon="5.60586">
        <ele>1092.4</ele>
        <time>2013-02-10T12:06:33Z</time>
      </trkpt>
      <trkpt lat="45.17294" lon="5.60593">
        <ele>1091.4</ele>
        <time>2013-02-10T12:06:35Z</time>
      </trkpt>
      <trkpt lat="45.17288" lon="5.60599">
        <ele>1089.7</ele>
        <time>2013-02-10T12:06:37Z</time>
      </trkpt>
      <trkpt lat="45.17291" lon="5.60609">
        <ele>1087.1</ele>
        <time>2013-02-10T12:06:40Z</time>
      </trkpt>
      <trkpt lat="45.17296" lon="5.60614">
        <ele>1085.4</ele>
        <time>2013-02-10T12:06:42Z</time>
      </trkpt>
      <trkpt lat="45.17303" lon="5.60619">
        <ele>1082.1</ele>
        <time>2013-02-10T12:06:45Z</time>
      </trkpt>
      <trkpt lat="45.17307" lon="5.6063">
        <ele>1075.4</ele>
        <time>2013-02-10T12:06:56Z</time>
      </trkpt>
      <trkpt lat="45.17312" lon="5.6064">
        <ele>1073.6</ele>
        <time>2013-02-10T12:07:16Z</time>
      </trkpt>
      <trkpt lat="45.17312" lon="5.60641">
        <ele>1073.4</ele>
        <time>2013-02-10T12:07:17Z</time>
      </trkpt>
      <trkpt lat="45.17321" lon="5.60656">
        <ele>1070.6</ele>
        <time>2013-02-10T12:07:27Z</time>
      </trkpt>
      <trkpt lat="45.1732" lon="5.60665">
        <ele>1069.4</ele>
        <time>2013-02-10T12:07:29Z</time>
      </trkpt>
      <trkpt lat="45.17316" lon="5.60672">
        <ele>1067</ele>
        <time>2013-02-10T12:07:31Z</time>
      </trkpt>
      <trkpt lat="45.17311" lon="5.60678">
        <ele>1065.5</ele>
        <time>2013-02-10T12:07:33Z</time>
      </trkpt>
      <trkpt lat="45.17311" lon="5.6069">
        <ele>1063.3</ele>
        <time>2013-02-10T12:07:36Z</time>
      </trkpt>
      <trkpt lat="45.17315" lon="5.60698">
        <ele>1060.8</ele>
        <time>2013-02-10T12:07:38Z</time>
      </trkpt>
      <trkpt lat="45.17316" lon="5.6071">
        <ele>1058.6</ele>
        <time>2013-02-10T12:07:40Z</time>
      </trkpt>
      <trkpt lat="45.17317" lon="5.60722">
        <ele>1055.8</ele>
        <time>2013-02-10T12:07:42Z</time>
      </trkpt>
      <trkpt lat="45.17317" lon="5.60734">
        <ele>1053.6</ele>
        <time>2013-02-10T12:07:44Z</time>
      </trkpt>
      <trkpt lat="45.17313" lon="5.60743">
        <ele>1050.8</ele>
        <time>2013-02-10T12:07:46Z</time>
      </trkpt>
      <trkpt lat="45.17309" lon="5.60752">
        <ele>1048.5</ele>
        <time>2013-02-10T12:07:48Z</time>
      </trkpt>
      <trkpt lat="45.17309" lon="5.60762">
        <ele>1045.4</ele>
        <time>2013-02-10T12:07:50Z</time>
      </trkpt>
      <trkpt lat="45.17307" lon="5.60772">
        <ele>1043.3</ele>
        <time>2013-02-10T12:07:52Z</time>
      </trkpt>
      <trkpt lat="45.17309" lon="5.60782">
        <ele>1041.1</ele>
        <time>2013-02-10T12:07:54Z</time>
      </trkpt>
      <trkpt lat="45.1731" lon="5.60794">
        <ele>1038.5</ele>
        <time>2013-02-10T12:07:56Z</time>
      </trkpt>
      <trkpt lat="45.1731" lon="5.60806">
        <ele>1036.6</ele>
        <time>2013-02-10T12:07:58Z</time>
      </trkpt>
      <trkpt lat="45.17308" lon="5.60818">
        <ele>1033.2</ele>
        <time>2013-02-10T12:08:00Z</time>
      </trkpt>
      <trkpt lat="45.17305" lon="5.60829">
        <ele>1029.4</ele>
        <time>2013-02-10T12:08:02Z</time>
      </trkpt>
      <trkpt lat="45.17302" lon="5.60838">
        <ele>1026.5</ele>
        <time>2013-02-10T12:08:04Z</time>
      </trkpt>
      <trkpt lat="45.17302" lon="5.60848">
        <ele>1024.4</ele>
        <time>2013-02-10T12:08:06Z</time>
      </trkpt>
      <trkpt lat="45.17302" lon="5.60855">
        <ele>1023.5</ele>
        <time>2013-02-10T12:08:07Z</time>
      </trkpt>
      <trkpt lat="45.173" lon="5.60867">
        <ele>1020.9</ele>
        <time>2013-02-10T12:08:09Z</time>
      </trkpt>
      <trkpt lat="45.17295" lon="5.60877">
        <ele>1018.5</ele>
        <time>2013-02-10T12:08:11Z</time>
      </trkpt>
      <trkpt lat="45.17292" lon="5.60889">
        <ele>1015.7</ele>
        <time>2013-02-10T12:08:13Z</time>
      </trkpt>
      <trkpt lat="45.17289" lon="5.60901">
        <ele>1012.6</ele>
        <time>2013-02-10T12:08:15Z</time>
      </trkpt>
      <trkpt lat="45.1729" lon="5.60913">
        <ele>1010.2</ele>
        <time>2013-02-10T12:08:17Z</time>
      </trkpt>
      <trkpt lat="45.1729" lon="5.6092">
        <ele>1008.6</ele>
        <time>2013-02-10T12:08:18Z</time>
      </trkpt>
      <trkpt lat="45.17289" lon="5.60928">
        <ele>1007.4</ele>
        <time>2013-02-10T12:08:19Z</time>
      </trkpt>
      <trkpt lat="45.17289" lon="5.60936">
        <ele>1005.8</ele>
        <time>2013-02-10T12:08:20Z</time>
      </trkpt>
      <trkpt lat="45.17295" lon="5.60945">
        <ele>1003.4</ele>
        <time>2013-02-10T12:08:22Z</time>
      </trkpt>
      <trkpt lat="45.17295" lon="5.60955">
        <ele>999.9</ele>
        <time>2013-02-10T12:08:33Z</time>
      </trkpt>
      <trkpt lat="45.1729" lon="5.60961">
        <ele>999.3</ele>
        <time>2013-02-10T12:08:35Z</time>
      </trkpt>
      <trkpt lat="45.17284" lon="5.60966">
        <ele>998.1</ele>
        <time>2013-02-10T12:08:37Z</time>
      </trkpt>
      <trkpt lat="45.17277" lon="5.60969">
        <ele>996.4</ele>
        <time>2013-02-10T12:08:39Z</time>
      </trkpt>
      <trkpt lat="45.17271" lon="5.60976">
        <ele>994.9</ele>
        <time>2013-02-10T12:08:42Z</time>
      </trkpt>
      <trkpt lat="45.17273" lon="5.60985">
        <ele>994.2</ele>
        <time>2013-02-10T12:08:45Z</time>
      </trkpt>
      <trkpt lat="45.17276" lon="5.60996">
        <ele>993.2</ele>
        <time>2013-02-10T12:08:48Z</time>
      </trkpt>
      <trkpt lat="45.17279" lon="5.61006">
        <ele>990.9</ele>
        <time>2013-02-10T12:09:02Z</time>
      </trkpt>
      <trkpt lat="45.17277" lon="5.61016">
        <ele>989.7</ele>
        <time>2013-02-10T12:09:05Z</time>
      </trkpt>
      <trkpt lat="45.17279" lon="5.61028">
        <ele>987.7</ele>
        <time>2013-02-10T12:09:08Z</time>
      </trkpt>
      <trkpt lat="45.1728" lon="5.61036">
        <ele>986.3</ele>
        <time>2013-02-10T12:09:10Z</time>
      </trkpt>
      <trkpt lat="45.17281" lon="5.61046">
        <ele>984.5</ele>
        <time>2013-02-10T12:09:12Z</time>
      </trkpt>
      <trkpt lat="45.1728" lon="5.61058">
        <ele>982.7</ele>
        <time>2013-02-10T12:09:14Z</time>
      </trkpt>
      <trkpt lat="45.17282" lon="5.61064">
        <ele>981.4</ele>
        <time>2013-02-10T12:09:15Z</time>
      </trkpt>
      <trkpt lat="45.17285" lon="5.6107">
        <ele>980.4</ele>
        <time>2013-02-10T12:09:16Z</time>
      </trkpt>
      <trkpt lat="45.17288" lon="5.61075">
        <ele>979.1</ele>
        <time>2013-02-10T12:09:17Z</time>
      </trkpt>
      <trkpt lat="45.17293" lon="5.61079">
        <ele>978</ele>
        <time>2013-02-10T12:09:18Z</time>
      </trkpt>
      <trkpt lat="45.17297" lon="5.61083">
        <ele>976.9</ele>
        <time>2013-02-10T12:09:19Z</time>
      </trkpt>
      <trkpt lat="45.17301" lon="5.61087">
        <ele>976.1</ele>
        <time>2013-02-10T12:09:20Z</time>
      </trkpt>
      <trkpt lat="45.17308" lon="5.61094">
        <ele>974.3</ele>
        <time>2013-02-10T12:09:22Z</time>
      </trkpt>
      <trkpt lat="45.17314" lon="5.61102">
        <ele>972.3</ele>
        <time>2013-02-10T12:09:24Z</time>
      </trkpt>
      <trkpt lat="45.17321" lon="5.61107">
        <ele>970.8</ele>
        <time>2013-02-10T12:09:26Z</time>
      </trkpt>
      <trkpt lat="45.17329" lon="5.61114">
        <ele>968.9</ele>
        <time>2013-02-10T12:09:28Z</time>
      </trkpt>
      <trkpt lat="45.17333" lon="5.61118">
        <ele>968</ele>
        <time>2013-02-10T12:09:29Z</time>
      </trkpt>
      <trkpt lat="45.17337" lon="5.61124">
        <ele>967.3</ele>
        <time>2013-02-10T12:09:30Z</time>
      </trkpt>
      <trkpt lat="45.17341" lon="5.6113">
        <ele>965.8</ele>
        <time>2013-02-10T12:09:31Z</time>
      </trkpt>
      <trkpt lat="45.17344" lon="5.61137">
        <ele>964.7</ele>
        <time>2013-02-10T12:09:32Z</time>
      </trkpt>
      <trkpt lat="45.17347" lon="5.61148">
        <ele>963.1</ele>
        <time>2013-02-10T12:09:34Z</time>
      </trkpt>
      <trkpt lat="45.17349" lon="5.61157">
        <ele>962</ele>
        <time>2013-02-10T12:09:36Z</time>
      </trkpt>
      <trkpt lat="45.17352" lon="5.61169">
        <ele>961.2</ele>
        <time>2013-02-10T12:09:39Z</time>
      </trkpt>
      <trkpt lat="45.17354" lon="5.61177">
        <ele>960.5</ele>
        <time>2013-02-10T12:09:41Z</time>
      </trkpt>
      <trkpt lat="45.17357" lon="5.61186">
        <ele>959.9</ele>
        <time>2013-02-10T12:09:43Z</time>
      </trkpt>
      <trkpt lat="45.17363" lon="5.61194">
        <ele>959.6</ele>
        <time>2013-02-10T12:09:46Z</time>
      </trkpt>
      <trkpt lat="45.17369" lon="5.612">
        <ele>959.5</ele>
        <time>2013-02-10T12:09:49Z</time>
      </trkpt>
      <trkpt lat="45.17375" lon="5.61206">
        <ele>959.4</ele>
        <time>2013-02-10T12:09:52Z</time>
      </trkpt>
      <trkpt lat="45.17381" lon="5.61211">
        <ele>959.3</ele>
        <time>2013-02-10T12:09:55Z</time>
      </trkpt>
      <trkpt lat="45.17388" lon="5.61218">
        <ele>959.3</ele>
        <time>2013-02-10T12:10:01Z</time>
      </trkpt>
      <trkpt lat="45.17394" lon="5.61226">
        <ele>959.2</ele>
        <time>2013-02-10T12:10:09Z</time>
      </trkpt>
      <trkpt lat="45.174" lon="5.61234">
        <ele>960</ele>
        <time>2013-02-10T12:10:18Z</time>
      </trkpt>
      <trkpt lat="45.17408" lon="5.6124">
        <ele>960.6</ele>
        <time>2013-02-10T12:10:30Z</time>
      </trkpt>
      <trkpt lat="45.17408" lon="5.61241">
        <ele>960.6</ele>
        <time>2013-02-10T12:10:31Z</time>
      </trkpt>
      <trkpt lat="45.17422" lon="5.61253">
        <ele>962.2</ele>
        <time>2013-02-10T12:10:49Z</time>
      </trkpt>
      <trkpt lat="45.17429" lon="5.6126">
        <ele>962.6</ele>
        <time>2013-02-10T12:10:57Z</time>
      </trkpt>
      <trkpt lat="45.17435" lon="5.61268">
        <ele>962.2</ele>
        <time>2013-02-10T12:11:04Z</time>
      </trkpt>
      <trkpt lat="45.17434" lon="5.61279">
        <ele>961.3</ele>
        <time>2013-02-10T12:11:07Z</time>
      </trkpt>
      <trkpt lat="45.17439" lon="5.61287">
        <ele>959.7</ele>
        <time>2013-02-10T12:11:10Z</time>
      </trkpt>
      <trkpt lat="45.17442" lon="5.61295">
        <ele>958.4</ele>
        <time>2013-02-10T12:11:13Z</time>
      </trkpt>
      <trkpt lat="45.17447" lon="5.61303">
        <ele>957.6</ele>
        <time>2013-02-10T12:11:16Z</time>
      </trkpt>
      <trkpt lat="45.17454" lon="5.6131">
        <ele>955.8</ele>
        <time>2013-02-10T12:11:19Z</time>
      </trkpt>
      <trkpt lat="45.17459" lon="5.61314">
        <ele>955</ele>
        <time>2013-02-10T12:11:21Z</time>
      </trkpt>
      <trkpt lat="45.17464" lon="5.6132">
        <ele>953.8</ele>
        <time>2013-02-10T12:11:23Z</time>
      </trkpt>
      <trkpt lat="45.17471" lon="5.61325">
        <ele>952.7</ele>
        <time>2013-02-10T12:11:25Z</time>
      </trkpt>
      <trkpt lat="45.17476" lon="5.61328">
        <ele>952.3</ele>
        <time>2013-02-10T12:11:27Z</time>
      </trkpt>
      <trkpt lat="45.17483" lon="5.61334">
        <ele>951</ele>
        <time>2013-02-10T12:11:29Z</time>
      </trkpt>
      <trkpt lat="45.1749" lon="5.61338">
        <ele>949.6</ele>
        <time>2013-02-10T12:11:31Z</time>
      </trkpt>
      <trkpt lat="45.17492" lon="5.61339">
        <ele>949</ele>
        <time>2013-02-10T12:11:32Z</time>
      </trkpt>
      <trkpt lat="45.17477" lon="5.6135">
        <ele>945.2</ele>
        <time>2013-02-10T12:11:43Z</time>
      </trkpt>
      <trkpt lat="45.17471" lon="5.61351">
        <ele>944.6</ele>
        <time>2013-02-10T12:11:45Z</time>
      </trkpt>
      <trkpt lat="45.17463" lon="5.61351">
        <ele>943.9</ele>
        <time>2013-02-10T12:11:48Z</time>
      </trkpt>
      <trkpt lat="45.17464" lon="5.61363">
        <ele>941.7</ele>
        <time>2013-02-10T12:11:57Z</time>
      </trkpt>
      <trkpt lat="45.1747" lon="5.61372">
        <ele>939.3</ele>
        <time>2013-02-10T12:12:01Z</time>
      </trkpt>
      <trkpt lat="45.17477" lon="5.61378">
        <ele>937.5</ele>
        <time>2013-02-10T12:12:04Z</time>
      </trkpt>
      <trkpt lat="45.17485" lon="5.61384">
        <ele>936.3</ele>
        <time>2013-02-10T12:12:15Z</time>
      </trkpt>
      <trkpt lat="45.17492" lon="5.61386">
        <ele>937.3</ele>
        <time>2013-02-10T12:12:24Z</time>
      </trkpt>
      <trkpt lat="45.175" lon="5.61392">
        <ele>935.9</ele>
        <time>2013-02-10T12:12:29Z</time>
      </trkpt>
      <trkpt lat="45.17507" lon="5.61399">
        <ele>932.5</ele>
        <time>2013-02-10T12:12:42Z</time>
      </trkpt>
      <trkpt lat="45.17508" lon="5.61399">
        <ele>932.5</ele>
        <time>2013-02-10T12:12:43Z</time>
      </trkpt>
      <trkpt lat="45.17519" lon="5.61413">
        <ele>924.2</ele>
        <time>2013-02-10T12:13:15Z</time>
      </trkpt>
      <trkpt lat="45.17526" lon="5.61406">
        <ele>922.8</ele>
        <time>2013-02-10T12:13:23Z</time>
      </trkpt>
      <trkpt lat="45.17531" lon="5.61414">
        <ele>919.4</ele>
        <time>2013-02-10T12:13:38Z</time>
      </trkpt>
      <trkpt lat="45.17536" lon="5.61424">
        <ele>916.4</ele>
        <time>2013-02-10T12:13:48Z</time>
      </trkpt>
      <trkpt lat="45.17536" lon="5.61425">
        <ele>916.5</ele>
        <time>2013-02-10T12:13:49Z</time>
      </trkpt>
      <trkpt lat="45.17533" lon="5.61445">
        <ele>910.2</ele>
        <time>2013-02-10T12:14:02Z</time>
      </trkpt>
      <trkpt lat="45.17534" lon="5.61456">
        <ele>907.6</ele>
        <time>2013-02-10T12:14:06Z</time>
      </trkpt>
      <trkpt lat="45.17538" lon="5.61465">
        <ele>904.9</ele>
        <time>2013-02-10T12:14:09Z</time>
      </trkpt>
      <trkpt lat="45.17541" lon="5.61476">
        <ele>901</ele>
        <time>2013-02-10T12:14:14Z</time>
      </trkpt>
      <trkpt lat="45.17548" lon="5.61481">
        <ele>898.8</ele>
        <time>2013-02-10T12:14:17Z</time>
      </trkpt>
      <trkpt lat="45.17554" lon="5.61487">
        <ele>897.5</ele>
        <time>2013-02-10T12:14:19Z</time>
      </trkpt>
      <trkpt lat="45.1756" lon="5.61491">
        <ele>895.9</ele>
        <time>2013-02-10T12:14:21Z</time>
      </trkpt>
      <trkpt lat="45.17558" lon="5.61503">
        <ele>893.8</ele>
        <time>2013-02-10T12:14:24Z</time>
      </trkpt>
      <trkpt lat="45.17554" lon="5.6151">
        <ele>892.4</ele>
        <time>2013-02-10T12:14:26Z</time>
      </trkpt>
      <trkpt lat="45.1755" lon="5.6152">
        <ele>890.6</ele>
        <time>2013-02-10T12:14:28Z</time>
      </trkpt>
      <trkpt lat="45.17548" lon="5.61532">
        <ele>889.1</ele>
        <time>2013-02-10T12:14:30Z</time>
      </trkpt>
      <trkpt lat="45.17547" lon="5.61543">
        <ele>887.3</ele>
        <time>2013-02-10T12:14:32Z</time>
      </trkpt>
      <trkpt lat="45.17544" lon="5.61554">
        <ele>885.6</ele>
        <time>2013-02-10T12:14:35Z</time>
      </trkpt>
      <trkpt lat="45.17539" lon="5.61563">
        <ele>884.3</ele>
        <time>2013-02-10T12:14:39Z</time>
      </trkpt>
      <trkpt lat="45.17538" lon="5.61576">
        <ele>883.8</ele>
        <time>2013-02-10T12:14:55Z</time>
      </trkpt>
      <trkpt lat="45.17538" lon="5.61577">
        <ele>883.7</ele>
        <time>2013-02-10T12:14:56Z</time>
      </trkpt>
      <trkpt lat="45.17535" lon="5.61601">
        <ele>881.8</ele>
        <time>2013-02-10T12:15:41Z</time>
      </trkpt>
      <trkpt lat="45.17542" lon="5.61609">
        <ele>878.5</ele>
        <time>2013-02-10T12:16:18Z</time>
      </trkpt>
      <trkpt lat="45.17542" lon="5.61611">
        <ele>878.3</ele>
        <time>2013-02-10T12:16:19Z</time>
      </trkpt>
      <trkpt lat="45.17541" lon="5.61632">
        <ele>873.9</ele>
        <time>2013-02-10T12:16:29Z</time>
      </trkpt>
      <trkpt lat="45.17536" lon="5.61641">
        <ele>871.2</ele>
        <time>2013-02-10T12:16:33Z</time>
      </trkpt>
      <trkpt lat="45.17529" lon="5.61647">
        <ele>867.7</ele>
        <time>2013-02-10T12:16:45Z</time>
      </trkpt>
      <trkpt lat="45.1752" lon="5.61648">
        <ele>866</ele>
        <time>2013-02-10T12:16:51Z</time>
      </trkpt>
      <trkpt lat="45.17513" lon="5.61643">
        <ele>864.7</ele>
        <time>2013-02-10T12:16:55Z</time>
      </trkpt>
      <trkpt lat="45.17507" lon="5.61638">
        <ele>864.2</ele>
        <time>2013-02-10T12:16:58Z</time>
      </trkpt>
      <trkpt lat="45.17501" lon="5.6163">
        <ele>862.8</ele>
        <time>2013-02-10T12:17:02Z</time>
      </trkpt>
      <trkpt lat="45.17496" lon="5.61622">
        <ele>861.8</ele>
        <time>2013-02-10T12:17:07Z</time>
      </trkpt>
      <trkpt lat="45.17491" lon="5.61614">
        <ele>860.3</ele>
        <time>2013-02-10T12:17:11Z</time>
      </trkpt>
      <trkpt lat="45.17487" lon="5.61606">
        <ele>859.4</ele>
        <time>2013-02-10T12:17:15Z</time>
      </trkpt>
      <trkpt lat="45.17484" lon="5.61597">
        <ele>858.4</ele>
        <time>2013-02-10T12:17:18Z</time>
      </trkpt>
      <trkpt lat="45.17479" lon="5.61587">
        <ele>857.5</ele>
        <time>2013-02-10T12:17:23Z</time>
      </trkpt>
      <trkpt lat="45.17479" lon="5.61585">
        <ele>857.5</ele>
        <time>2013-02-10T12:17:24Z</time>
      </trkpt>
      <trkpt lat="45.17477" lon="5.61608">
        <ele>854.1</ele>
        <time>2013-02-10T12:17:40Z</time>
      </trkpt>
      <trkpt lat="45.17478" lon="5.61621">
        <ele>853</ele>
        <time>2013-02-10T12:17:43Z</time>
      </trkpt>
      <trkpt lat="45.17479" lon="5.61632">
        <ele>851.8</ele>
        <time>2013-02-10T12:17:46Z</time>
      </trkpt>
      <trkpt lat="45.17479" lon="5.61643">
        <ele>846.2</ele>
        <time>2013-02-10T12:18:24Z</time>
      </trkpt>
      <trkpt lat="45.1748" lon="5.61645">
        <ele>846</ele>
        <time>2013-02-10T12:18:25Z</time>
      </trkpt>
      <trkpt lat="45.17466" lon="5.6163">
        <ele>840.8</ele>
        <time>2013-02-10T12:18:45Z</time>
      </trkpt>
      <trkpt lat="45.17462" lon="5.6162">
        <ele>840</ele>
        <time>2013-02-10T12:18:51Z</time>
      </trkpt>
      <trkpt lat="45.17457" lon="5.61611">
        <ele>836.9</ele>
        <time>2013-02-10T12:19:09Z</time>
      </trkpt>
      <trkpt lat="45.17452" lon="5.61604">
        <ele>836.9</ele>
        <time>2013-02-10T12:19:14Z</time>
      </trkpt>
      <trkpt lat="45.17447" lon="5.61594">
        <ele>835.2</ele>
        <time>2013-02-10T12:19:18Z</time>
      </trkpt>
      <trkpt lat="45.17441" lon="5.61588">
        <ele>833.9</ele>
        <time>2013-02-10T12:19:29Z</time>
      </trkpt>
      <trkpt lat="45.1744" lon="5.61586">
        <ele>833.6</ele>
        <time>2013-02-10T12:19:30Z</time>
      </trkpt>
      <trkpt lat="45.17426" lon="5.61595">
        <ele>834.4</ele>
        <time>2013-02-10T12:20:21Z</time>
      </trkpt>
      <trkpt lat="45.17428" lon="5.61606">
        <ele>833.8</ele>
        <time>2013-02-10T12:20:29Z</time>
      </trkpt>
      <trkpt lat="45.17432" lon="5.61616">
        <ele>834.1</ele>
        <time>2013-02-10T12:20:35Z</time>
      </trkpt>
      <trkpt lat="45.17433" lon="5.61618">
        <ele>834.4</ele>
        <time>2013-02-10T12:20:36Z</time>
      </trkpt>
      <trkpt lat="45.1744" lon="5.61637">
        <ele>834.8</ele>
        <time>2013-02-10T12:20:47Z</time>
      </trkpt>
      <trkpt lat="45.17446" lon="5.61647">
        <ele>834.9</ele>
        <time>2013-02-10T12:20:53Z</time>
      </trkpt>
      <trkpt lat="45.17451" lon="5.61656">
        <ele>833.7</ele>
        <time>2013-02-10T12:20:59Z</time>
      </trkpt>
      <trkpt lat="45.1746" lon="5.61654">
        <ele>836.9</ele>
        <time>2013-02-10T12:22:12Z</time>
      </trkpt>
      <trkpt lat="45.17461" lon="5.61655">
        <ele>837.1</ele>
        <time>2013-02-10T12:22:13Z</time>
      </trkpt>
      <trkpt lat="45.17461" lon="5.61663">
        <ele>838.1</ele>
        <time>2013-02-10T12:22:37Z</time>
      </trkpt>
      <trkpt lat="45.17461" lon="5.61663">
        <ele>838.1</ele>
        <time>2013-02-10T12:22:37Z</time>
      </trkpt>
      <trkpt lat="45.17459" lon="5.61662">
        <ele>838.4</ele>
        <time>2013-02-10T12:22:43Z</time>
      </trkpt>
    </trkseg>
  </trk>
</gpx>